Darstellungsparameter: Aktuell verwendete Einstellungen:
Skalierung der Graphiken ... ?
xyx+y,   Skalierungsfaktor:      Skalierung: Modus: x, Faktor: 1
Darstellungszeitraum ... ?
Vom - - bis: - -   Zeitraum: 14.09.2011 - 13.10.2011
Min/Max/Avg-Anzeige ... ?
Zeige MMA aktuell
Zeige MMA Monat
Zeige MMA alles
Zeige --A aktuell
Zeige --A Monat
Zeige --A alles
Keine MMA-Anzeige
MMA:
Average (ber die Originaldaten)
MMA-Basis: 14.09.2011 - 13.10.2011
Quicknavigation für Darstellung... ?
Tage:      1T, 2T, 3T, 5T -1T -2T -3T -5T +1T +2T +3T +5T
Wochen: 1W, 2W, 3W -1W -2W -3W +1W +2W +3W
Monate: 1M, 3M, 6M -1M -3M -6M +1M +3M +6M
Jahre:    1J, 3J, 5J, 10J -1J -3J -5J -10J +1J +3J +5J +10J
Nutze für die Darstellung ... ?
Originaldaten oder Mittelwerte auf ...
Stundenbasis Tagesbasis Wochenbasis
Monatsbasis Jahresbasis      Datenbasis: Original-Daten
Darstellen als:
Statistik (Auto) Statistik J:M      Darstellung:
Zur Graphik,    zurück zur Übersicht aller Sensoren.
 
Tabellarische Datenbersicht: ?
 
Sensor: Nr:Datum:Temp:Abs-Feuchte:Windchill:Wind:
Aussen-T/F 1 14-09-2011 00:09:03 12.8 C 9.07 g/m*3 12.8 C 0 km/h
2 14-09-2011 00:21:03 12.8 C 8.96 g/m*3 12.8 C 0 km/h
3 14-09-2011 00:33:03 12.7 C 8.91 g/m*3 12.7 C 0 km/h
4 14-09-2011 00:45:03 12.5 C 8.91 g/m*3 12.5 C 0 km/h
5 14-09-2011 00:57:03 12.5 C 9.13 g/m*3 12.5 C 0 km/h
6 14-09-2011 01:09:03 12.4 C 9.07 g/m*3 12.4 C 0 km/h
7 14-09-2011 01:21:03 12.7 C 9.35 g/m*3 12.7 C 0 km/h
8 14-09-2011 01:33:03 13 C 9.41 g/m*3 13 C 0 km/h
9 14-09-2011 01:45:03 13.1 C 9.24 g/m*3 13.1 C 0 km/h
10 14-09-2011 01:57:03 13.1 C 9.01 g/m*3 13.1 C 0 km/h
11 14-09-2011 02:09:03 12.8 C 8.85 g/m*3 12.8 C 0 km/h
12 14-09-2011 02:21:03 12.4 C 8.74 g/m*3 12.4 C 0 km/h
13 14-09-2011 02:33:03 12 C 8.74 g/m*3 12 C 0 km/h
14 14-09-2011 02:45:03 11.8 C 8.84 g/m*3 11.8 C 0 km/h
15 14-09-2011 02:57:03 11.6 C 8.73 g/m*3 11.6 C 0 km/h
16 14-09-2011 03:09:03 11.5 C 8.78 g/m*3 11.5 C 0 km/h
17 14-09-2011 03:21:03 10.8 C 8.4 g/m*3 10.8 C 0 km/h
18 14-09-2011 03:33:03 10.9 C 8.55 g/m*3 10.9 C 0 km/h
19 14-09-2011 03:45:03 10.9 C 8.55 g/m*3 10.9 C 0 km/h
20 14-09-2011 03:57:03 11 C 8.61 g/m*3 11 C 0 km/h
21 14-09-2011 04:09:03 11.8 C 8.74 g/m*3 11.8 C 0 km/h
22 14-09-2011 04:21:03 12.1 C 7.94 g/m*3 12.1 C 0 km/h
23 14-09-2011 04:33:04 11.7 C 7.64 g/m*3 11.7 C 0 km/h
24 14-09-2011 04:45:04 11.5 C 7.54 g/m*3 11.5 C 0 km/h
25 14-09-2011 04:57:04 11.6 C 7.59 g/m*3 11.6 C 0 km/h
Sensor: Nr:Datum:Temp:Abs-Feuchte:Windchill:Wind:
Aussen-T/F 26 14-09-2011 05:09:04 11.5 C 7.64 g/m*3 11.5 C 0 km/h
27 14-09-2011 05:21:04 11 C 7.51 g/m*3 11 C 0 km/h
28 14-09-2011 05:33:04 10.4 C 7.61 g/m*3 10.4 C 0 km/h
29 14-09-2011 05:45:04 10.1 C 7.56 g/m*3 10.1 C 0 km/h
30 14-09-2011 05:57:04 9.9 C 7.66 g/m*3 9.9 C 0 km/h
31 14-09-2011 06:09:04 9.8 C 7.7 g/m*3 9.8 C 0 km/h
32 14-09-2011 06:21:04 9.7 C 7.65 g/m*3 9.7 C 0 km/h
33 14-09-2011 06:33:02 9.6 C 7.69 g/m*3 9.6 C 0 km/h
34 14-09-2011 06:45:02 9.5 C 7.65 g/m*3 9.5 C 0 km/h
35 14-09-2011 06:57:02 9.3 C 7.64 g/m*3 9.3 C 0 km/h
36 14-09-2011 07:09:02 9.3 C 7.64 g/m*3 9.3 C 0 km/h
37 14-09-2011 07:21:02 9.5 C 7.74 g/m*3 9.5 C 0 km/h
38 14-09-2011 07:33:02 9.7 C 7.84 g/m*3 9.7 C 0 km/h
39 14-09-2011 07:45:01 10.1 C 7.75 g/m*3 10.1 C 0 km/h
40 14-09-2011 07:57:01 10.5 C 7.66 g/m*3 10.5 C 0 km/h
41 14-09-2011 08:09:02 10.6 C 7.52 g/m*3 10.6 C 0 km/h
42 14-09-2011 08:21:01 10.8 C 7.51 g/m*3 10.8 C 0 km/h
43 14-09-2011 08:33:01 11 C 7.61 g/m*3 11 C 0 km/h
44 14-09-2011 08:45:01 11.4 C 7.6 g/m*3 11.4 C 0 km/h
45 14-09-2011 08:57:01 11.5 C 7.54 g/m*3 11.5 C 0 km/h
46 14-09-2011 09:09:02 11.5 C 7.33 g/m*3 11.5 C 0 km/h
47 14-09-2011 09:21:01 11.7 C 7.32 g/m*3 11.7 C 0 km/h
48 14-09-2011 09:33:01 11.9 C 7.2 g/m*3 11.9 C 0 km/h
49 14-09-2011 09:45:02 12.2 C 7.01 g/m*3 12.2 C 0 km/h
50 14-09-2011 09:57:02 12.2 C 7.01 g/m*3 12.2 C 0 km/h
Sensor: Nr:Datum:Temp:Abs-Feuchte:Windchill:Wind:
Aussen-T/F 51 14-09-2011 10:09:02 12.6 C 6.97 g/m*3 12.6 C 0 km/h
52 14-09-2011 10:21:01 12.8 C 7.06 g/m*3 12.8 C 0 km/h
53 14-09-2011 10:33:02 13 C 6.92 g/m*3 13 C 0 km/h
54 14-09-2011 10:45:01 13.3 C 6.82 g/m*3 13.3 C 0 km/h
55 14-09-2011 10:57:01 13.4 C 6.86 g/m*3 13.4 C 0 km/h
56 14-09-2011 11:09:02 13.7 C 6.75 g/m*3 13.7 C 0 km/h
57 14-09-2011 11:21:02 14.1 C 6.67 g/m*3 14.1 C 0 km/h
58 14-09-2011 11:33:02 14.3 C 6.76 g/m*3 14.3 C 0 km/h
59 14-09-2011 11:45:02 14.5 C 6.34 g/m*3 14.5 C 0 km/h
60 14-09-2011 11:57:02 14.6 C 6.26 g/m*3 14.6 C 0 km/h
61 14-09-2011 12:09:01 15 C 5.9 g/m*3 15 C 0 km/h
62 14-09-2011 12:21:02 15.4 C 6.04 g/m*3 15.4 C 0 km/h
63 14-09-2011 12:33:01 15.3 C 6.27 g/m*3 15.3 C 0 km/h
64 14-09-2011 12:45:01 16 C 6.4 g/m*3 16 C 0 km/h
65 14-09-2011 12:57:02 16 C 6.13 g/m*3 16 C 0 km/h
66 14-09-2011 13:09:01 16.5 C 6.18 g/m*3 16.5 C 0 km/h
67 14-09-2011 13:21:01 16.9 C 6.47 g/m*3 16.9 C 0 km/h
68 14-09-2011 13:33:02 17 C 6.08 g/m*3 17 C 0 km/h
69 14-09-2011 13:45:02 18.3 C 6.25 g/m*3 18.3 C 0 km/h
70 14-09-2011 13:57:02 18.7 C 6.08 g/m*3 18.7 C 0 km/h
71 14-09-2011 14:09:02 18.4 C 5.98 g/m*3 18.4 C 0 km/h
72 14-09-2011 14:21:01 18.2 C 5.91 g/m*3 18.2 C 0 km/h
73 14-09-2011 14:33:02 18.5 C 5.85 g/m*3 18.5 C 0 km/h
74 14-09-2011 14:45:01 19.1 C 5.9 g/m*3 19.1 C 0 km/h
75 14-09-2011 14:57:01 19.7 C 6.11 g/m*3 19.7 C 0 km/h
Sensor: Nr:Datum:Temp:Abs-Feuchte:Windchill:Wind:
Aussen-T/F 76 14-09-2011 15:09:02 18.9 C 5.83 g/m*3 18.9 C 0 km/h
77 14-09-2011 15:21:02 22.5 C 5.59 g/m*3 22.5 C 0 km/h
78 14-09-2011 15:33:02 22.1 C 5.27 g/m*3 22.1 C 0 km/h
79 14-09-2011 15:45:02 22.2 C 4.91 g/m*3 22.2 C 0 km/h
80 14-09-2011 15:57:02 22.1 C 5.08 g/m*3 22.1 C 0 km/h
81 14-09-2011 16:09:02 23.3 C 5.23 g/m*3 23.3 C 0 km/h
82 14-09-2011 16:21:02 23.4 C 5.26 g/m*3 23.4 C 0 km/h
83 14-09-2011 16:33:01 24 C 5 g/m*3 24 C 0 km/h
84 14-09-2011 16:45:02 22.8 C 5.08 g/m*3 22.8 C 0 km/h
85 14-09-2011 16:57:02 24.1 C 5.03 g/m*3 24.1 C 0 km/h
86 14-09-2011 17:09:01 24.4 C 5.34 g/m*3 24.4 C 0 km/h
87 14-09-2011 17:21:01 20.7 C 5.94 g/m*3 20.7 C 0 km/h
88 14-09-2011 17:33:02 22.1 C 5.27 g/m*3 22.1 C 0 km/h
89 14-09-2011 17:45:02 21.1 C 4.97 g/m*3 21.1 C 0 km/h
90 14-09-2011 17:57:02 22.9 C 4.7 g/m*3 22.9 C 0 km/h
91 14-09-2011 18:09:02 21 C 4.58 g/m*3 21 C 0 km/h
92 14-09-2011 18:21:02 19.1 C 5.25 g/m*3 19.1 C 0 km/h
93 14-09-2011 18:33:02 18.3 C 5.32 g/m*3 18.3 C 0 km/h
94 14-09-2011 18:45:02 17.8 C 5.46 g/m*3 17.8 C 0 km/h
95 14-09-2011 18:57:02 16.4 C 6.42 g/m*3 16.4 C 0 km/h
96 14-09-2011 19:09:02 15.9 C 6.64 g/m*3 15.9 C 0 km/h
97 14-09-2011 19:21:02 16.6 C 5.79 g/m*3 16.6 C 0 km/h
98 14-09-2011 19:33:02 16.1 C 6.03 g/m*3 16.1 C 0 km/h
99 14-09-2011 19:45:01 15.3 C 6.66 g/m*3 15.3 C 0 km/h
100 14-09-2011 19:57:01 14.1 C 6.8 g/m*3 14.1 C 0 km/h
Sensor: Nr:Datum:Temp:Abs-Feuchte:Windchill:Wind:
Aussen-T/F 101 14-09-2011 20:09:02 13.6 C 6.94 g/m*3 13.6 C 0 km/h
102 14-09-2011 20:21:02 13.4 C 6.86 g/m*3 13.4 C 0 km/h
103 14-09-2011 20:33:02 13.1 C 6.85 g/m*3 13.1 C 0 km/h
104 14-09-2011 20:45:02 12.8 C 6.94 g/m*3 12.8 C 0 km/h
105 14-09-2011 20:57:02 12.7 C 6.79 g/m*3 12.7 C 0 km/h
106 14-09-2011 21:09:01 12.7 C 6.9 g/m*3 12.7 C 0 km/h
107 14-09-2011 21:21:02 12.7 C 7.12 g/m*3 12.7 C 0 km/h
108 14-09-2011 21:33:01 13 C 7.14 g/m*3 13 C 0 km/h
109 14-09-2011 21:45:02 13.7 C 6.87 g/m*3 13.7 C 0 km/h
110 14-09-2011 21:57:02 13.4 C 7.09 g/m*3 13.4 C 0 km/h
111 14-09-2011 22:10:02 13.1 C 7.3 g/m*3 13.1 C 0 km/h
112 14-09-2011 22:22:02 13.4 C 7.32 g/m*3 13.4 C 0 km/h
113 14-09-2011 22:34:02 13.4 C 7.44 g/m*3 13.4 C 0 km/h
114 14-09-2011 22:46:02 13.2 C 7.46 g/m*3 13.2 C 0 km/h
115 14-09-2011 22:58:03 13.7 C 7.46 g/m*3 13.7 C 0 km/h
116 14-09-2011 23:10:03 13.7 C 7.22 g/m*3 13.7 C 0 km/h
117 14-09-2011 23:22:03 13.6 C 7.53 g/m*3 13.6 C 0 km/h
118 14-09-2011 23:34:03 13.6 C 7.3 g/m*3 13.6 C 0 km/h
119 14-09-2011 23:46:03 12.8 C 7.5 g/m*3 12.8 C 0 km/h
120 14-09-2011 23:58:03 11.9 C 7.31 g/m*3 11.9 C 0 km/h
121 15-09-2011 00:10:03 11.4 C 7.39 g/m*3 11.4 C 0 km/h
122 15-09-2011 00:22:03 10.7 C 7.37 g/m*3 10.7 C 0 km/h
123 15-09-2011 00:34:03 10.5 C 7.47 g/m*3 10.5 C 0 km/h
124 15-09-2011 00:46:03 10.6 C 7.71 g/m*3 10.6 C 0 km/h
125 15-09-2011 00:58:03 11.2 C 8.01 g/m*3 11.2 C 0 km/h
Sensor: Nr:Datum:Temp:Abs-Feuchte:Windchill:Wind:
Aussen-T/F 126 15-09-2011 01:10:03 11.9 C 8.15 g/m*3 11.9 C 0 km/h
127 15-09-2011 01:22:03 12.4 C 8.09 g/m*3 12.4 C 0 km/h
128 15-09-2011 01:34:03 13 C 7.83 g/m*3 13 C 0 km/h
129 15-09-2011 01:46:03 13.5 C 7.72 g/m*3 13.5 C 0 km/h
130 15-09-2011 01:58:03 13.4 C 7.67 g/m*3 13.4 C 0 km/h
131 15-09-2011 02:10:03 13.2 C 7.46 g/m*3 13.2 C 0 km/h
132 15-09-2011 02:22:03 13 C 7.71 g/m*3 13 C 0 km/h
133 15-09-2011 02:34:03 12.8 C 7.73 g/m*3 12.8 C 0 km/h
134 15-09-2011 02:46:03 12.5 C 7.7 g/m*3 12.5 C 0 km/h
135 15-09-2011 02:58:03 12.1 C 7.83 g/m*3 12.1 C 0 km/h
136 15-09-2011 03:10:04 11.7 C 7.95 g/m*3 11.7 C 0 km/h
137 15-09-2011 03:22:04 11.1 C 7.76 g/m*3 11.1 C 0 km/h
138 15-09-2011 03:34:04 10.8 C 7.91 g/m*3 10.8 C 0 km/h
139 15-09-2011 03:46:04 10.7 C 7.96 g/m*3 10.7 C 0 km/h
140 15-09-2011 03:58:04 10.8 C 8.11 g/m*3 10.8 C 0 km/h
141 15-09-2011 04:10:04 10.1 C 7.75 g/m*3 10.1 C 0 km/h
142 15-09-2011 04:22:04 10.2 C 7.9 g/m*3 10.2 C 0 km/h
143 15-09-2011 04:34:04 10.9 C 8.36 g/m*3 10.9 C 0 km/h
144 15-09-2011 04:46:04 11.7 C 8.68 g/m*3 11.7 C 0 km/h
145 15-09-2011 04:58:04 11.1 C 7.96 g/m*3 11.1 C 0 km/h
146 15-09-2011 05:10:04 10.1 C 7.47 g/m*3 10.1 C 0 km/h
147 15-09-2011 05:22:04 9.8 C 7.7 g/m*3 9.8 C 0 km/h
148 15-09-2011 05:34:04 9.6 C 7.69 g/m*3 9.6 C 0 km/h
149 15-09-2011 05:46:04 9.5 C 7.65 g/m*3 9.5 C 0 km/h
150 15-09-2011 05:58:04 9.4 C 7.69 g/m*3 9.4 C 0 km/h
Sensor: Nr:Datum:Temp:Abs-Feuchte:Windchill:Wind:
Aussen-T/F 151 15-09-2011 06:10:04 8.9 C 7.53 g/m*3 8.9 C 0 km/h
152 15-09-2011 06:22:04 8.9 C 7.62 g/m*3 8.9 C 0 km/h
153 15-09-2011 06:34:02 8.9 C 7.71 g/m*3 8.9 C 0 km/h
154 15-09-2011 06:46:01 9.2 C 7.77 g/m*3 9.2 C 0 km/h
155 15-09-2011 06:58:01 9.1 C 7.72 g/m*3 9.1 C 0 km/h
156 15-09-2011 07:10:02 9.1 C 7.72 g/m*3 9.1 C 0 km/h
157 15-09-2011 07:22:01 9.5 C 8.01 g/m*3 9.5 C 0 km/h
158 15-09-2011 07:34:01 9.7 C 8.11 g/m*3 9.7 C 0 km/h
159 15-09-2011 07:46:01 9.7 C 8.02 g/m*3 9.7 C 0 km/h
160 15-09-2011 07:58:01 9.4 C 7.78 g/m*3 9.4 C 0 km/h
161 15-09-2011 08:10:02 9.3 C 7.73 g/m*3 9.3 C 0 km/h
162 15-09-2011 08:22:02 9.4 C 7.78 g/m*3 9.4 C 0 km/h
163 15-09-2011 08:34:01 9.5 C 7.83 g/m*3 9.5 C 0 km/h
164 15-09-2011 08:46:02 9.6 C 7.88 g/m*3 9.6 C 0 km/h
165 15-09-2011 08:58:02 9.5 C 7.83 g/m*3 9.5 C 0 km/h
166 15-09-2011 09:10:01 9.5 C 7.83 g/m*3 9.5 C 0 km/h
167 15-09-2011 09:22:02 9.3 C 7.73 g/m*3 9.3 C 0 km/h
168 15-09-2011 09:34:01 9.8 C 8.07 g/m*3 9.8 C 0 km/h
169 15-09-2011 09:46:02 10.1 C 8.13 g/m*3 10.1 C 0 km/h
170 15-09-2011 09:58:02 10.2 C 8.18 g/m*3 10.2 C 0 km/h
171 15-09-2011 10:10:02 10.5 C 8.44 g/m*3 10.5 C 0 km/h
172 15-09-2011 10:22:02 11.2 C 8.72 g/m*3 11.2 C 0 km/h
173 15-09-2011 10:34:02 11.4 C 8.72 g/m*3 11.4 C 0 km/h
174 15-09-2011 10:46:02 11.5 C 8.88 g/m*3 11.5 C 0 km/h
175 15-09-2011 10:58:02 11.7 C 8.89 g/m*3 11.7 C 0 km/h
Sensor: Nr:Datum:Temp:Abs-Feuchte:Windchill:Wind:
Aussen-T/F 176 15-09-2011 11:10:02 12 C 9.06 g/m*3 12 C 0 km/h
177 15-09-2011 11:22:01 12.6 C 8.96 g/m*3 12.6 C 0 km/h
178 15-09-2011 11:34:02 12.9 C 9.02 g/m*3 12.9 C 0 km/h
179 15-09-2011 11:46:02 13.5 C 8.54 g/m*3 13.5 C 0 km/h
180 15-09-2011 11:58:02 14.3 C 7.99 g/m*3 14.3 C 0 km/h
181 15-09-2011 12:10:02 14.4 C 7.79 g/m*3 14.4 C 0 km/h
182 15-09-2011 12:22:01 14.6 C 7.63 g/m*3 14.6 C 0 km/h
183 15-09-2011 12:34:02 14.8 C 7.98 g/m*3 14.8 C 0 km/h
184 15-09-2011 12:46:01 15 C 7.95 g/m*3 15 C 0 km/h
185 15-09-2011 12:58:01 16 C 7.49 g/m*3 16 C 0 km/h
186 15-09-2011 13:10:02 16.8 C 7.01 g/m*3 16.8 C 0 km/h
187 15-09-2011 13:22:02 16.7 C 6.68 g/m*3 16.7 C 0 km/h
188 15-09-2011 13:34:02 17.2 C 6.88 g/m*3 17.2 C 0 km/h
189 15-09-2011 13:46:02 18.5 C 6.96 g/m*3 18.5 C 0 km/h
190 15-09-2011 13:58:02 20 C 6.39 g/m*3 20 C 0 km/h
191 15-09-2011 14:10:01 19 C 6.36 g/m*3 19 C 0 km/h
192 15-09-2011 14:22:02 18.9 C 6.48 g/m*3 18.9 C 0 km/h
193 15-09-2011 14:34:01 19.5 C 6.21 g/m*3 19.5 C 0 km/h
194 15-09-2011 14:46:02 19.3 C 5.97 g/m*3 19.3 C 0 km/h
195 15-09-2011 14:58:03 19.4 C 6.34 g/m*3 19.4 C 0 km/h
196 15-09-2011 15:10:02 19.9 C 6.19 g/m*3 19.9 C 0 km/h
197 15-09-2011 15:22:02 21.8 C 6.33 g/m*3 21.8 C 0 km/h
198 15-09-2011 15:34:03 22.6 C 6.03 g/m*3 22.6 C 0 km/h
199 15-09-2011 15:46:02 24.8 C 6.15 g/m*3 24.8 C 0 km/h
200 15-09-2011 15:58:02 26.1 C 5.39 g/m*3 26.1 C 0 km/h
Sensor: Nr:Datum:Temp:Abs-Feuchte:Windchill:Wind:
Aussen-T/F 201 15-09-2011 16:10:02 25.5 C 5.21 g/m*3 25.5 C 0 km/h
202 15-09-2011 16:22:01 26.4 C 5.48 g/m*3 26.4 C 0 km/h
203 15-09-2011 16:34:02 24.5 C 5.15 g/m*3 24.5 C 0 km/h
204 15-09-2011 16:46:02 24.6 C 4.95 g/m*3 24.6 C 0 km/h
205 15-09-2011 16:58:02 26.2 C 5.91 g/m*3 26.2 C 0 km/h
206 15-09-2011 17:10:02 26.6 C 5.29 g/m*3 26.6 C 0 km/h
207 15-09-2011 17:22:01 26.3 C 5.2 g/m*3 26.3 C 0 km/h
208 15-09-2011 17:34:02 24.3 C 5.09 g/m*3 24.3 C 0 km/h
209 15-09-2011 17:46:01 24.4 C 5.56 g/m*3 24.4 C 0 km/h
210 15-09-2011 17:58:01 24.7 C 5.66 g/m*3 24.7 C 0 km/h
211 15-09-2011 18:10:02 24 C 5.66 g/m*3 24 C 0 km/h
212 15-09-2011 18:22:02 22.9 C 6.74 g/m*3 22.9 C 0 km/h
213 15-09-2011 18:34:02 20.5 C 7.65 g/m*3 20.5 C 0 km/h
214 15-09-2011 18:46:02 19.5 C 7.38 g/m*3 19.5 C 0 km/h
215 15-09-2011 18:58:02 17.2 C 7.32 g/m*3 17.2 C 0 km/h
216 15-09-2011 19:10:01 16.2 C 7.17 g/m*3 16.2 C 0 km/h
217 15-09-2011 19:22:02 15.2 C 7.4 g/m*3 15.2 C 0 km/h
218 15-09-2011 19:34:02 14.6 C 7.51 g/m*3 14.6 C 0 km/h
219 15-09-2011 19:46:02 14.1 C 7.4 g/m*3 14.1 C 0 km/h
220 15-09-2011 19:58:02 14 C 7.6 g/m*3 14 C 0 km/h
221 15-09-2011 20:10:02 13.8 C 7.51 g/m*3 13.8 C 0 km/h
222 15-09-2011 20:22:02 13.3 C 7.63 g/m*3 13.3 C 0 km/h
223 15-09-2011 20:34:02 12.4 C 7.54 g/m*3 12.4 C 0 km/h
224 15-09-2011 20:46:01 12.5 C 8.03 g/m*3 12.5 C 0 km/h
225 15-09-2011 20:58:01 11.9 C 7.73 g/m*3 11.9 C 0 km/h
Sensor: Nr:Datum:Temp:Abs-Feuchte:Windchill:Wind:
Aussen-T/F 226 15-09-2011 21:10:02 11.2 C 7.4 g/m*3 11.2 C 0 km/h
227 15-09-2011 21:22:01 11 C 7.41 g/m*3 11 C 0 km/h
228 15-09-2011 21:34:02 11.2 C 7.8 g/m*3 11.2 C 0 km/h
229 15-09-2011 21:46:01 11.1 C 7.96 g/m*3 11.1 C 0 km/h
230 15-09-2011 21:58:01 10.5 C 7.66 g/m*3 10.5 C 0 km/h
231 15-09-2011 22:10:02 10.4 C 7.61 g/m*3 10.4 C 0 km/h
232 15-09-2011 22:22:01 10.3 C 7.57 g/m*3 10.3 C 0 km/h
233 15-09-2011 22:34:02 10 C 7.52 g/m*3 10 C 0 km/h
234 15-09-2011 22:46:01 9.5 C 7.37 g/m*3 9.5 C 0 km/h
235 15-09-2011 22:58:01 9.6 C 7.51 g/m*3 9.6 C 0 km/h
236 15-09-2011 23:10:02 9.1 C 7.28 g/m*3 9.1 C 0 km/h
237 15-09-2011 23:22:02 9.2 C 7.5 g/m*3 9.2 C 0 km/h
238 15-09-2011 23:34:02 8.9 C 7.36 g/m*3 8.9 C 0 km/h
239 15-09-2011 23:46:02 8.6 C 7.22 g/m*3 8.6 C 0 km/h
240 15-09-2011 23:58:02 8.5 C 7.26 g/m*3 8.5 C 0 km/h
241 16-09-2011 00:10:02 8.2 C 7.12 g/m*3 8.2 C 0 km/h
242 16-09-2011 00:22:02 8.6 C 7.39 g/m*3 8.6 C 0 km/h
243 16-09-2011 00:34:01 8.1 C 7.16 g/m*3 8.1 C 0 km/h
244 16-09-2011 00:46:02 7.9 C 7.15 g/m*3 7.9 C 0 km/h
245 16-09-2011 00:58:02 8.4 C 7.38 g/m*3 8.4 C 0 km/h
246 16-09-2011 01:10:01 7.8 C 7.18 g/m*3 7.8 C 0 km/h
247 16-09-2011 01:22:02 7.8 C 7.18 g/m*3 7.8 C 0 km/h
248 16-09-2011 01:34:02 7.7 C 7.14 g/m*3 7.7 C 0 km/h
249 16-09-2011 01:46:02 7.5 C 7.04 g/m*3 7.5 C 0 km/h
250 16-09-2011 01:58:02 7.3 C 6.95 g/m*3 7.3 C 0 km/h
Sensor: Nr:Datum:Temp:Abs-Feuchte:Windchill:Wind:
Aussen-T/F 251 16-09-2011 02:10:02 7.8 C 7.18 g/m*3 7.8 C 0 km/h
252 16-09-2011 02:22:02 7.6 C 7.17 g/m*3 7.6 C 0 km/h
253 16-09-2011 02:34:02 7.1 C 6.94 g/m*3 7.1 C 0 km/h
254 16-09-2011 02:47:03 7.1 C 6.94 g/m*3 7.1 C 0 km/h
255 16-09-2011 02:59:03 7.5 C 7.12 g/m*3 7.5 C 0 km/h
256 16-09-2011 03:11:03 7.1 C 6.94 g/m*3 7.1 C 0 km/h
257 16-09-2011 03:23:03 6.8 C 6.81 g/m*3 6.8 C 0 km/h
258 16-09-2011 03:35:02 6.8 C 6.81 g/m*3 6.8 C 0 km/h
259 16-09-2011 03:47:02 6.8 C 6.81 g/m*3 6.8 C 0 km/h
260 16-09-2011 03:59:02 6.8 C 6.81 g/m*3 6.8 C 0 km/h
261 16-09-2011 04:11:01 6.6 C 6.72 g/m*3 6.6 C 0 km/h
262 16-09-2011 04:23:01 6.6 C 6.72 g/m*3 6.6 C 0 km/h
263 16-09-2011 04:35:02 6.6 C 6.79 g/m*3 6.6 C 0 km/h
264 16-09-2011 04:47:02 6.4 C 6.71 g/m*3 6.4 C 0 km/h
265 16-09-2011 04:59:02 6.4 C 6.63 g/m*3 6.4 C 0 km/h
266 16-09-2011 05:11:02 6.4 C 6.63 g/m*3 6.4 C 0 km/h
267 16-09-2011 05:23:02 6.3 C 6.66 g/m*3 6.3 C 0 km/h
268 16-09-2011 05:35:02 7.1 C 7.02 g/m*3 7.1 C 0 km/h
269 16-09-2011 05:47:02 7.6 C 7.25 g/m*3 7.6 C 0 km/h
270 16-09-2011 05:59:02 8 C 7.44 g/m*3 8 C 0 km/h
271 16-09-2011 06:11:02 8.1 C 7.49 g/m*3 8.1 C 0 km/h
272 16-09-2011 06:23:02 8.2 C 7.54 g/m*3 8.2 C 0 km/h
273 16-09-2011 06:35:02 8.2 C 7.54 g/m*3 8.2 C 0 km/h
274 16-09-2011 06:47:02 8.1 C 7.57 g/m*3 8.1 C 0 km/h
275 16-09-2011 06:59:02 8.1 C 7.57 g/m*3 8.1 C 0 km/h
Sensor: Nr:Datum:Temp:Abs-Feuchte:Windchill:Wind:
Aussen-T/F 276 16-09-2011 07:11:02 8.1 C 7.57 g/m*3 8.1 C 0 km/h
277 16-09-2011 07:23:02 8.1 C 7.57 g/m*3 8.1 C 0 km/h
278 16-09-2011 07:35:02 8.1 C 7.57 g/m*3 8.1 C 0 km/h
279 16-09-2011 07:47:02 8.2 C 7.62 g/m*3 8.2 C 0 km/h
280 16-09-2011 07:59:02 8.2 C 7.62 g/m*3 8.2 C 0 km/h
281 16-09-2011 08:11:01 8.4 C 7.72 g/m*3 8.4 C 0 km/h
282 16-09-2011 08:23:02 8.5 C 7.77 g/m*3 8.5 C 0 km/h
283 16-09-2011 08:35:02 8.6 C 7.82 g/m*3 8.6 C 0 km/h
284 16-09-2011 08:47:02 8.7 C 7.87 g/m*3 8.7 C 0 km/h
285 16-09-2011 08:59:02 8.7 C 7.87 g/m*3 8.7 C 0 km/h
286 16-09-2011 09:11:03 8.7 C 7.87 g/m*3 8.7 C 0 km/h
287 16-09-2011 09:23:02 9.1 C 7.99 g/m*3 9.1 C 0 km/h
288 16-09-2011 09:35:02 9.5 C 8.28 g/m*3 9.5 C 0 km/h
289 16-09-2011 09:47:01 9.8 C 8.44 g/m*3 9.8 C 0 km/h
290 16-09-2011 09:59:01 9.9 C 8.4 g/m*3 9.9 C 0 km/h
291 16-09-2011 10:11:01 10.4 C 8.58 g/m*3 10.4 C 0 km/h
292 16-09-2011 10:23:01 10.6 C 8.59 g/m*3 10.6 C 0 km/h
293 16-09-2011 10:35:01 10.7 C 8.55 g/m*3 10.7 C 0 km/h
294 16-09-2011 10:47:02 11 C 8.61 g/m*3 11 C 0 km/h
295 16-09-2011 10:59:02 11.2 C 8.72 g/m*3 11.2 C 0 km/h
296 16-09-2011 11:11:02 11.8 C 9.05 g/m*3 11.8 C 0 km/h
297 16-09-2011 11:23:03 12.4 C 9.29 g/m*3 12.4 C 0 km/h
298 16-09-2011 11:35:02 13 C 9.41 g/m*3 13 C 0 km/h
299 16-09-2011 11:47:02 13.5 C 9.71 g/m*3 13.5 C 0 km/h
300 16-09-2011 11:59:02 14.1 C 9.83 g/m*3 14.1 C 0 km/h
Sensor: Nr:Datum:Temp:Abs-Feuchte:Windchill:Wind:
Aussen-T/F 301 16-09-2011 12:11:02 15 C 9.87 g/m*3 15 C 0 km/h
302 16-09-2011 12:23:02 15.1 C 9.68 g/m*3 15.1 C 0 km/h
303 16-09-2011 12:35:01 15.6 C 9.84 g/m*3 15.6 C 0 km/h
304 16-09-2011 12:47:02 16.2 C 9.1 g/m*3 16.2 C 0 km/h
305 16-09-2011 12:59:02 17.5 C 8.65 g/m*3 17.5 C 0 km/h
306 16-09-2011 13:11:01 18 C 8.29 g/m*3 18 C 0 km/h
307 16-09-2011 13:23:01 18.8 C 8.37 g/m*3 18.8 C 0 km/h
308 16-09-2011 13:35:02 19.8 C 7.69 g/m*3 19.8 C 0 km/h
309 16-09-2011 13:47:02 21.5 C 7.17 g/m*3 21.5 C 0 km/h
310 16-09-2011 13:59:02 20 C 8.47 g/m*3 20 C 0 km/h
311 16-09-2011 14:11:02 21.3 C 8.02 g/m*3 21.3 C 0 km/h
312 16-09-2011 14:23:02 22 C 7.18 g/m*3 22 C 0 km/h
313 16-09-2011 14:35:02 22.9 C 6.95 g/m*3 22.9 C 0 km/h
314 16-09-2011 14:47:02 22.8 C 6.91 g/m*3 22.8 C 0 km/h
315 16-09-2011 14:59:02 22.5 C 7.39 g/m*3 22.5 C 0 km/h
316 16-09-2011 15:11:02 22.4 C 7.55 g/m*3 22.4 C 0 km/h
317 16-09-2011 15:23:01 22.9 C 7.56 g/m*3 22.9 C 0 km/h
318 16-09-2011 15:35:02 22.4 C 7.94 g/m*3 22.4 C 0 km/h
319 16-09-2011 15:47:01 22.1 C 8 g/m*3 22.1 C 0 km/h
320 16-09-2011 15:59:01 21.5 C 9.05 g/m*3 21.5 C 0 km/h
321 16-09-2011 16:11:02 21.6 C 8.35 g/m*3 21.6 C 0 km/h
322 16-09-2011 16:23:02 21.3 C 9.88 g/m*3 21.3 C 0 km/h
323 16-09-2011 16:35:02 20 C 9.51 g/m*3 20 C 0 km/h
324 16-09-2011 16:47:02 19 C 9.94 g/m*3 19 C 0 km/h
325 16-09-2011 16:59:02 17.9 C 10.08 g/m*3 17.9 C 0 km/h
Sensor: Nr:Datum:Temp:Abs-Feuchte:Windchill:Wind:
Aussen-T/F 326 16-09-2011 17:11:01 17 C 10.13 g/m*3 17 C 0 km/h
327 16-09-2011 17:23:02 16.6 C 10.45 g/m*3 16.6 C 0 km/h
328 16-09-2011 17:35:01 16.5 C 10.67 g/m*3 16.5 C 0 km/h
329 16-09-2011 17:47:01 16.5 C 10.53 g/m*3 16.5 C 0 km/h
330 16-09-2011 17:59:02 16 C 10.35 g/m*3 16 C 0 km/h
331 16-09-2011 18:11:01 15.7 C 10.84 g/m*3 15.7 C 0 km/h
332 16-09-2011 18:23:01 15.5 C 10.84 g/m*3 15.5 C 0 km/h
333 16-09-2011 18:35:02 15.6 C 11.04 g/m*3 15.6 C 0 km/h
334 16-09-2011 18:47:02 15.6 C 11.04 g/m*3 15.6 C 0 km/h
335 16-09-2011 18:59:02 15.6 C 11.17 g/m*3 15.6 C 0 km/h
336 16-09-2011 19:11:02 15.3 C 10.84 g/m*3 15.3 C 0 km/h
337 16-09-2011 19:23:01 14.9 C 10.71 g/m*3 14.9 C 0 km/h
338 16-09-2011 19:35:02 14.8 C 10.64 g/m*3 14.8 C 0 km/h
339 16-09-2011 19:47:02 14.8 C 10.77 g/m*3 14.8 C 0 km/h
340 16-09-2011 19:59:02 14.5 C 10.57 g/m*3 14.5 C 0 km/h
341 16-09-2011 20:11:02 14.5 C 10.57 g/m*3 14.5 C 0 km/h
342 16-09-2011 20:23:01 15 C 10.9 g/m*3 15 C 0 km/h
343 16-09-2011 20:35:02 15.3 C 10.97 g/m*3 15.3 C 0 km/h
344 16-09-2011 20:47:01 15.4 C 10.77 g/m*3 15.4 C 0 km/h
345 16-09-2011 20:59:01 15.2 C 10.51 g/m*3 15.2 C 0 km/h
346 16-09-2011 21:11:02 15 C 10.51 g/m*3 15 C 0 km/h
347 16-09-2011 21:23:02 14.9 C 10.58 g/m*3 14.9 C 0 km/h
348 16-09-2011 21:35:02 15 C 10.64 g/m*3 15 C 0 km/h
349 16-09-2011 21:47:02 14.9 C 10.71 g/m*3 14.9 C 0 km/h
350 16-09-2011 21:59:02 14.7 C 10.58 g/m*3 14.7 C 0 km/h
Sensor: Nr:Datum:Temp:Abs-Feuchte:Windchill:Wind:
Aussen-T/F 351 16-09-2011 22:11:01 14.6 C 10.51 g/m*3 14.6 C 0 km/h
352 16-09-2011 22:23:02 14.6 C 10.51 g/m*3 14.6 C 0 km/h
353 16-09-2011 22:35:01 14.6 C 10.64 g/m*3 14.6 C 0 km/h
354 16-09-2011 22:47:02 14.3 C 10.32 g/m*3 14.3 C 0 km/h
355 16-09-2011 22:59:02 14.2 C 10.26 g/m*3 14.2 C 0 km/h
356 16-09-2011 23:11:01 14 C 10.13 g/m*3 14 C 0 km/h
357 16-09-2011 23:23:01 13.9 C 10.19 g/m*3 13.9 C 0 km/h
358 16-09-2011 23:35:02 13.8 C 10.25 g/m*3 13.8 C 0 km/h
359 16-09-2011 23:47:02 14 C 10.25 g/m*3 14 C 0 km/h
360 16-09-2011 23:59:02 14 C 10.25 g/m*3 14 C 0 km/h
361 17-09-2011 00:11:02 13.7 C 10.18 g/m*3 13.7 C 0 km/h
362 17-09-2011 00:23:02 13.4 C 10 g/m*3 13.4 C 0 km/h
363 17-09-2011 00:35:02 13.6 C 10.24 g/m*3 13.6 C 0 km/h
364 17-09-2011 00:47:02 13.5 C 10.18 g/m*3 13.5 C 0 km/h
365 17-09-2011 00:59:02 12.9 C 9.92 g/m*3 12.9 C 0 km/h
366 17-09-2011 01:11:02 13.1 C 9.93 g/m*3 13.1 C 0 km/h
367 17-09-2011 01:23:02 13.4 C 10.23 g/m*3 13.4 C 0 km/h
368 17-09-2011 01:35:02 13.7 C 10.42 g/m*3 13.7 C 0 km/h
369 17-09-2011 01:47:01 13.5 C 10.29 g/m*3 13.5 C 0 km/h
370 17-09-2011 01:59:01 13.4 C 10.23 g/m*3 13.4 C 0 km/h
371 17-09-2011 02:11:01 13.4 C 10.23 g/m*3 13.4 C 0 km/h
372 17-09-2011 02:23:01 12.8 C 9.97 g/m*3 12.8 C 0 km/h
373 17-09-2011 02:35:01 12.9 C 10.03 g/m*3 12.9 C 0 km/h
374 17-09-2011 02:47:01 12.8 C 9.97 g/m*3 12.8 C 0 km/h
375 17-09-2011 02:59:01 12.7 C 9.91 g/m*3 12.7 C 0 km/h
Sensor: Nr:Datum:Temp:Abs-Feuchte:Windchill:Wind:
Aussen-T/F 376 17-09-2011 03:11:01 12.5 C 9.78 g/m*3 12.5 C 0 km/h
377 17-09-2011 03:23:01 12.6 C 9.85 g/m*3 12.6 C 0 km/h
378 17-09-2011 03:35:01 12.5 C 9.78 g/m*3 12.5 C 0 km/h
379 17-09-2011 03:47:01 12.1 C 9.54 g/m*3 12.1 C 0 km/h
380 17-09-2011 03:59:01 12 C 9.48 g/m*3 12 C 0 km/h
381 17-09-2011 04:11:01 12 C 9.48 g/m*3 12 C 0 km/h
382 17-09-2011 04:23:01 13 C 10.09 g/m*3 13 C 0 km/h
383 17-09-2011 04:35:01 13.2 C 10.22 g/m*3 13.2 C 0 km/h
384 17-09-2011 04:47:02 13.4 C 10.46 g/m*3 13.4 C 0 km/h
385 17-09-2011 04:59:02 13.5 C 10.53 g/m*3 13.5 C 0 km/h
386 17-09-2011 05:11:01 13.5 C 10.53 g/m*3 13.5 C 0 km/h
387 17-09-2011 05:23:02 13.6 C 10.59 g/m*3 13.6 C 0 km/h
388 17-09-2011 05:35:01 13.5 C 10.53 g/m*3 13.5 C 0 km/h
389 17-09-2011 05:47:02 13.8 C 10.72 g/m*3 13.8 C 0 km/h
390 17-09-2011 05:59:02 13.6 C 10.59 g/m*3 13.6 C 0 km/h
391 17-09-2011 06:11:01 13.1 C 10.27 g/m*3 13.1 C 0 km/h
392 17-09-2011 06:23:01 13 C 10.21 g/m*3 13 C 0 km/h
393 17-09-2011 06:35:02 14.1 C 10.8 g/m*3 14.1 C 0 km/h
394 17-09-2011 06:47:01 14.5 C 11.19 g/m*3 14.5 C 0 km/h
395 17-09-2011 06:59:01 14.9 C 11.47 g/m*3 14.9 C 0 km/h
396 17-09-2011 07:11:02 14.9 C 11.47 g/m*3 14.9 C 0 km/h
397 17-09-2011 07:23:01 14.9 C 11.47 g/m*3 14.9 C 0 km/h
398 17-09-2011 07:35:02 14.8 C 11.4 g/m*3 14.8 C 0 km/h
399 17-09-2011 07:47:01 14.7 C 11.33 g/m*3 14.7 C 0 km/h
400 17-09-2011 07:59:01 14.9 C 11.47 g/m*3 14.9 C 0 km/h
Sensor: Nr:Datum:Temp:Abs-Feuchte:Windchill:Wind:
Aussen-T/F 401 17-09-2011 08:11:02 15.3 C 11.62 g/m*3 15.3 C 0 km/h
402 17-09-2011 08:23:01 15.2 C 11.55 g/m*3 15.2 C 0 km/h
403 17-09-2011 08:35:01 15.2 C 11.55 g/m*3 15.2 C 0 km/h
404 17-09-2011 08:47:01 15.7 C 12.04 g/m*3 15.7 C 0 km/h
405 17-09-2011 08:59:01 16.1 C 12.2 g/m*3 16.1 C 0 km/h
406 17-09-2011 09:11:01 16 C 12.13 g/m*3 16 C 0 km/h
407 17-09-2011 09:23:02 16.3 C 12.21 g/m*3 16.3 C 0 km/h
408 17-09-2011 09:35:01 16.4 C 12 g/m*3 16.4 C 0 km/h
409 17-09-2011 09:47:02 17.1 C 10.77 g/m*3 17.1 C 0 km/h
410 17-09-2011 09:59:02 16.8 C 10.29 g/m*3 16.8 C 0 km/h
411 17-09-2011 10:11:01 17.1 C 9.46 g/m*3 17.1 C 0 km/h
412 17-09-2011 10:23:02 17.5 C 9.84 g/m*3 17.5 C 0 km/h
413 17-09-2011 10:35:01 18.4 C 9.44 g/m*3 18.4 C 0 km/h
414 17-09-2011 10:47:02 18.7 C 8.81 g/m*3 18.7 C 0 km/h
415 17-09-2011 10:59:02 19.7 C 8.83 g/m*3 19.7 C 0 km/h
416 17-09-2011 11:11:01 19.6 C 8.61 g/m*3 19.6 C 0 km/h
417 17-09-2011 11:23:01 19 C 8.47 g/m*3 19 C 0 km/h
418 17-09-2011 11:35:02 18.7 C 8.65 g/m*3 18.7 C 0 km/h
419 17-09-2011 11:47:01 18.6 C 8.59 g/m*3 18.6 C 0 km/h
420 17-09-2011 11:59:01 19 C 8.15 g/m*3 19 C 0 km/h
421 17-09-2011 12:11:02 19.1 C 7.87 g/m*3 19.1 C 0 km/h
422 17-09-2011 12:23:01 19.4 C 8.18 g/m*3 19.4 C 0 km/h
423 17-09-2011 12:35:01 19.5 C 7.89 g/m*3 19.5 C 0 km/h
424 17-09-2011 12:47:01 20 C 7.95 g/m*3 20 C 0 km/h
425 17-09-2011 12:59:01 20.2 C 8.22 g/m*3 20.2 C 0 km/h
Sensor: Nr:Datum:Temp:Abs-Feuchte:Windchill:Wind:
Aussen-T/F 426 17-09-2011 13:11:02 20.6 C 7.87 g/m*3 20.6 C 0 km/h
427 17-09-2011 13:23:01 20.7 C 7.92 g/m*3 20.7 C 0 km/h
428 17-09-2011 13:35:01 20.6 C 8.05 g/m*3 20.6 C 0 km/h
429 17-09-2011 13:47:01 20.6 C 8.23 g/m*3 20.6 C 0 km/h
430 17-09-2011 13:59:01 20.8 C 8.51 g/m*3 20.8 C 0 km/h
431 17-09-2011 14:11:01 20.7 C 8.28 g/m*3 20.7 C 0 km/h
432 17-09-2011 14:23:02 21.9 C 8.49 g/m*3 21.9 C 0 km/h
433 17-09-2011 14:35:01 22.9 C 8.58 g/m*3 22.9 C 0 km/h
434 17-09-2011 14:47:02 21.1 C 8.48 g/m*3 21.1 C 0 km/h
435 17-09-2011 14:59:02 21.3 C 8.57 g/m*3 21.3 C 0 km/h
436 17-09-2011 15:11:01 21.8 C 8.83 g/m*3 21.8 C 0 km/h
437 17-09-2011 15:23:01 22 C 8.73 g/m*3 22 C 0 km/h
438 17-09-2011 15:35:01 23.9 C 8.87 g/m*3 23.9 C 0 km/h
439 17-09-2011 15:47:01 23.1 C 8.06 g/m*3 23.1 C 0 km/h
440 17-09-2011 15:59:02 22.9 C 9.2 g/m*3 22.9 C 0 km/h
441 17-09-2011 16:11:01 23.3 C 8.36 g/m*3 23.3 C 0 km/h
442 17-09-2011 16:23:01 22.5 C 8.19 g/m*3 22.5 C 0 km/h
443 17-09-2011 16:35:02 21.8 C 8.63 g/m*3 21.8 C 0 km/h
444 17-09-2011 16:47:01 22 C 8.35 g/m*3 22 C 0 km/h
445 17-09-2011 16:59:01 23.4 C 8.41 g/m*3 23.4 C 0 km/h
446 17-09-2011 17:11:02 23.5 C 8.67 g/m*3 23.5 C 0 km/h
447 17-09-2011 17:23:01 22.5 C 8.39 g/m*3 22.5 C 0 km/h
448 17-09-2011 17:35:01 22.2 C 8.25 g/m*3 22.2 C 0 km/h
449 17-09-2011 17:47:01 21.6 C 8.53 g/m*3 21.6 C 0 km/h
450 17-09-2011 17:59:01 20.6 C 9.13 g/m*3 20.6 C 0 km/h
Sensor: Nr:Datum:Temp:Abs-Feuchte:Windchill:Wind:
Aussen-T/F 451 17-09-2011 18:11:01 21 C 8.79 g/m*3 21 C 0 km/h
452 17-09-2011 18:23:01 20.7 C 8.64 g/m*3 20.7 C 0 km/h
453 17-09-2011 18:35:01 19.9 C 8.42 g/m*3 19.9 C 0 km/h
454 17-09-2011 18:47:02 19.4 C 7.84 g/m*3 19.4 C 0 km/h
455 17-09-2011 18:59:02 18.9 C 7.94 g/m*3 18.9 C 0 km/h
456 17-09-2011 19:11:01 17.9 C 8.24 g/m*3 17.9 C 0 km/h
457 17-09-2011 19:23:02 17.3 C 8.25 g/m*3 17.3 C 0 km/h
458 17-09-2011 19:35:01 17.1 C 7.86 g/m*3 17.1 C 0 km/h
459 17-09-2011 19:47:02 16.8 C 8.01 g/m*3 16.8 C 0 km/h
460 17-09-2011 19:59:02 16 C 8.17 g/m*3 16 C 0 km/h
461 17-09-2011 20:11:01 15.4 C 8.41 g/m*3 15.4 C 0 km/h
462 17-09-2011 20:23:01 15.4 C 8.54 g/m*3 15.4 C 0 km/h
463 17-09-2011 20:35:02 15.9 C 8.4 g/m*3 15.9 C 0 km/h
464 17-09-2011 20:47:01 16.5 C 8 g/m*3 16.5 C 0 km/h
465 17-09-2011 20:59:01 15.9 C 8.13 g/m*3 15.9 C 0 km/h
466 17-09-2011 21:11:02 15.5 C 8.2 g/m*3 15.5 C 0 km/h
467 17-09-2011 21:23:01 15.4 C 8.41 g/m*3 15.4 C 0 km/h
468 17-09-2011 21:35:02 15.3 C 8.23 g/m*3 15.3 C 0 km/h
469 17-09-2011 21:47:01 15.2 C 8.05 g/m*3 15.2 C 0 km/h
470 17-09-2011 21:59:01 15 C 7.69 g/m*3 15 C 0 km/h
471 17-09-2011 22:13:04 14.7 C 7.81 g/m*3 14.7 C 0 km/h
472 17-09-2011 22:25:04 14.2 C 8.06 g/m*3 14.2 C 0 km/h
473 17-09-2011 22:37:04 14.1 C 8.01 g/m*3 14.1 C 0 km/h
474 17-09-2011 22:49:04 14.4 C 8.03 g/m*3 14.4 C 0 km/h
475 17-09-2011 23:01:04 14.1 C 8.01 g/m*3 14.1 C 0 km/h
Sensor: Nr:Datum:Temp:Abs-Feuchte:Windchill:Wind:
Aussen-T/F 476 17-09-2011 23:13:04 14 C 8.2 g/m*3 14 C 0 km/h
477 17-09-2011 23:25:04 13.8 C 8.22 g/m*3 13.8 C 0 km/h
478 17-09-2011 23:37:04 13.7 C 8.17 g/m*3 13.7 C 0 km/h
479 17-09-2011 23:49:04 14 C 7.96 g/m*3 14 C 0 km/h
480 18-09-2011 00:01:04 13.9 C 8.15 g/m*3 13.9 C 0 km/h
481 18-09-2011 00:13:04 13.7 C 8.17 g/m*3 13.7 C 0 km/h
482 18-09-2011 00:25:04 13.5 C 8.07 g/m*3 13.5 C 0 km/h
483 18-09-2011 00:37:04 13.8 C 8.1 g/m*3 13.8 C 0 km/h
484 18-09-2011 00:49:04 13.4 C 8.14 g/m*3 13.4 C 0 km/h
485 18-09-2011 01:01:04 13.4 C 8.25 g/m*3 13.4 C 0 km/h
486 18-09-2011 01:13:04 13.7 C 8.17 g/m*3 13.7 C 0 km/h
487 18-09-2011 01:25:04 14 C 7.84 g/m*3 14 C 0 km/h
488 18-09-2011 01:37:04 14 C 7.84 g/m*3 14 C 0 km/h
489 18-09-2011 01:49:05 13.9 C 8.03 g/m*3 13.9 C 0 km/h
490 18-09-2011 02:01:05 14 C 7.72 g/m*3 14 C 0 km/h
491 18-09-2011 02:13:05 14 C 7.72 g/m*3 14 C 0 km/h
492 18-09-2011 02:25:05 14.1 C 7.77 g/m*3 14.1 C 0 km/h
493 18-09-2011 02:37:05 13.9 C 8.03 g/m*3 13.9 C 0 km/h
494 18-09-2011 02:49:05 14 C 7.96 g/m*3 14 C 0 km/h
495 18-09-2011 03:01:05 14 C 8.08 g/m*3 14 C 0 km/h
496 18-09-2011 03:13:05 14.3 C 8.35 g/m*3 14.3 C 0 km/h
497 18-09-2011 03:25:05 14.1 C 8.37 g/m*3 14.1 C 0 km/h
498 18-09-2011 03:37:05 13.5 C 8.42 g/m*3 13.5 C 0 km/h
499 18-09-2011 03:49:05 13 C 8.62 g/m*3 13 C 0 km/h
500 18-09-2011 04:01:05 12.8 C 8.96 g/m*3 12.8 C 0 km/h
Sensor: Nr:Datum:Temp:Abs-Feuchte:Windchill:Wind:
Aussen-T/F 501 18-09-2011 04:13:05 12.6 C 9.07 g/m*3 12.6 C 0 km/h
502 18-09-2011 04:25:05 12.4 C 9.07 g/m*3 12.4 C 0 km/h
503 18-09-2011 04:37:05 12.3 C 9.12 g/m*3 12.3 C 0 km/h
504 18-09-2011 04:49:05 12.2 C 9.17 g/m*3 12.2 C 0 km/h
505 18-09-2011 05:01:05 12.3 C 9.34 g/m*3 12.3 C 0 km/h
506 18-09-2011 05:13:05 12.1 C 9.22 g/m*3 12.1 C 0 km/h
507 18-09-2011 05:25:05 12 C 9.27 g/m*3 12 C 0 km/h
508 18-09-2011 05:37:05 11.9 C 9.21 g/m*3 11.9 C 0 km/h
509 18-09-2011 05:49:05 11.8 C 9.26 g/m*3 11.8 C 0 km/h
510 18-09-2011 06:01:06 11.8 C 9.26 g/m*3 11.8 C 0 km/h
511 18-09-2011 06:13:06 11.8 C 9.26 g/m*3 11.8 C 0 km/h
512 18-09-2011 06:25:06 11.8 C 9.26 g/m*3 11.8 C 0 km/h
513 18-09-2011 06:37:06 11.8 C 9.26 g/m*3 11.8 C 0 km/h
514 18-09-2011 06:49:06 11.8 C 9.26 g/m*3 11.8 C 0 km/h
515 18-09-2011 07:01:06 11.4 C 9.03 g/m*3 11.4 C 0 km/h
516 18-09-2011 07:13:06 11.4 C 9.03 g/m*3 11.4 C 0 km/h
517 18-09-2011 07:25:06 11.3 C 8.98 g/m*3 11.3 C 0 km/h
518 18-09-2011 07:37:06 11.1 C 8.86 g/m*3 11.1 C 0 km/h
519 18-09-2011 07:49:06 11.2 C 9.02 g/m*3 11.2 C 0 km/h
520 18-09-2011 08:01:06 11.1 C 8.86 g/m*3 11.1 C 0 km/h
521 18-09-2011 08:13:06 11.2 C 9.02 g/m*3 11.2 C 0 km/h
522 18-09-2011 08:25:06 11.5 C 9.19 g/m*3 11.5 C 0 km/h
523 18-09-2011 08:37:04 11.5 C 9.19 g/m*3 11.5 C 0 km/h
524 18-09-2011 08:49:02 11.5 C 9.19 g/m*3 11.5 C 0 km/h
525 18-09-2011 09:01:02 11.7 C 9.31 g/m*3 11.7 C 0 km/h
Sensor: Nr:Datum:Temp:Abs-Feuchte:Windchill:Wind:
Aussen-T/F 526 18-09-2011 09:13:02 11.7 C 9.2 g/m*3 11.7 C 0 km/h
527 18-09-2011 09:25:02 11.9 C 9.32 g/m*3 11.9 C 0 km/h
528 18-09-2011 09:37:02 12.1 C 9.33 g/m*3 12.1 C 0 km/h
529 18-09-2011 09:49:01 12.1 C 9.22 g/m*3 12.1 C 0 km/h
530 18-09-2011 10:01:01 12.4 C 9.29 g/m*3 12.4 C 0 km/h
531 18-09-2011 10:13:01 12.4 C 9.07 g/m*3 12.4 C 0 km/h
532 18-09-2011 10:25:01 12 C 8.74 g/m*3 12 C 0 km/h
533 18-09-2011 10:37:01 12.1 C 8.79 g/m*3 12.1 C 0 km/h
534 18-09-2011 10:49:02 12.1 C 8.9 g/m*3 12.1 C 0 km/h
535 18-09-2011 11:01:02 12.1 C 8.9 g/m*3 12.1 C 0 km/h
536 18-09-2011 11:13:02 12.1 C 8.69 g/m*3 12.1 C 0 km/h
537 18-09-2011 11:25:03 12.1 C 8.47 g/m*3 12.1 C 0 km/h
538 18-09-2011 11:37:02 12.3 C 8.36 g/m*3 12.3 C 0 km/h
539 18-09-2011 11:49:02 13.1 C 8.67 g/m*3 13.1 C 0 km/h
540 18-09-2011 12:01:02 14 C 8.68 g/m*3 14 C 0 km/h
541 18-09-2011 12:13:02 14.3 C 8.6 g/m*3 14.3 C 0 km/h
542 18-09-2011 12:25:02 13.9 C 8.75 g/m*3 13.9 C 0 km/h
543 18-09-2011 12:37:02 14 C 8.2 g/m*3 14 C 0 km/h
544 18-09-2011 12:49:02 14.1 C 8.25 g/m*3 14.1 C 0 km/h
545 18-09-2011 13:01:01 12 C 7.35 g/m*3 12 C 0 km/h
546 18-09-2011 13:13:01 11.9 C 8.05 g/m*3 11.9 C 0 km/h
547 18-09-2011 13:25:02 12.5 C 8.03 g/m*3 12.5 C 0 km/h
548 18-09-2011 13:37:02 13.3 C 8.09 g/m*3 13.3 C 0 km/h
549 18-09-2011 13:49:02 15.8 C 8.62 g/m*3 15.8 C 0 km/h
550 18-09-2011 14:01:03 15.5 C 7.8 g/m*3 15.5 C 0 km/h
Sensor: Nr:Datum:Temp:Abs-Feuchte:Windchill:Wind:
Aussen-T/F 551 18-09-2011 14:13:03 14.6 C 7.51 g/m*3 14.6 C 0 km/h
552 18-09-2011 14:25:02 14.8 C 6.97 g/m*3 14.8 C 0 km/h
553 18-09-2011 14:37:03 14.6 C 6.63 g/m*3 14.6 C 0 km/h
554 18-09-2011 14:49:02 14.7 C 6.8 g/m*3 14.7 C 0 km/h
555 18-09-2011 15:01:02 15.4 C 6.83 g/m*3 15.4 C 0 km/h
556 18-09-2011 15:13:02 15.2 C 6.75 g/m*3 15.2 C 0 km/h
557 18-09-2011 15:25:01 14.5 C 6.72 g/m*3 14.5 C 0 km/h
558 18-09-2011 15:37:02 15 C 6.54 g/m*3 15 C 0 km/h
559 18-09-2011 15:49:02 15.5 C 6.61 g/m*3 15.5 C 0 km/h
560 18-09-2011 16:01:02 16.6 C 6.64 g/m*3 16.6 C 0 km/h
561 18-09-2011 16:13:02 15.4 C 6.57 g/m*3 15.4 C 0 km/h
562 18-09-2011 16:25:01 15 C 6.54 g/m*3 15 C 0 km/h
563 18-09-2011 16:37:02 15.3 C 6.01 g/m*3 15.3 C 0 km/h
564 18-09-2011 16:49:01 16.9 C 6.76 g/m*3 16.9 C 0 km/h
565 18-09-2011 17:01:02 15.6 C 6.25 g/m*3 15.6 C 0 km/h
566 18-09-2011 17:13:02 14.9 C 6.37 g/m*3 14.9 C 0 km/h
567 18-09-2011 17:25:02 14.7 C 6.55 g/m*3 14.7 C 0 km/h
568 18-09-2011 17:37:02 16.2 C 6.9 g/m*3 16.2 C 0 km/h
569 18-09-2011 17:49:02 14.7 C 6.67 g/m*3 14.7 C 0 km/h
570 18-09-2011 18:01:01 14.9 C 6.63 g/m*3 14.9 C 0 km/h
571 18-09-2011 18:13:01 13.5 C 7.37 g/m*3 13.5 C 0 km/h
572 18-09-2011 18:25:02 13.6 C 7.41 g/m*3 13.6 C 0 km/h
573 18-09-2011 18:37:01 15.3 C 7.44 g/m*3 15.3 C 0 km/h
574 18-09-2011 18:49:02 15 C 6.54 g/m*3 15 C 0 km/h
575 18-09-2011 19:01:02 14.9 C 7.14 g/m*3 14.9 C 0 km/h
Sensor: Nr:Datum:Temp:Abs-Feuchte:Windchill:Wind:
Aussen-T/F 576 18-09-2011 19:13:02 14.2 C 7.2 g/m*3 14.2 C 0 km/h
577 18-09-2011 19:25:02 12.8 C 7.5 g/m*3 12.8 C 0 km/h
578 18-09-2011 19:37:02 12.2 C 7.45 g/m*3 12.2 C 0 km/h
579 18-09-2011 19:49:02 12.6 C 7.52 g/m*3 12.6 C 0 km/h
580 18-09-2011 20:01:02 12.6 C 7.52 g/m*3 12.6 C 0 km/h
581 18-09-2011 20:13:02 12.3 C 7.71 g/m*3 12.3 C 0 km/h
582 18-09-2011 20:25:01 11.9 C 7.73 g/m*3 11.9 C 0 km/h
583 18-09-2011 20:37:02 11.4 C 8.01 g/m*3 11.4 C 0 km/h
584 18-09-2011 20:49:01 10.8 C 8.01 g/m*3 10.8 C 0 km/h
585 18-09-2011 21:01:02 10.4 C 8 g/m*3 10.4 C 0 km/h
586 18-09-2011 21:13:02 10.4 C 8.1 g/m*3 10.4 C 0 km/h
587 18-09-2011 21:25:01 10.1 C 7.94 g/m*3 10.1 C 0 km/h
588 18-09-2011 21:37:02 9.9 C 8.03 g/m*3 9.9 C 0 km/h
589 18-09-2011 21:49:01 9.8 C 7.98 g/m*3 9.8 C 0 km/h
590 18-09-2011 22:02:03 9.8 C 8.07 g/m*3 9.8 C 0 km/h
591 18-09-2011 22:14:03 10 C 8.08 g/m*3 10 C 0 km/h
592 18-09-2011 22:26:03 9.8 C 8.07 g/m*3 9.8 C 0 km/h
593 18-09-2011 22:38:03 9.1 C 7.72 g/m*3 9.1 C 0 km/h
594 18-09-2011 22:50:03 8.8 C 7.57 g/m*3 8.8 C 0 km/h
595 18-09-2011 23:02:03 8.3 C 7.33 g/m*3 8.3 C 0 km/h
596 18-09-2011 23:14:03 8.4 C 7.47 g/m*3 8.4 C 0 km/h
597 18-09-2011 23:26:03 8.4 C 7.47 g/m*3 8.4 C 0 km/h
598 18-09-2011 23:38:03 8.1 C 7.32 g/m*3 8.1 C 0 km/h
599 18-09-2011 23:50:03 8.3 C 7.42 g/m*3 8.3 C 0 km/h
600 19-09-2011 00:02:04 8.2 C 7.45 g/m*3 8.2 C 0 km/h
Sensor: Nr:Datum:Temp:Abs-Feuchte:Windchill:Wind:
Aussen-T/F 601 19-09-2011 00:14:04 8.5 C 7.6 g/m*3 8.5 C 0 km/h
602 19-09-2011 00:26:04 8.9 C 7.8 g/m*3 8.9 C 0 km/h
603 19-09-2011 00:38:04 9.4 C 8.05 g/m*3 9.4 C 0 km/h
604 19-09-2011 00:50:04 9.4 C 8.05 g/m*3 9.4 C 0 km/h
605 19-09-2011 01:02:04 9.3 C 8 g/m*3 9.3 C 0 km/h
606 19-09-2011 01:14:04 9.1 C 7.9 g/m*3 9.1 C 0 km/h
607 19-09-2011 01:26:04 8.9 C 7.8 g/m*3 8.9 C 0 km/h
608 19-09-2011 01:38:04 8.7 C 7.7 g/m*3 8.7 C 0 km/h
609 19-09-2011 01:50:04 8.9 C 7.71 g/m*3 8.9 C 0 km/h
610 19-09-2011 02:02:04 9 C 7.67 g/m*3 9 C 0 km/h
611 19-09-2011 02:14:04 9.6 C 7.79 g/m*3 9.6 C 0 km/h
612 19-09-2011 02:26:04 9.8 C 7.79 g/m*3 9.8 C 0 km/h
613 19-09-2011 02:38:04 9.9 C 7.66 g/m*3 9.9 C 0 km/h
614 19-09-2011 02:50:04 9.7 C 7.56 g/m*3 9.7 C 0 km/h
615 19-09-2011 03:02:04 9.6 C 7.6 g/m*3 9.6 C 0 km/h
616 19-09-2011 03:14:04 9.4 C 7.42 g/m*3 9.4 C 0 km/h
617 19-09-2011 03:26:04 9 C 7.23 g/m*3 9 C 0 km/h
618 19-09-2011 03:38:04 8.9 C 7.45 g/m*3 8.9 C 0 km/h
619 19-09-2011 03:50:04 8.7 C 7.35 g/m*3 8.7 C 0 km/h
620 19-09-2011 04:02:04 8.7 C 7.44 g/m*3 8.7 C 0 km/h
621 19-09-2011 04:14:05 8.7 C 7.44 g/m*3 8.7 C 0 km/h
622 19-09-2011 04:26:05 9 C 7.58 g/m*3 9 C 0 km/h
623 19-09-2011 04:38:05 9.6 C 7.97 g/m*3 9.6 C 0 km/h
624 19-09-2011 04:50:05 9.8 C 7.98 g/m*3 9.8 C 0 km/h
625 19-09-2011 05:02:05 10.1 C 8.04 g/m*3 10.1 C 0 km/h
Sensor: Nr:Datum:Temp:Abs-Feuchte:Windchill:Wind:
Aussen-T/F 626 19-09-2011 05:14:05 10.4 C 8 g/m*3 10.4 C 0 km/h
627 19-09-2011 05:26:05 10.7 C 7.76 g/m*3 10.7 C 0 km/h
628 19-09-2011 05:38:05 10.8 C 7.31 g/m*3 10.8 C 0 km/h
629 19-09-2011 05:50:05 11 C 7.31 g/m*3 11 C 0 km/h
630 19-09-2011 06:02:05 11 C 7.31 g/m*3 11 C 0 km/h
631 19-09-2011 06:14:05 11 C 7.31 g/m*3 11 C 0 km/h
632 19-09-2011 06:26:05 11.1 C 7.25 g/m*3 11.1 C 0 km/h
633 19-09-2011 06:38:05 10.8 C 7.51 g/m*3 10.8 C 0 km/h
634 19-09-2011 06:50:05 10.5 C 7.57 g/m*3 10.5 C 0 km/h
635 19-09-2011 07:02:05 10.2 C 7.52 g/m*3 10.2 C 0 km/h
636 19-09-2011 07:14:05 10.4 C 7.71 g/m*3 10.4 C 0 km/h
637 19-09-2011 07:26:02 10.8 C 7.61 g/m*3 10.8 C 0 km/h
638 19-09-2011 07:38:01 11.1 C 7.45 g/m*3 11.1 C 0 km/h
639 19-09-2011 07:50:01 11.3 C 7.34 g/m*3 11.3 C 0 km/h
640 19-09-2011 08:02:02 11.4 C 7.19 g/m*3 11.4 C 0 km/h
641 19-09-2011 08:14:02 11.3 C 7.24 g/m*3 11.3 C 0 km/h
642 19-09-2011 08:26:02 11.1 C 7.25 g/m*3 11.1 C 0 km/h
643 19-09-2011 08:38:02 11.1 C 7.45 g/m*3 11.1 C 0 km/h
644 19-09-2011 08:50:02 11.4 C 7.7 g/m*3 11.4 C 0 km/h
645 19-09-2011 09:02:02 11.8 C 7.79 g/m*3 11.8 C 0 km/h
646 19-09-2011 09:14:02 12 C 7.78 g/m*3 12 C 0 km/h
647 19-09-2011 09:26:02 12.1 C 8.04 g/m*3 12.1 C 0 km/h
648 19-09-2011 09:38:02 12.8 C 7.95 g/m*3 12.8 C 0 km/h
649 19-09-2011 09:50:02 13.4 C 7.79 g/m*3 13.4 C 0 km/h
650 19-09-2011 10:02:02 13.2 C 7.46 g/m*3 13.2 C 0 km/h
Sensor: Nr:Datum:Temp:Abs-Feuchte:Windchill:Wind:
Aussen-T/F 651 19-09-2011 10:14:02 13.5 C 7.6 g/m*3 13.5 C 0 km/h
652 19-09-2011 10:26:02 14.1 C 7.65 g/m*3 14.1 C 0 km/h
653 19-09-2011 10:38:02 14 C 7.6 g/m*3 14 C 0 km/h
654 19-09-2011 10:50:02 13.4 C 7.67 g/m*3 13.4 C 0 km/h
655 19-09-2011 11:02:02 14.2 C 7.69 g/m*3 14.2 C 0 km/h
656 19-09-2011 11:14:02 14 C 7.72 g/m*3 14 C 0 km/h
657 19-09-2011 11:26:02 13.4 C 8.14 g/m*3 13.4 C 0 km/h
658 19-09-2011 11:38:02 12.9 C 8.11 g/m*3 12.9 C 0 km/h
659 19-09-2011 11:50:02 13.6 C 8.12 g/m*3 13.6 C 0 km/h
660 19-09-2011 12:02:02 13.5 C 7.72 g/m*3 13.5 C 0 km/h
661 19-09-2011 12:14:02 13.6 C 7.77 g/m*3 13.6 C 0 km/h
662 19-09-2011 12:26:02 15 C 7.69 g/m*3 15 C 0 km/h
663 19-09-2011 12:38:02 15.9 C 7.18 g/m*3 15.9 C 0 km/h
664 19-09-2011 12:50:02 15.9 C 7.31 g/m*3 15.9 C 0 km/h
665 19-09-2011 13:02:02 15.3 C 7.31 g/m*3 15.3 C 0 km/h
666 19-09-2011 13:14:02 15.9 C 7.04 g/m*3 15.9 C 0 km/h
667 19-09-2011 13:26:01 15.8 C 7.13 g/m*3 15.8 C 0 km/h
668 19-09-2011 13:38:02 16.6 C 6.5 g/m*3 16.6 C 0 km/h
669 19-09-2011 13:50:02 17.2 C 6.15 g/m*3 17.2 C 0 km/h
670 19-09-2011 14:02:02 16.8 C 6.15 g/m*3 16.8 C 0 km/h
671 19-09-2011 14:14:02 16.7 C 6.11 g/m*3 16.7 C 0 km/h
672 19-09-2011 14:26:02 17.5 C 5.96 g/m*3 17.5 C 0 km/h
673 19-09-2011 14:38:02 18.1 C 6.03 g/m*3 18.1 C 0 km/h
674 19-09-2011 14:50:02 17.5 C 5.96 g/m*3 17.5 C 0 km/h
675 19-09-2011 15:02:02 16.5 C 5.76 g/m*3 16.5 C 0 km/h
Sensor: Nr:Datum:Temp:Abs-Feuchte:Windchill:Wind:
Aussen-T/F 676 19-09-2011 15:14:02 16.7 C 6.11 g/m*3 16.7 C 0 km/h
677 19-09-2011 15:26:02 17.4 C 6.37 g/m*3 17.4 C 0 km/h
678 19-09-2011 15:38:02 18 C 7.07 g/m*3 18 C 0 km/h
679 19-09-2011 15:50:02 18.1 C 6.33 g/m*3 18.1 C 0 km/h
680 19-09-2011 16:02:02 18.1 C 6.18 g/m*3 18.1 C 0 km/h
681 19-09-2011 16:14:02 18.1 C 6.18 g/m*3 18.1 C 0 km/h
682 19-09-2011 16:26:02 18 C 6.45 g/m*3 18 C 0 km/h
683 19-09-2011 16:38:02 17.5 C 6.41 g/m*3 17.5 C 0 km/h
684 19-09-2011 16:50:02 17.6 C 6.75 g/m*3 17.6 C 0 km/h
685 19-09-2011 17:02:01 20.6 C 6.62 g/m*3 20.6 C 0 km/h
686 19-09-2011 17:14:01 19.4 C 6.17 g/m*3 19.4 C 0 km/h
687 19-09-2011 17:26:02 17.5 C 7.01 g/m*3 17.5 C 0 km/h
688 19-09-2011 17:38:02 16.7 C 8.1 g/m*3 16.7 C 0 km/h
689 19-09-2011 17:50:01 16.9 C 8.34 g/m*3 16.9 C 0 km/h
690 19-09-2011 18:02:02 19.8 C 7.86 g/m*3 19.8 C 0 km/h
691 19-09-2011 18:14:02 19.3 C 7.46 g/m*3 19.3 C 0 km/h
692 19-09-2011 18:26:01 15.5 C 7.93 g/m*3 15.5 C 0 km/h
693 19-09-2011 18:38:02 14.9 C 8.03 g/m*3 14.9 C 0 km/h
694 19-09-2011 18:50:02 14.3 C 8.23 g/m*3 14.3 C 0 km/h
695 19-09-2011 19:02:02 14.7 C 8.06 g/m*3 14.7 C 0 km/h
696 19-09-2011 19:14:02 14.7 C 7.55 g/m*3 14.7 C 0 km/h
697 19-09-2011 19:26:01 13.7 C 7.58 g/m*3 13.7 C 0 km/h
698 19-09-2011 19:38:02 13.3 C 7.86 g/m*3 13.3 C 0 km/h
699 19-09-2011 19:50:02 12.7 C 7.57 g/m*3 12.7 C 0 km/h
700 19-09-2011 20:02:02 12.4 C 7.54 g/m*3 12.4 C 0 km/h
Sensor: Nr:Datum:Temp:Abs-Feuchte:Windchill:Wind:
Aussen-T/F 701 19-09-2011 20:14:02 12.2 C 7.55 g/m*3 12.2 C 0 km/h
702 19-09-2011 20:26:02 11.7 C 7.64 g/m*3 11.7 C 0 km/h
703 19-09-2011 20:38:02 12 C 7.78 g/m*3 12 C 0 km/h
704 19-09-2011 20:50:02 11.5 C 7.64 g/m*3 11.5 C 0 km/h
705 19-09-2011 21:02:02 11.4 C 7.9 g/m*3 11.4 C 0 km/h
706 19-09-2011 21:14:02 11.6 C 8.11 g/m*3 11.6 C 0 km/h
707 19-09-2011 21:26:02 11.2 C 7.91 g/m*3 11.2 C 0 km/h
708 19-09-2011 21:38:01 11.2 C 8.01 g/m*3 11.2 C 0 km/h
709 19-09-2011 21:51:01 11.3 C 8.16 g/m*3 11.3 C 0 km/h
710 19-09-2011 22:03:01 10.8 C 7.91 g/m*3 10.8 C 0 km/h
711 19-09-2011 22:15:01 11.1 C 8.06 g/m*3 11.1 C 0 km/h
712 19-09-2011 22:27:01 11.2 C 8.01 g/m*3 11.2 C 0 km/h
713 19-09-2011 22:39:01 11.4 C 8.01 g/m*3 11.4 C 0 km/h
714 19-09-2011 22:51:01 11.1 C 7.86 g/m*3 11.1 C 0 km/h
715 19-09-2011 23:03:01 11.3 C 8.06 g/m*3 11.3 C 0 km/h
716 19-09-2011 23:15:01 11.4 C 8.01 g/m*3 11.4 C 0 km/h
717 19-09-2011 23:27:01 11 C 7.81 g/m*3 11 C 0 km/h
718 19-09-2011 23:39:01 10.4 C 7.61 g/m*3 10.4 C 0 km/h
719 19-09-2011 23:51:01 10.1 C 7.66 g/m*3 10.1 C 0 km/h
720 20-09-2011 00:03:02 9.9 C 7.84 g/m*3 9.9 C 0 km/h
721 20-09-2011 00:15:02 10.1 C 7.94 g/m*3 10.1 C 0 km/h
722 20-09-2011 00:27:02 10.6 C 8.2 g/m*3 10.6 C 0 km/h
723 20-09-2011 00:39:02 10.2 C 7.9 g/m*3 10.2 C 0 km/h
724 20-09-2011 00:51:02 9.5 C 7.55 g/m*3 9.5 C 0 km/h
725 20-09-2011 01:03:02 9.5 C 7.74 g/m*3 9.5 C 0 km/h
Sensor: Nr:Datum:Temp:Abs-Feuchte:Windchill:Wind:
Aussen-T/F 726 20-09-2011 01:15:02 9.1 C 7.54 g/m*3 9.1 C 0 km/h
727 20-09-2011 01:27:02 8.7 C 7.44 g/m*3 8.7 C 0 km/h
728 20-09-2011 01:39:02 8.7 C 7.52 g/m*3 8.7 C 0 km/h
729 20-09-2011 01:51:02 9 C 7.58 g/m*3 9 C 0 km/h
730 20-09-2011 02:03:02 8.6 C 7.56 g/m*3 8.6 C 0 km/h
731 20-09-2011 02:15:02 8.4 C 7.47 g/m*3 8.4 C 0 km/h
732 20-09-2011 02:27:02 8.4 C 7.47 g/m*3 8.4 C 0 km/h
733 20-09-2011 02:39:02 8.7 C 7.7 g/m*3 8.7 C 0 km/h
734 20-09-2011 02:51:02 8.6 C 7.65 g/m*3 8.6 C 0 km/h
735 20-09-2011 03:03:02 8.7 C 7.7 g/m*3 8.7 C 0 km/h
736 20-09-2011 03:15:02 8.9 C 7.8 g/m*3 8.9 C 0 km/h
737 20-09-2011 03:27:02 8.4 C 7.55 g/m*3 8.4 C 0 km/h
738 20-09-2011 03:39:02 7.9 C 7.31 g/m*3 7.9 C 0 km/h
739 20-09-2011 03:51:02 7.6 C 7.17 g/m*3 7.6 C 0 km/h
740 20-09-2011 04:03:03 7.5 C 7.12 g/m*3 7.5 C 0 km/h
741 20-09-2011 04:15:03 7.2 C 6.99 g/m*3 7.2 C 0 km/h
742 20-09-2011 04:27:03 7.3 C 7.03 g/m*3 7.3 C 0 km/h
743 20-09-2011 04:39:03 7.4 C 7.08 g/m*3 7.4 C 0 km/h
744 20-09-2011 04:51:03 7.1 C 6.94 g/m*3 7.1 C 0 km/h
745 20-09-2011 05:03:03 7.2 C 7.06 g/m*3 7.2 C 0 km/h
746 20-09-2011 05:15:03 6.9 C 6.93 g/m*3 6.9 C 0 km/h
747 20-09-2011 05:27:03 7 C 6.97 g/m*3 7 C 0 km/h
748 20-09-2011 05:39:03 7 C 6.97 g/m*3 7 C 0 km/h
749 20-09-2011 05:51:03 6.6 C 6.87 g/m*3 6.6 C 0 km/h
750 20-09-2011 06:03:03 6.4 C 6.78 g/m*3 6.4 C 0 km/h
Sensor: Nr:Datum:Temp:Abs-Feuchte:Windchill:Wind:
Aussen-T/F 751 20-09-2011 06:15:03 6.3 C 6.74 g/m*3 6.3 C 0 km/h
752 20-09-2011 06:27:03 6.8 C 6.96 g/m*3 6.8 C 0 km/h
753 20-09-2011 06:39:03 6.3 C 6.74 g/m*3 6.3 C 0 km/h
754 20-09-2011 06:51:03 5.9 C 6.56 g/m*3 5.9 C 0 km/h
755 20-09-2011 07:03:03 6.2 C 6.69 g/m*3 6.2 C 0 km/h
756 20-09-2011 07:15:03 6 C 6.6 g/m*3 6 C 0 km/h
757 20-09-2011 07:27:03 6.2 C 6.69 g/m*3 6.2 C 0 km/h
758 20-09-2011 07:39:02 6.3 C 6.74 g/m*3 6.3 C 0 km/h
759 20-09-2011 07:51:02 6.4 C 6.78 g/m*3 6.4 C 0 km/h
760 20-09-2011 08:03:02 6.8 C 7.04 g/m*3 6.8 C 0 km/h
761 20-09-2011 08:15:02 6.5 C 6.9 g/m*3 6.5 C 0 km/h
762 20-09-2011 08:27:02 6.9 C 7.08 g/m*3 6.9 C 0 km/h
763 20-09-2011 08:39:02 7 C 7.05 g/m*3 7 C 0 km/h
764 20-09-2011 08:51:02 7.2 C 7.14 g/m*3 7.2 C 0 km/h
765 20-09-2011 09:03:01 7.9 C 7.56 g/m*3 7.9 C 0 km/h
766 20-09-2011 09:15:02 8.1 C 7.57 g/m*3 8.1 C 0 km/h
767 20-09-2011 09:27:02 9 C 7.93 g/m*3 9 C 0 km/h
768 20-09-2011 09:39:02 9.8 C 8.44 g/m*3 9.8 C 0 km/h
769 20-09-2011 09:51:02 9.8 C 8.35 g/m*3 9.8 C 0 km/h
770 20-09-2011 10:03:03 9.9 C 8.4 g/m*3 9.9 C 0 km/h
771 20-09-2011 10:15:02 10.8 C 8.8 g/m*3 10.8 C 0 km/h
772 20-09-2011 10:27:02 12 C 9.38 g/m*3 12 C 0 km/h
773 20-09-2011 10:39:02 12.7 C 9.46 g/m*3 12.7 C 0 km/h
774 20-09-2011 10:51:01 13.5 C 9.36 g/m*3 13.5 C 0 km/h
775 20-09-2011 11:03:02 14.1 C 8.62 g/m*3 14.1 C 0 km/h
Sensor: Nr:Datum:Temp:Abs-Feuchte:Windchill:Wind:
Aussen-T/F 776 20-09-2011 11:15:01 14.4 C 8.41 g/m*3 14.4 C 0 km/h
777 20-09-2011 11:27:01 14.5 C 8.33 g/m*3 14.5 C 0 km/h
778 20-09-2011 11:39:01 14.7 C 8.31 g/m*3 14.7 C 0 km/h
779 20-09-2011 11:51:01 14.8 C 8.61 g/m*3 14.8 C 0 km/h
780 20-09-2011 12:03:01 15.4 C 8.28 g/m*3 15.4 C 0 km/h
781 20-09-2011 12:15:02 15.8 C 8.21 g/m*3 15.8 C 0 km/h
782 20-09-2011 12:27:02 16.1 C 8.09 g/m*3 16.1 C 0 km/h
783 20-09-2011 12:39:01 16.3 C 8.19 g/m*3 16.3 C 0 km/h
784 20-09-2011 12:51:02 16.8 C 8.01 g/m*3 16.8 C 0 km/h
785 20-09-2011 13:03:01 17.3 C 7.66 g/m*3 17.3 C 0 km/h
786 20-09-2011 13:15:02 17.7 C 7.54 g/m*3 17.7 C 0 km/h
787 20-09-2011 13:27:03 17.9 C 7.63 g/m*3 17.9 C 0 km/h
788 20-09-2011 13:39:01 18 C 6.76 g/m*3 18 C 0 km/h
789 20-09-2011 13:51:02 18.4 C 6.92 g/m*3 18.4 C 0 km/h
790 20-09-2011 14:03:02 18.8 C 7.41 g/m*3 18.8 C 0 km/h
791 20-09-2011 14:15:02 19.3 C 6.97 g/m*3 19.3 C 0 km/h
792 20-09-2011 14:27:02 19.2 C 7.09 g/m*3 19.2 C 0 km/h
793 20-09-2011 14:39:02 19.1 C 6.88 g/m*3 19.1 C 0 km/h
794 20-09-2011 14:51:02 19.4 C 7.34 g/m*3 19.4 C 0 km/h
795 20-09-2011 15:03:02 19.4 C 7.01 g/m*3 19.4 C 0 km/h
796 20-09-2011 15:15:01 19.2 C 6.93 g/m*3 19.2 C 0 km/h
797 20-09-2011 15:27:01 19.3 C 7.13 g/m*3 19.3 C 0 km/h
798 20-09-2011 15:39:02 19.2 C 6.93 g/m*3 19.2 C 0 km/h
799 20-09-2011 15:51:02 19.1 C 6.88 g/m*3 19.1 C 0 km/h
800 20-09-2011 16:03:02 19 C 6.84 g/m*3 19 C 0 km/h
Sensor: Nr:Datum:Temp:Abs-Feuchte:Windchill:Wind:
Aussen-T/F 801 20-09-2011 16:15:01 18.9 C 7.29 g/m*3 18.9 C 0 km/h
802 20-09-2011 16:27:01 18.9 C 7.45 g/m*3 18.9 C 0 km/h
803 20-09-2011 16:39:02 19.1 C 7.38 g/m*3 19.1 C 0 km/h
804 20-09-2011 16:51:02 18.9 C 7.45 g/m*3 18.9 C 0 km/h
805 20-09-2011 17:03:02 18.7 C 7.2 g/m*3 18.7 C 0 km/h
806 20-09-2011 17:15:02 18.7 C 8.01 g/m*3 18.7 C 0 km/h
807 20-09-2011 17:27:02 19.1 C 8.69 g/m*3 19.1 C 0 km/h
808 20-09-2011 17:39:02 18.5 C 8.07 g/m*3 18.5 C 0 km/h
809 20-09-2011 17:51:02 18.8 C 8.37 g/m*3 18.8 C 0 km/h
810 20-09-2011 18:03:02 17.8 C 8.65 g/m*3 17.8 C 0 km/h
811 20-09-2011 18:15:02 17.4 C 9.04 g/m*3 17.4 C 0 km/h
812 20-09-2011 18:27:03 16.8 C 9.29 g/m*3 16.8 C 0 km/h
813 20-09-2011 18:39:01 16.6 C 9.32 g/m*3 16.6 C 0 km/h
814 20-09-2011 18:51:02 16.4 C 9.35 g/m*3 16.4 C 0 km/h
815 20-09-2011 19:03:01 16 C 9.13 g/m*3 16 C 0 km/h
816 20-09-2011 19:15:02 15.7 C 9.23 g/m*3 15.7 C 0 km/h
817 20-09-2011 19:27:02 15.5 C 9.12 g/m*3 15.5 C 0 km/h
818 20-09-2011 19:39:02 15.3 C 9.01 g/m*3 15.3 C 0 km/h
819 20-09-2011 19:51:02 15.1 C 9.03 g/m*3 15.1 C 0 km/h
820 20-09-2011 20:03:02 15.1 C 9.03 g/m*3 15.1 C 0 km/h
821 20-09-2011 20:15:02 14.8 C 9.12 g/m*3 14.8 C 0 km/h
822 20-09-2011 20:27:02 14.7 C 9.07 g/m*3 14.7 C 0 km/h
823 20-09-2011 20:39:02 14.7 C 9.07 g/m*3 14.7 C 0 km/h
824 20-09-2011 20:51:01 14.5 C 8.95 g/m*3 14.5 C 0 km/h
825 20-09-2011 21:03:02 14.4 C 9.02 g/m*3 14.4 C 0 km/h
Sensor: Nr:Datum:Temp:Abs-Feuchte:Windchill:Wind:
Aussen-T/F 826 20-09-2011 21:15:01 13.9 C 8.87 g/m*3 13.9 C 0 km/h
827 20-09-2011 21:27:01 13.8 C 9.06 g/m*3 13.8 C 0 km/h
828 20-09-2011 21:39:01 13.4 C 8.95 g/m*3 13.4 C 0 km/h
829 20-09-2011 21:51:01 13.1 C 8.79 g/m*3 13.1 C 0 km/h
830 20-09-2011 22:03:02 12.5 C 8.58 g/m*3 12.5 C 0 km/h
831 20-09-2011 22:15:01 12 C 8.53 g/m*3 12 C 0 km/h
832 20-09-2011 22:27:01 11.7 C 8.58 g/m*3 11.7 C 0 km/h
833 20-09-2011 22:39:02 11.3 C 8.47 g/m*3 11.3 C 0 km/h
834 20-09-2011 22:51:02 11 C 8.31 g/m*3 11 C 0 km/h
835 20-09-2011 23:03:02 10.7 C 8.25 g/m*3 10.7 C 0 km/h
836 20-09-2011 23:15:01 10.5 C 8.15 g/m*3 10.5 C 0 km/h
837 20-09-2011 23:27:01 10.2 C 7.99 g/m*3 10.2 C 0 km/h
838 20-09-2011 23:39:02 10.3 C 8.14 g/m*3 10.3 C 0 km/h
839 20-09-2011 23:51:01 10.2 C 8.09 g/m*3 10.2 C 0 km/h
840 21-09-2011 00:03:02 10.2 C 8.18 g/m*3 10.2 C 0 km/h
841 21-09-2011 00:15:01 9.9 C 8.12 g/m*3 9.9 C 0 km/h
842 21-09-2011 00:27:01 9.9 C 8.22 g/m*3 9.9 C 0 km/h
843 21-09-2011 00:39:02 9.6 C 8.06 g/m*3 9.6 C 0 km/h
844 21-09-2011 00:51:02 9.4 C 7.96 g/m*3 9.4 C 0 km/h
845 21-09-2011 01:03:02 9.3 C 7.91 g/m*3 9.3 C 0 km/h
846 21-09-2011 01:15:02 9.2 C 7.86 g/m*3 9.2 C 0 km/h
847 21-09-2011 01:27:02 9 C 7.76 g/m*3 9 C 0 km/h
848 21-09-2011 01:39:02 8.9 C 7.8 g/m*3 8.9 C 0 km/h
849 21-09-2011 01:51:02 9 C 7.76 g/m*3 9 C 0 km/h
850 21-09-2011 02:03:02 9 C 7.76 g/m*3 9 C 0 km/h
Sensor: Nr:Datum:Temp:Abs-Feuchte:Windchill:Wind:
Aussen-T/F 851 21-09-2011 02:15:02 8.8 C 7.75 g/m*3 8.8 C 0 km/h
852 21-09-2011 02:27:02 8.7 C 7.7 g/m*3 8.7 C 0 km/h
853 21-09-2011 02:39:02 8.3 C 7.5 g/m*3 8.3 C 0 km/h
854 21-09-2011 02:52:03 8.4 C 7.55 g/m*3 8.4 C 0 km/h
855 21-09-2011 03:04:03 8.4 C 7.55 g/m*3 8.4 C 0 km/h
856 21-09-2011 03:16:03 8 C 7.36 g/m*3 8 C 0 km/h
857 21-09-2011 03:28:03 8.2 C 7.45 g/m*3 8.2 C 0 km/h
858 21-09-2011 03:40:02 7.9 C 7.39 g/m*3 7.9 C 0 km/h
859 21-09-2011 03:52:02 7.8 C 7.35 g/m*3 7.8 C 0 km/h
860 21-09-2011 04:04:02 7.7 C 7.3 g/m*3 7.7 C 0 km/h
861 21-09-2011 04:16:02 7.5 C 7.2 g/m*3 7.5 C 0 km/h
862 21-09-2011 04:28:03 7.6 C 7.25 g/m*3 7.6 C 0 km/h
863 21-09-2011 04:40:02 7.8 C 7.35 g/m*3 7.8 C 0 km/h
864 21-09-2011 04:52:02 7.8 C 7.35 g/m*3 7.8 C 0 km/h
865 21-09-2011 05:04:01 7.9 C 7.47 g/m*3 7.9 C 0 km/h
866 21-09-2011 05:16:02 8.5 C 7.68 g/m*3 8.5 C 0 km/h
867 21-09-2011 05:28:02 8.4 C 7.63 g/m*3 8.4 C 0 km/h
868 21-09-2011 05:40:02 8 C 7.44 g/m*3 8 C 0 km/h
869 21-09-2011 05:52:01 8.6 C 7.82 g/m*3 8.6 C 0 km/h
870 21-09-2011 06:04:02 9 C 7.93 g/m*3 9 C 0 km/h
871 21-09-2011 06:16:01 9.1 C 7.99 g/m*3 9.1 C 0 km/h
872 21-09-2011 06:28:01 9.2 C 8.04 g/m*3 9.2 C 0 km/h
873 21-09-2011 06:40:02 9.3 C 8.18 g/m*3 9.3 C 0 km/h
874 21-09-2011 06:52:02 9.3 C 8.18 g/m*3 9.3 C 0 km/h
875 21-09-2011 07:04:02 9.5 C 8.28 g/m*3 9.5 C 0 km/h
Sensor: Nr:Datum:Temp:Abs-Feuchte:Windchill:Wind:
Aussen-T/F 876 21-09-2011 07:16:01 9.5 C 8.28 g/m*3 9.5 C 0 km/h
877 21-09-2011 07:28:01 9.5 C 8.28 g/m*3 9.5 C 0 km/h
878 21-09-2011 07:40:02 9.6 C 8.34 g/m*3 9.6 C 0 km/h
879 21-09-2011 07:52:01 9.7 C 8.39 g/m*3 9.7 C 0 km/h
880 21-09-2011 08:04:02 9.7 C 8.39 g/m*3 9.7 C 0 km/h
881 21-09-2011 08:16:02 9.8 C 8.44 g/m*3 9.8 C 0 km/h
882 21-09-2011 08:28:02 9.9 C 8.5 g/m*3 9.9 C 0 km/h
883 21-09-2011 08:40:01 10 C 8.36 g/m*3 10 C 0 km/h
884 21-09-2011 08:52:02 10.4 C 8.58 g/m*3 10.4 C 0 km/h
885 21-09-2011 09:04:02 10.8 C 8.8 g/m*3 10.8 C 0 km/h
886 21-09-2011 09:16:01 11.1 C 8.86 g/m*3 11.1 C 0 km/h
887 21-09-2011 09:28:01 11.1 C 8.76 g/m*3 11.1 C 0 km/h
888 21-09-2011 09:40:01 11.9 C 9.11 g/m*3 11.9 C 0 km/h
889 21-09-2011 09:52:01 12.2 C 8.74 g/m*3 12.2 C 0 km/h
890 21-09-2011 10:04:01 12.5 C 8.58 g/m*3 12.5 C 0 km/h
891 21-09-2011 10:16:02 12.8 C 8.51 g/m*3 12.8 C 0 km/h
892 21-09-2011 10:28:02 13.2 C 8.27 g/m*3 13.2 C 0 km/h
893 21-09-2011 10:40:01 13.5 C 8.19 g/m*3 13.5 C 0 km/h
894 21-09-2011 10:52:02 14.3 C 8.11 g/m*3 14.3 C 0 km/h
895 21-09-2011 11:04:02 14.3 C 7.99 g/m*3 14.3 C 0 km/h
896 21-09-2011 11:16:02 13.7 C 8.05 g/m*3 13.7 C 0 km/h
897 21-09-2011 11:28:02 13.5 C 8.54 g/m*3 13.5 C 0 km/h
898 21-09-2011 11:40:01 13.9 C 8.87 g/m*3 13.9 C 0 km/h
899 21-09-2011 11:52:02 14 C 9.17 g/m*3 14 C 0 km/h
900 21-09-2011 12:04:01 14.5 C 9.08 g/m*3 14.5 C 0 km/h
Sensor: Nr:Datum:Temp:Abs-Feuchte:Windchill:Wind:
Aussen-T/F 901 21-09-2011 12:16:01 14.8 C 9.25 g/m*3 14.8 C 0 km/h
902 21-09-2011 12:28:01 15.4 C 9.2 g/m*3 15.4 C 0 km/h
903 21-09-2011 12:40:02 16.1 C 8.36 g/m*3 16.1 C 0 km/h
904 21-09-2011 12:52:02 16.9 C 8.77 g/m*3 16.9 C 0 km/h
905 21-09-2011 13:04:02 18 C 8.75 g/m*3 18 C 0 km/h
906 21-09-2011 13:16:01 19.2 C 7.09 g/m*3 19.2 C 0 km/h
907 21-09-2011 13:28:01 19.4 C 7.67 g/m*3 19.4 C 0 km/h
908 21-09-2011 13:40:02 21 C 6.78 g/m*3 21 C 0 km/h
909 21-09-2011 13:52:02 21.1 C 7.37 g/m*3 21.1 C 0 km/h
910 21-09-2011 14:04:02 20.3 C 7.21 g/m*3 20.3 C 0 km/h
911 21-09-2011 14:16:01 19.5 C 7.05 g/m*3 19.5 C 0 km/h
912 21-09-2011 14:28:01 19.6 C 7.26 g/m*3 19.6 C 0 km/h
913 21-09-2011 14:40:02 19.7 C 7.3 g/m*3 19.7 C 0 km/h
914 21-09-2011 14:52:02 20 C 7.09 g/m*3 20 C 0 km/h
915 21-09-2011 15:04:02 20 C 6.74 g/m*3 20 C 0 km/h
916 21-09-2011 15:16:02 19.7 C 6.96 g/m*3 19.7 C 0 km/h
917 21-09-2011 15:28:02 20.3 C 7.03 g/m*3 20.3 C 0 km/h
918 21-09-2011 15:40:02 20.6 C 6.8 g/m*3 20.6 C 0 km/h
919 21-09-2011 15:52:02 23.1 C 7.03 g/m*3 23.1 C 0 km/h
920 21-09-2011 16:04:02 23.4 C 6.94 g/m*3 23.4 C 0 km/h
921 21-09-2011 16:16:02 22.9 C 6.54 g/m*3 22.9 C 0 km/h
922 21-09-2011 16:28:02 23.5 C 6.77 g/m*3 23.5 C 0 km/h
923 21-09-2011 16:40:01 23.7 C 6.63 g/m*3 23.7 C 0 km/h
924 21-09-2011 16:52:02 23.2 C 6.65 g/m*3 23.2 C 0 km/h
925 21-09-2011 17:04:02 20.8 C 6.88 g/m*3 20.8 C 0 km/h
Sensor: Nr:Datum:Temp:Abs-Feuchte:Windchill:Wind:
Aussen-T/F 926 21-09-2011 17:16:02 20.1 C 7.3 g/m*3 20.1 C 0 km/h
927 21-09-2011 17:28:03 19.4 C 7.67 g/m*3 19.4 C 0 km/h
928 21-09-2011 17:40:01 19.5 C 7.38 g/m*3 19.5 C 0 km/h
929 21-09-2011 17:52:02 19.1 C 6.72 g/m*3 19.1 C 0 km/h
930 21-09-2011 18:04:01 19.1 C 6.88 g/m*3 19.1 C 0 km/h
931 21-09-2011 18:16:01 20.4 C 7.08 g/m*3 20.4 C 0 km/h
932 21-09-2011 18:28:01 19 C 6.84 g/m*3 19 C 0 km/h
933 21-09-2011 18:40:02 17.3 C 7.37 g/m*3 17.3 C 0 km/h
934 21-09-2011 18:52:02 16.3 C 7.77 g/m*3 16.3 C 0 km/h
935 21-09-2011 19:04:02 16.2 C 8.14 g/m*3 16.2 C 0 km/h
936 21-09-2011 19:16:02 16.2 C 7.86 g/m*3 16.2 C 0 km/h
937 21-09-2011 19:28:02 16.2 C 8.14 g/m*3 16.2 C 0 km/h
938 21-09-2011 19:40:02 15.6 C 8.38 g/m*3 15.6 C 0 km/h
939 21-09-2011 19:52:02 15.4 C 8.41 g/m*3 15.4 C 0 km/h
940 21-09-2011 20:04:02 15.4 C 8.54 g/m*3 15.4 C 0 km/h
941 21-09-2011 20:16:02 15.4 C 8.67 g/m*3 15.4 C 0 km/h
942 21-09-2011 20:28:02 15.4 C 8.54 g/m*3 15.4 C 0 km/h
943 21-09-2011 20:40:02 15.3 C 8.62 g/m*3 15.3 C 0 km/h
944 21-09-2011 20:52:01 15.4 C 8.67 g/m*3 15.4 C 0 km/h
945 21-09-2011 21:04:02 15.3 C 8.62 g/m*3 15.3 C 0 km/h
946 21-09-2011 21:16:02 15.4 C 8.67 g/m*3 15.4 C 0 km/h
947 21-09-2011 21:28:02 15.4 C 8.67 g/m*3 15.4 C 0 km/h
948 21-09-2011 21:40:01 15.1 C 8.51 g/m*3 15.1 C 0 km/h
949 21-09-2011 21:52:02 14.4 C 8.41 g/m*3 14.4 C 0 km/h
950 21-09-2011 22:04:03 14 C 8.44 g/m*3 14 C 0 km/h
Sensor: Nr:Datum:Temp:Abs-Feuchte:Windchill:Wind:
Aussen-T/F 951 21-09-2011 22:16:02 13.8 C 8.58 g/m*3 13.8 C 0 km/h
952 21-09-2011 22:28:02 13.5 C 8.42 g/m*3 13.5 C 0 km/h
953 21-09-2011 22:40:02 13.4 C 8.49 g/m*3 13.4 C 0 km/h
954 21-09-2011 22:52:02 13.4 C 8.6 g/m*3 13.4 C 0 km/h
955 21-09-2011 23:04:02 13.6 C 8.71 g/m*3 13.6 C 0 km/h
956 21-09-2011 23:16:02 14 C 8.68 g/m*3 14 C 0 km/h
957 21-09-2011 23:28:02 14.3 C 8.85 g/m*3 14.3 C 0 km/h
958 21-09-2011 23:40:02 15 C 8.46 g/m*3 15 C 0 km/h
959 21-09-2011 23:52:02 15 C 8.59 g/m*3 15 C 0 km/h
960 22-09-2011 00:04:01 15 C 8.59 g/m*3 15 C 0 km/h
961 22-09-2011 00:16:02 15.1 C 8.77 g/m*3 15.1 C 0 km/h
962 22-09-2011 00:28:02 15.9 C 8.4 g/m*3 15.9 C 0 km/h
963 22-09-2011 00:40:01 15.7 C 8.3 g/m*3 15.7 C 0 km/h
964 22-09-2011 00:52:02 15.3 C 8.36 g/m*3 15.3 C 0 km/h
965 22-09-2011 01:04:01 15.1 C 8.51 g/m*3 15.1 C 0 km/h
966 22-09-2011 01:16:02 15.4 C 8.41 g/m*3 15.4 C 0 km/h
967 22-09-2011 01:28:02 15.5 C 8.33 g/m*3 15.5 C 0 km/h
968 22-09-2011 01:40:01 15.3 C 8.36 g/m*3 15.3 C 0 km/h
969 22-09-2011 01:52:02 15.4 C 8.28 g/m*3 15.4 C 0 km/h
970 22-09-2011 02:04:02 14.9 C 8.67 g/m*3 14.9 C 0 km/h
971 22-09-2011 02:16:02 14.9 C 8.67 g/m*3 14.9 C 0 km/h
972 22-09-2011 02:28:02 15.1 C 8.39 g/m*3 15.1 C 0 km/h
973 22-09-2011 02:40:02 15.1 C 8.26 g/m*3 15.1 C 0 km/h
974 22-09-2011 02:52:01 15 C 8.33 g/m*3 15 C 0 km/h
975 22-09-2011 03:04:01 14.8 C 8.49 g/m*3 14.8 C 0 km/h
Sensor: Nr:Datum:Temp:Abs-Feuchte:Windchill:Wind:
Aussen-T/F 976 22-09-2011 03:16:02 14.9 C 8.54 g/m*3 14.9 C 0 km/h
977 22-09-2011 03:28:02 15.2 C 8.44 g/m*3 15.2 C 0 km/h
978 22-09-2011 03:40:01 14.8 C 8.49 g/m*3 14.8 C 0 km/h
979 22-09-2011 03:52:01 15.4 C 8.41 g/m*3 15.4 C 0 km/h
980 22-09-2011 04:04:01 15.1 C 8.39 g/m*3 15.1 C 0 km/h
981 22-09-2011 04:16:01 14.6 C 8.51 g/m*3 14.6 C 0 km/h
982 22-09-2011 04:28:01 14.7 C 8.56 g/m*3 14.7 C 0 km/h
983 22-09-2011 04:40:02 14.4 C 8.53 g/m*3 14.4 C 0 km/h
984 22-09-2011 04:52:01 14.1 C 8.5 g/m*3 14.1 C 0 km/h
985 22-09-2011 05:04:02 13.8 C 8.82 g/m*3 13.8 C 0 km/h
986 22-09-2011 05:16:01 14.4 C 8.65 g/m*3 14.4 C 0 km/h
987 22-09-2011 05:28:01 14.5 C 8.71 g/m*3 14.5 C 0 km/h
988 22-09-2011 05:40:01 14.3 C 8.72 g/m*3 14.3 C 0 km/h
989 22-09-2011 05:52:01 14.3 C 8.85 g/m*3 14.3 C 0 km/h
990 22-09-2011 06:04:01 14.3 C 8.72 g/m*3 14.3 C 0 km/h
991 22-09-2011 06:16:02 14.4 C 8.65 g/m*3 14.4 C 0 km/h
992 22-09-2011 06:28:02 14.4 C 8.65 g/m*3 14.4 C 0 km/h
993 22-09-2011 06:40:01 14.1 C 8.74 g/m*3 14.1 C 0 km/h
994 22-09-2011 06:52:02 14.2 C 8.67 g/m*3 14.2 C 0 km/h
995 22-09-2011 07:04:01 14.4 C 8.65 g/m*3 14.4 C 0 km/h
996 22-09-2011 07:16:01 14.4 C 8.65 g/m*3 14.4 C 0 km/h
997 22-09-2011 07:28:01 14.5 C 8.71 g/m*3 14.5 C 0 km/h
998 22-09-2011 07:40:02 14.2 C 8.67 g/m*3 14.2 C 0 km/h
999 22-09-2011 07:52:01 14.2 C 8.91 g/m*3 14.2 C 0 km/h
1000 22-09-2011 08:04:02 13.8 C 8.82 g/m*3 13.8 C 0 km/h
Sensor: Nr:Datum:Temp:Abs-Feuchte:Windchill:Wind:
Aussen-T/F 1001 22-09-2011 08:16:01 13.3 C 8.9 g/m*3 13.3 C 0 km/h
1002 22-09-2011 08:28:01 13.9 C 9.35 g/m*3 13.9 C 0 km/h
1003 22-09-2011 08:40:01 14.1 C 8.98 g/m*3 14.1 C 0 km/h
1004 22-09-2011 08:52:01 13.9 C 8.87 g/m*3 13.9 C 0 km/h
1005 22-09-2011 09:04:01 13.3 C 8.9 g/m*3 13.3 C 0 km/h
1006 22-09-2011 09:16:02 13.1 C 9.01 g/m*3 13.1 C 0 km/h
1007 22-09-2011 09:28:02 13.4 C 9.3 g/m*3 13.4 C 0 km/h
1008 22-09-2011 09:40:01 13.8 C 9.53 g/m*3 13.8 C 0 km/h
1009 22-09-2011 09:52:02 15.2 C 8.96 g/m*3 15.2 C 0 km/h
1010 22-09-2011 10:04:01 15 C 8.72 g/m*3 15 C 0 km/h
1011 22-09-2011 10:16:02 15.6 C 8.38 g/m*3 15.6 C 0 km/h
1012 22-09-2011 10:28:02 15.5 C 8.33 g/m*3 15.5 C 0 km/h
1013 22-09-2011 10:40:01 15.4 C 8.28 g/m*3 15.4 C 0 km/h
1014 22-09-2011 10:52:02 15.8 C 8.48 g/m*3 15.8 C 0 km/h
1015 22-09-2011 11:04:01 16.3 C 7.77 g/m*3 16.3 C 0 km/h
1016 22-09-2011 11:16:01 16.9 C 7.19 g/m*3 16.9 C 0 km/h
1017 22-09-2011 11:28:01 17.8 C 6.98 g/m*3 17.8 C 0 km/h
1018 22-09-2011 11:40:02 18.1 C 6.64 g/m*3 18.1 C 0 km/h
1019 22-09-2011 11:52:01 18.2 C 6.53 g/m*3 18.2 C 0 km/h
1020 22-09-2011 12:04:02 18.4 C 6.45 g/m*3 18.4 C 0 km/h
1021 22-09-2011 12:16:01 18.4 C 6.13 g/m*3 18.4 C 0 km/h
1022 22-09-2011 12:28:01 17.7 C 6.19 g/m*3 17.7 C 0 km/h
1023 22-09-2011 12:40:01 18.1 C 6.18 g/m*3 18.1 C 0 km/h
1024 22-09-2011 12:52:01 17.8 C 6.22 g/m*3 17.8 C 0 km/h
1025 22-09-2011 13:04:01 18.4 C 5.98 g/m*3 18.4 C 0 km/h
Sensor: Nr:Datum:Temp:Abs-Feuchte:Windchill:Wind:
Aussen-T/F 1026 22-09-2011 13:16:01 18.1 C 5.41 g/m*3 18.1 C 0 km/h
1027 22-09-2011 13:28:01 18.1 C 5.56 g/m*3 18.1 C 0 km/h
1028 22-09-2011 13:40:01 20.2 C 5.94 g/m*3 20.2 C 0 km/h
1029 22-09-2011 13:52:01 20.3 C 5.45 g/m*3 20.3 C 0 km/h
1030 22-09-2011 14:04:01 19.8 C 5.47 g/m*3 19.8 C 0 km/h
1031 22-09-2011 14:16:02 20 C 5.7 g/m*3 20 C 0 km/h
1032 22-09-2011 14:28:02 20.1 C 5.56 g/m*3 20.1 C 0 km/h
1033 22-09-2011 14:40:01 20.4 C 5.66 g/m*3 20.4 C 0 km/h
1034 22-09-2011 14:52:02 20.2 C 5.42 g/m*3 20.2 C 0 km/h
1035 22-09-2011 15:04:01 19.9 C 5.33 g/m*3 19.9 C 0 km/h
1036 22-09-2011 15:16:01 20 C 5.53 g/m*3 20 C 0 km/h
1037 22-09-2011 15:28:01 21 C 5.5 g/m*3 21 C 0 km/h
1038 22-09-2011 15:40:02 21 C 5.31 g/m*3 21 C 0 km/h
1039 22-09-2011 15:52:01 20.3 C 5.28 g/m*3 20.3 C 0 km/h
1040 22-09-2011 16:04:02 20 C 6.22 g/m*3 20 C 0 km/h
1041 22-09-2011 16:17:01 19.7 C 6.11 g/m*3 19.7 C 0 km/h
1042 22-09-2011 16:29:01 19.8 C 6.32 g/m*3 19.8 C 0 km/h
1043 22-09-2011 16:40:02 19.8 C 6.32 g/m*3 19.8 C 0 km/h
1044 22-09-2011 16:53:01 19.4 C 6.17 g/m*3 19.4 C 0 km/h
1045 22-09-2011 17:04:02 19 C 6.52 g/m*3 19 C 0 km/h
1046 22-09-2011 17:17:01 18.7 C 7.84 g/m*3 18.7 C 0 km/h
1047 22-09-2011 17:29:01 18.4 C 6.92 g/m*3 18.4 C 0 km/h
1048 22-09-2011 17:41:01 18.2 C 7.46 g/m*3 18.2 C 0 km/h
1049 22-09-2011 17:53:01 17.5 C 8.35 g/m*3 17.5 C 0 km/h
1050 22-09-2011 18:05:01 17.3 C 7.51 g/m*3 17.3 C 0 km/h
Sensor: Nr:Datum:Temp:Abs-Feuchte:Windchill:Wind:
Aussen-T/F 1051 22-09-2011 18:17:02 17.3 C 7.37 g/m*3 17.3 C 0 km/h
1052 22-09-2011 18:29:02 17 C 7.81 g/m*3 17 C 0 km/h
1053 22-09-2011 18:41:01 16.7 C 7.96 g/m*3 16.7 C 0 km/h
1054 22-09-2011 18:53:02 16.1 C 7.68 g/m*3 16.1 C 0 km/h
1055 22-09-2011 19:05:01 15.9 C 7.85 g/m*3 15.9 C 0 km/h
1056 22-09-2011 19:17:01 15.7 C 7.89 g/m*3 15.7 C 0 km/h
1057 22-09-2011 19:29:02 15.6 C 7.98 g/m*3 15.6 C 0 km/h
1058 22-09-2011 19:41:01 15.4 C 8.01 g/m*3 15.4 C 0 km/h
1059 22-09-2011 19:53:02 15 C 7.69 g/m*3 15 C 0 km/h
1060 22-09-2011 20:05:01 14.9 C 7.77 g/m*3 14.9 C 0 km/h
1061 22-09-2011 20:17:01 15 C 7.82 g/m*3 15 C 0 km/h
1062 22-09-2011 20:29:01 14.7 C 7.81 g/m*3 14.7 C 0 km/h
1063 22-09-2011 20:41:02 14.1 C 7.65 g/m*3 14.1 C 0 km/h
1064 22-09-2011 20:53:01 13.5 C 7.72 g/m*3 13.5 C 0 km/h
1065 22-09-2011 21:05:02 13.3 C 7.86 g/m*3 13.3 C 0 km/h
1066 22-09-2011 21:17:01 12.8 C 7.95 g/m*3 12.8 C 0 km/h
1067 22-09-2011 21:29:01 12.5 C 8.14 g/m*3 12.5 C 0 km/h
1068 22-09-2011 21:41:01 12.7 C 8.24 g/m*3 12.7 C 0 km/h
1069 22-09-2011 21:53:01 13 C 8.17 g/m*3 13 C 0 km/h
1070 22-09-2011 22:05:02 13.2 C 8.15 g/m*3 13.2 C 0 km/h
1071 22-09-2011 22:17:01 12.9 C 8.11 g/m*3 12.9 C 0 km/h
1072 22-09-2011 22:29:01 12.6 C 8.08 g/m*3 12.6 C 0 km/h
1073 22-09-2011 22:41:01 12.7 C 8.24 g/m*3 12.7 C 0 km/h
1074 22-09-2011 22:53:01 12.6 C 8.19 g/m*3 12.6 C 0 km/h
1075 22-09-2011 23:06:01 12.6 C 8.19 g/m*3 12.6 C 0 km/h
Sensor: Nr:Datum:Temp:Abs-Feuchte:Windchill:Wind:
Aussen-T/F 1076 22-09-2011 23:18:01 12.4 C 8.19 g/m*3 12.4 C 0 km/h
1077 22-09-2011 23:30:01 11.9 C 8.15 g/m*3 11.9 C 0 km/h
1078 22-09-2011 23:42:01 11.7 C 8.26 g/m*3 11.7 C 0 km/h
1079 22-09-2011 23:54:01 11.7 C 8.37 g/m*3 11.7 C 0 km/h
1080 23-09-2011 00:06:01 11.6 C 8.42 g/m*3 11.6 C 0 km/h
1081 23-09-2011 00:18:01 11.4 C 8.31 g/m*3 11.4 C 0 km/h
1082 23-09-2011 00:30:01 11.1 C 8.16 g/m*3 11.1 C 0 km/h
1083 23-09-2011 00:42:01 11.1 C 8.26 g/m*3 11.1 C 0 km/h
1084 23-09-2011 00:54:01 11.9 C 8.79 g/m*3 11.9 C 0 km/h
1085 23-09-2011 01:06:01 12.2 C 8.85 g/m*3 12.2 C 0 km/h
1086 23-09-2011 01:18:01 12.5 C 8.58 g/m*3 12.5 C 0 km/h
1087 23-09-2011 01:30:01 12.6 C 8.41 g/m*3 12.6 C 0 km/h
1088 23-09-2011 01:42:01 12.5 C 8.25 g/m*3 12.5 C 0 km/h
1089 23-09-2011 01:54:01 12.7 C 8.24 g/m*3 12.7 C 0 km/h
1090 23-09-2011 02:06:01 12.6 C 8.3 g/m*3 12.6 C 0 km/h
1091 23-09-2011 02:18:01 12.5 C 8.25 g/m*3 12.5 C 0 km/h
1092 23-09-2011 02:30:01 12.5 C 8.14 g/m*3 12.5 C 0 km/h
1093 23-09-2011 02:42:02 12.5 C 8.14 g/m*3 12.5 C 0 km/h
1094 23-09-2011 02:54:02 12.4 C 8.09 g/m*3 12.4 C 0 km/h
1095 23-09-2011 03:06:02 12.4 C 8.09 g/m*3 12.4 C 0 km/h
1096 23-09-2011 03:18:02 12.5 C 8.03 g/m*3 12.5 C 0 km/h
1097 23-09-2011 03:30:02 12 C 7.99 g/m*3 12 C 0 km/h
1098 23-09-2011 03:42:02 11.8 C 8.1 g/m*3 11.8 C 0 km/h
1099 23-09-2011 03:54:02 12.1 C 8.04 g/m*3 12.1 C 0 km/h
1100 23-09-2011 04:06:02 12.1 C 8.04 g/m*3 12.1 C 0 km/h
Sensor: Nr:Datum:Temp:Abs-Feuchte:Windchill:Wind:
Aussen-T/F 1101 23-09-2011 04:18:02 12 C 7.99 g/m*3 12 C 0 km/h
1102 23-09-2011 04:30:02 11.9 C 8.05 g/m*3 11.9 C 0 km/h
1103 23-09-2011 04:42:02 11.4 C 8.01 g/m*3 11.4 C 0 km/h
1104 23-09-2011 04:54:02 11.4 C 8.11 g/m*3 11.4 C 0 km/h
1105 23-09-2011 05:06:02 11.3 C 8.16 g/m*3 11.3 C 0 km/h
1106 23-09-2011 05:18:02 11.3 C 8.26 g/m*3 11.3 C 0 km/h
1107 23-09-2011 05:30:02 11.2 C 8.21 g/m*3 11.2 C 0 km/h
1108 23-09-2011 05:42:02 11.4 C 8.31 g/m*3 11.4 C 0 km/h
1109 23-09-2011 05:54:02 11.3 C 8.26 g/m*3 11.3 C 0 km/h
1110 23-09-2011 06:06:02 11.2 C 8.21 g/m*3 11.2 C 0 km/h
1111 23-09-2011 06:18:02 11.3 C 8.26 g/m*3 11.3 C 0 km/h
1112 23-09-2011 06:30:02 11.2 C 8.21 g/m*3 11.2 C 0 km/h
1113 23-09-2011 06:42:02 11.3 C 8.26 g/m*3 11.3 C 0 km/h
1114 23-09-2011 06:54:03 11.3 C 8.26 g/m*3 11.3 C 0 km/h
1115 23-09-2011 07:06:03 11 C 8.11 g/m*3 11 C 0 km/h
1116 23-09-2011 07:18:03 10.8 C 8.11 g/m*3 10.8 C 0 km/h
1117 23-09-2011 07:30:03 10.8 C 8.2 g/m*3 10.8 C 0 km/h
1118 23-09-2011 07:42:03 11 C 8.31 g/m*3 11 C 0 km/h
1119 23-09-2011 07:54:02 11.1 C 8.26 g/m*3 11.1 C 0 km/h
1120 23-09-2011 08:06:02 11.2 C 8.21 g/m*3 11.2 C 0 km/h
1121 23-09-2011 08:18:02 11.3 C 8.16 g/m*3 11.3 C 0 km/h
1122 23-09-2011 08:30:02 11.5 C 8.16 g/m*3 11.5 C 0 km/h
1123 23-09-2011 08:42:02 11.7 C 8.16 g/m*3 11.7 C 0 km/h
1124 23-09-2011 08:54:01 12 C 8.1 g/m*3 12 C 0 km/h
1125 23-09-2011 09:06:01 12.3 C 8.04 g/m*3 12.3 C 0 km/h
Sensor: Nr:Datum:Temp:Abs-Feuchte:Windchill:Wind:
Aussen-T/F 1126 23-09-2011 09:18:01 12.5 C 8.03 g/m*3 12.5 C 0 km/h
1127 23-09-2011 09:30:01 12.8 C 8.06 g/m*3 12.8 C 0 km/h
1128 23-09-2011 09:42:01 13 C 7.94 g/m*3 13 C 0 km/h
1129 23-09-2011 09:54:02 13.2 C 7.92 g/m*3 13.2 C 0 km/h
1130 23-09-2011 10:06:02 13.4 C 7.9 g/m*3 13.4 C 0 km/h
1131 23-09-2011 10:18:01 13.4 C 8.02 g/m*3 13.4 C 0 km/h
1132 23-09-2011 10:30:01 13.1 C 7.87 g/m*3 13.1 C 0 km/h
1133 23-09-2011 10:42:01 13.3 C 8.09 g/m*3 13.3 C 0 km/h
1134 23-09-2011 10:54:01 13.2 C 8.04 g/m*3 13.2 C 0 km/h
1135 23-09-2011 11:06:01 13.6 C 8.36 g/m*3 13.6 C 0 km/h
1136 23-09-2011 11:18:02 13.9 C 8.39 g/m*3 13.9 C 0 km/h
1137 23-09-2011 11:30:02 14.2 C 8.43 g/m*3 14.2 C 0 km/h
1138 23-09-2011 11:42:01 14.2 C 8.79 g/m*3 14.2 C 0 km/h
1139 23-09-2011 11:54:02 14.8 C 8.11 g/m*3 14.8 C 0 km/h
1140 23-09-2011 12:06:02 15.2 C 7.92 g/m*3 15.2 C 0 km/h
1141 23-09-2011 12:18:02 15.4 C 8.54 g/m*3 15.4 C 0 km/h
1142 23-09-2011 12:30:03 15.5 C 8.59 g/m*3 15.5 C 0 km/h
1143 23-09-2011 12:42:01 15.9 C 9.07 g/m*3 15.9 C 0 km/h
1144 23-09-2011 12:54:02 16.8 C 7.29 g/m*3 16.8 C 0 km/h
1145 23-09-2011 13:06:01 17.6 C 6.45 g/m*3 17.6 C 0 km/h
1146 23-09-2011 13:18:01 17.1 C 8.15 g/m*3 17.1 C 0 km/h
1147 23-09-2011 13:30:01 16.8 C 8.01 g/m*3 16.8 C 0 km/h
1148 23-09-2011 13:42:02 16.5 C 8.14 g/m*3 16.5 C 0 km/h
1149 23-09-2011 13:54:02 17 C 7.67 g/m*3 17 C 0 km/h
1150 23-09-2011 14:06:02 17.8 C 5.92 g/m*3 17.8 C 0 km/h
Sensor: Nr:Datum:Temp:Abs-Feuchte:Windchill:Wind:
Aussen-T/F 1151 23-09-2011 14:18:02 17.8 C 7.29 g/m*3 17.8 C 0 km/h
1152 23-09-2011 14:30:02 18.8 C 6.6 g/m*3 18.8 C 0 km/h
1153 23-09-2011 14:42:02 19.3 C 6.3 g/m*3 19.3 C 0 km/h
1154 23-09-2011 14:54:02 20 C 6.05 g/m*3 20 C 0 km/h
1155 23-09-2011 15:06:02 20.9 C 6.01 g/m*3 20.9 C 0 km/h
1156 23-09-2011 15:18:03 20.8 C 5.61 g/m*3 20.8 C 0 km/h
1157 23-09-2011 15:30:03 20.4 C 5.84 g/m*3 20.4 C 0 km/h
1158 23-09-2011 15:42:02 22.1 C 5.66 g/m*3 22.1 C 0 km/h
1159 23-09-2011 15:54:02 21 C 5.31 g/m*3 21 C 0 km/h
1160 23-09-2011 16:06:02 22.6 C 5.42 g/m*3 22.6 C 0 km/h
1161 23-09-2011 16:18:02 23.3 C 5.23 g/m*3 23.3 C 0 km/h
1162 23-09-2011 16:30:02 24.1 C 4.81 g/m*3 24.1 C 0 km/h
1163 23-09-2011 16:42:02 26.4 C 6.22 g/m*3 26.4 C 0 km/h
1164 23-09-2011 16:54:02 25.2 C 5.12 g/m*3 25.2 C 0 km/h
1165 23-09-2011 17:06:01 26.2 C 6.4 g/m*3 26.2 C 0 km/h
1166 23-09-2011 17:18:02 24.6 C 6.08 g/m*3 24.6 C 0 km/h
1167 23-09-2011 17:30:02 25.2 C 6.05 g/m*3 25.2 C 0 km/h
1168 23-09-2011 17:42:02 24.6 C 6.53 g/m*3 24.6 C 0 km/h
1169 23-09-2011 17:54:01 23.8 C 6.45 g/m*3 23.8 C 0 km/h
1170 23-09-2011 18:06:02 23.6 C 6.81 g/m*3 23.6 C 0 km/h
1171 23-09-2011 18:18:01 22 C 6.79 g/m*3 22 C 0 km/h
1172 23-09-2011 18:30:01 19 C 6.68 g/m*3 19 C 0 km/h
1173 23-09-2011 18:42:02 17.9 C 6.87 g/m*3 17.9 C 0 km/h
1174 23-09-2011 18:54:02 16.2 C 6.76 g/m*3 16.2 C 0 km/h
1175 23-09-2011 19:06:02 15.6 C 6.52 g/m*3 15.6 C 0 km/h
Sensor: Nr:Datum:Temp:Abs-Feuchte:Windchill:Wind:
Aussen-T/F 1176 23-09-2011 19:18:01 15.2 C 6.36 g/m*3 15.2 C 0 km/h
1177 23-09-2011 19:30:01 14.3 C 6.51 g/m*3 14.3 C 0 km/h
1178 23-09-2011 19:42:02 13.8 C 6.67 g/m*3 13.8 C 0 km/h
1179 23-09-2011 19:54:01 12.9 C 6.76 g/m*3 12.9 C 0 km/h
1180 23-09-2011 20:06:02 12.6 C 7.08 g/m*3 12.6 C 0 km/h
1181 23-09-2011 20:18:02 11.8 C 6.95 g/m*3 11.8 C 0 km/h
1182 23-09-2011 20:30:02 11.4 C 6.77 g/m*3 11.4 C 0 km/h
1183 23-09-2011 20:42:02 11.1 C 6.85 g/m*3 11.1 C 0 km/h
1184 23-09-2011 20:54:02 11 C 7.11 g/m*3 11 C 0 km/h
1185 23-09-2011 21:06:01 10.7 C 7.17 g/m*3 10.7 C 0 km/h
1186 23-09-2011 21:18:02 10.4 C 7.13 g/m*3 10.4 C 0 km/h
1187 23-09-2011 21:30:02 10.2 C 7.14 g/m*3 10.2 C 0 km/h
1188 23-09-2011 21:42:01 10.1 C 7.28 g/m*3 10.1 C 0 km/h
1189 23-09-2011 21:54:02 9.8 C 7.33 g/m*3 9.8 C 0 km/h
1190 23-09-2011 22:06:02 9.7 C 7.28 g/m*3 9.7 C 0 km/h
1191 23-09-2011 22:18:02 9.4 C 7.15 g/m*3 9.4 C 0 km/h
1192 23-09-2011 22:30:02 9.2 C 7.14 g/m*3 9.2 C 0 km/h
1193 23-09-2011 22:42:03 9.1 C 7.19 g/m*3 9.1 C 0 km/h
1194 23-09-2011 22:54:02 9.2 C 7.32 g/m*3 9.2 C 0 km/h
1195 23-09-2011 23:06:02 8.8 C 7.22 g/m*3 8.8 C 0 km/h
1196 23-09-2011 23:18:01 8.7 C 7.26 g/m*3 8.7 C 0 km/h
1197 23-09-2011 23:30:01 8.6 C 7.22 g/m*3 8.6 C 0 km/h
1198 23-09-2011 23:42:02 8.2 C 7.03 g/m*3 8.2 C 0 km/h
1199 23-09-2011 23:54:02 8.1 C 7.07 g/m*3 8.1 C 0 km/h
1200 24-09-2011 00:06:02 8 C 7.03 g/m*3 8 C 0 km/h
Sensor: Nr:Datum:Temp:Abs-Feuchte:Windchill:Wind:
Aussen-T/F 1201 24-09-2011 00:18:02 7.8 C 7.02 g/m*3 7.8 C 0 km/h
1202 24-09-2011 00:30:02 8 C 7.03 g/m*3 8 C 0 km/h
1203 24-09-2011 00:42:02 8 C 7.11 g/m*3 8 C 0 km/h
1204 24-09-2011 00:54:02 7.9 C 7.15 g/m*3 7.9 C 0 km/h
1205 24-09-2011 01:06:02 7.5 C 7.04 g/m*3 7.5 C 0 km/h
1206 24-09-2011 01:18:02 7.6 C 7.09 g/m*3 7.6 C 0 km/h
1207 24-09-2011 01:30:02 7.3 C 6.95 g/m*3 7.3 C 0 km/h
1208 24-09-2011 01:42:01 7.4 C 6.92 g/m*3 7.4 C 0 km/h
1209 24-09-2011 01:54:02 7.4 C 7 g/m*3 7.4 C 0 km/h
1210 24-09-2011 02:06:01 7.2 C 6.91 g/m*3 7.2 C 0 km/h
1211 24-09-2011 02:18:02 6.9 C 6.85 g/m*3 6.9 C 0 km/h
1212 24-09-2011 02:30:02 7 C 6.82 g/m*3 7 C 0 km/h
1213 24-09-2011 02:42:01 7 C 6.82 g/m*3 7 C 0 km/h
1214 24-09-2011 02:55:03 6.6 C 6.72 g/m*3 6.6 C 0 km/h
1215 24-09-2011 03:07:03 6.8 C 6.81 g/m*3 6.8 C 0 km/h
1216 24-09-2011 03:19:03 6.7 C 6.76 g/m*3 6.7 C 0 km/h
1217 24-09-2011 03:31:02 6.4 C 6.63 g/m*3 6.4 C 0 km/h
1218 24-09-2011 03:43:02 6.3 C 6.59 g/m*3 6.3 C 0 km/h
1219 24-09-2011 03:55:02 6.2 C 6.55 g/m*3 6.2 C 0 km/h
1220 24-09-2011 04:07:01 6.5 C 6.67 g/m*3 6.5 C 0 km/h
1221 24-09-2011 04:19:02 6.2 C 6.55 g/m*3 6.2 C 0 km/h
1222 24-09-2011 04:31:02 6.4 C 6.71 g/m*3 6.4 C 0 km/h
1223 24-09-2011 04:43:02 6.1 C 6.5 g/m*3 6.1 C 0 km/h
1224 24-09-2011 04:55:01 5.9 C 6.49 g/m*3 5.9 C 0 km/h
1225 24-09-2011 05:07:02 5.9 C 6.49 g/m*3 5.9 C 0 km/h
Sensor: Nr:Datum:Temp:Abs-Feuchte:Windchill:Wind:
Aussen-T/F 1226 24-09-2011 05:19:01 6.3 C 6.66 g/m*3 6.3 C 0 km/h
1227 24-09-2011 05:31:02 5.9 C 6.49 g/m*3 5.9 C 0 km/h
1228 24-09-2011 05:43:03 5.7 C 6.4 g/m*3 5.7 C 0 km/h
1229 24-09-2011 05:55:02 5.7 C 6.4 g/m*3 5.7 C 0 km/h
1230 24-09-2011 06:07:02 5.5 C 6.32 g/m*3 5.5 C 0 km/h
1231 24-09-2011 06:19:01 5.7 C 6.4 g/m*3 5.7 C 0 km/h
1232 24-09-2011 06:31:02 6.2 C 6.62 g/m*3 6.2 C 0 km/h
1233 24-09-2011 06:43:02 6.4 C 6.78 g/m*3 6.4 C 0 km/h
1234 24-09-2011 06:55:01 6.8 C 6.96 g/m*3 6.8 C 0 km/h
1235 24-09-2011 07:07:02 7 C 6.97 g/m*3 7 C 0 km/h
1236 24-09-2011 07:19:02 7 C 7.05 g/m*3 7 C 0 km/h
1237 24-09-2011 07:31:01 7 C 7.05 g/m*3 7 C 0 km/h
1238 24-09-2011 07:43:01 7 C 7.05 g/m*3 7 C 0 km/h
1239 24-09-2011 07:55:02 6.9 C 7.08 g/m*3 6.9 C 0 km/h
1240 24-09-2011 08:07:01 7.1 C 7.1 g/m*3 7.1 C 0 km/h
1241 24-09-2011 08:19:02 7.1 C 7.1 g/m*3 7.1 C 0 km/h
1242 24-09-2011 08:31:02 7.2 C 7.14 g/m*3 7.2 C 0 km/h
1243 24-09-2011 08:43:02 7.4 C 7.32 g/m*3 7.4 C 0 km/h
1244 24-09-2011 08:55:02 7.5 C 7.28 g/m*3 7.5 C 0 km/h
1245 24-09-2011 09:07:02 7.9 C 7.47 g/m*3 7.9 C 0 km/h
1246 24-09-2011 09:19:02 7.9 C 7.47 g/m*3 7.9 C 0 km/h
1247 24-09-2011 09:31:03 8.1 C 7.49 g/m*3 8.1 C 0 km/h
1248 24-09-2011 09:43:03 8.2 C 7.54 g/m*3 8.2 C 0 km/h
1249 24-09-2011 09:55:02 8.2 C 7.45 g/m*3 8.2 C 0 km/h
1250 24-09-2011 10:07:01 8.2 C 7.45 g/m*3 8.2 C 0 km/h
Sensor: Nr:Datum:Temp:Abs-Feuchte:Windchill:Wind:
Aussen-T/F 1251 24-09-2011 10:19:01 8.4 C 7.55 g/m*3 8.4 C 0 km/h
1252 24-09-2011 10:31:02 8.8 C 7.75 g/m*3 8.8 C 0 km/h
1253 24-09-2011 10:43:02 9.2 C 7.86 g/m*3 9.2 C 0 km/h
1254 24-09-2011 10:55:02 9.7 C 8.2 g/m*3 9.7 C 0 km/h
1255 24-09-2011 11:07:02 10 C 8.27 g/m*3 10 C 0 km/h
1256 24-09-2011 11:19:01 10.5 C 8.53 g/m*3 10.5 C 0 km/h
1257 24-09-2011 11:31:02 11.2 C 8.82 g/m*3 11.2 C 0 km/h
1258 24-09-2011 11:43:02 12.1 C 9.22 g/m*3 12.1 C 0 km/h
1259 24-09-2011 11:55:01 12.6 C 9.29 g/m*3 12.6 C 0 km/h
1260 24-09-2011 12:07:02 13 C 9.41 g/m*3 13 C 0 km/h
1261 24-09-2011 12:19:02 13.5 C 9.71 g/m*3 13.5 C 0 km/h
1262 24-09-2011 12:31:01 14.3 C 9.95 g/m*3 14.3 C 0 km/h
1263 24-09-2011 12:43:01 14.8 C 9.75 g/m*3 14.8 C 0 km/h
1264 24-09-2011 12:55:01 15.1 C 9.68 g/m*3 15.1 C 0 km/h
1265 24-09-2011 13:07:01 16 C 9.54 g/m*3 16 C 0 km/h
1266 24-09-2011 13:19:02 17.2 C 8.79 g/m*3 17.2 C 0 km/h
1267 24-09-2011 13:31:01 17.5 C 9.24 g/m*3 17.5 C 0 km/h
1268 24-09-2011 13:43:01 18.4 C 8.81 g/m*3 18.4 C 0 km/h
1269 24-09-2011 13:55:02 19.1 C 8.2 g/m*3 19.1 C 0 km/h
1270 24-09-2011 14:07:01 19.9 C 8.42 g/m*3 19.9 C 0 km/h
1271 24-09-2011 14:19:01 19.7 C 7.98 g/m*3 19.7 C 0 km/h
1272 24-09-2011 14:31:02 19.9 C 8.08 g/m*3 19.9 C 0 km/h
1273 24-09-2011 14:43:02 20.4 C 7.96 g/m*3 20.4 C 0 km/h
1274 24-09-2011 14:55:02 20.7 C 8.28 g/m*3 20.7 C 0 km/h
1275 24-09-2011 15:07:02 20.8 C 7.97 g/m*3 20.8 C 0 km/h
Sensor: Nr:Datum:Temp:Abs-Feuchte:Windchill:Wind:
Aussen-T/F 1276 24-09-2011 15:19:02 21.2 C 7.6 g/m*3 21.2 C 0 km/h
1277 24-09-2011 15:31:02 21.7 C 7.82 g/m*3 21.7 C 0 km/h
1278 24-09-2011 15:43:02 22.5 C 7.59 g/m*3 22.5 C 0 km/h
1279 24-09-2011 15:55:02 21.9 C 7.91 g/m*3 21.9 C 0 km/h
1280 24-09-2011 16:07:02 22.1 C 7.61 g/m*3 22.1 C 0 km/h
1281 24-09-2011 16:19:02 24.7 C 8.15 g/m*3 24.7 C 0 km/h
1282 24-09-2011 16:31:02 26.5 C 7.76 g/m*3 26.5 C 0 km/h
1283 24-09-2011 16:43:02 27.2 C 7.81 g/m*3 27.2 C 0 km/h
1284 24-09-2011 16:55:02 26.6 C 7.55 g/m*3 26.6 C 0 km/h
1285 24-09-2011 17:07:02 26.2 C 6.65 g/m*3 26.2 C 0 km/h
1286 24-09-2011 17:19:03 26.5 C 8.26 g/m*3 26.5 C 0 km/h
1287 24-09-2011 17:31:02 27.1 C 8.02 g/m*3 27.1 C 0 km/h
1288 24-09-2011 17:43:02 25.8 C 8.19 g/m*3 25.8 C 0 km/h
1289 24-09-2011 17:55:03 25.4 C 8.48 g/m*3 25.4 C 0 km/h
1290 24-09-2011 18:07:02 24.7 C 8.83 g/m*3 24.7 C 0 km/h
1291 24-09-2011 18:19:02 22.6 C 8.64 g/m*3 22.6 C 0 km/h
1292 24-09-2011 18:31:02 21.7 C 8.97 g/m*3 21.7 C 0 km/h
1293 24-09-2011 18:43:02 20.2 C 8.74 g/m*3 20.2 C 0 km/h
1294 24-09-2011 18:55:02 19.1 C 8.69 g/m*3 19.1 C 0 km/h
1295 24-09-2011 19:07:02 17.6 C 8.85 g/m*3 17.6 C 0 km/h
1296 24-09-2011 19:19:02 16.4 C 8.93 g/m*3 16.4 C 0 km/h
1297 24-09-2011 19:31:02 15.9 C 9.07 g/m*3 15.9 C 0 km/h
1298 24-09-2011 19:43:02 15.7 C 8.96 g/m*3 15.7 C 0 km/h
1299 24-09-2011 19:55:02 15.5 C 8.99 g/m*3 15.5 C 0 km/h
1300 24-09-2011 20:07:02 15.4 C 9.07 g/m*3 15.4 C 0 km/h
Sensor: Nr:Datum:Temp:Abs-Feuchte:Windchill:Wind:
Aussen-T/F 1301 24-09-2011 20:19:01 15.3 C 9.01 g/m*3 15.3 C 0 km/h
1302 24-09-2011 20:31:02 15.4 C 9.07 g/m*3 15.4 C 0 km/h
1303 24-09-2011 20:43:03 15.9 C 9.34 g/m*3 15.9 C 0 km/h
1304 24-09-2011 20:55:02 15.5 C 9.25 g/m*3 15.5 C 0 km/h
1305 24-09-2011 21:07:02 15.2 C 9.35 g/m*3 15.2 C 0 km/h
1306 24-09-2011 21:19:01 15 C 9.36 g/m*3 15 C 0 km/h
1307 24-09-2011 21:31:02 14.4 C 9.27 g/m*3 14.4 C 0 km/h
1308 24-09-2011 21:43:02 14.1 C 9.34 g/m*3 14.1 C 0 km/h
1309 24-09-2011 21:55:02 13.5 C 9.12 g/m*3 13.5 C 0 km/h
1310 24-09-2011 22:07:02 13.2 C 9.19 g/m*3 13.2 C 0 km/h
1311 24-09-2011 22:19:02 13.1 C 9.13 g/m*3 13.1 C 0 km/h
1312 24-09-2011 22:31:02 13 C 9.19 g/m*3 13 C 0 km/h
1313 24-09-2011 22:43:02 13.2 C 9.42 g/m*3 13.2 C 0 km/h
1314 24-09-2011 22:55:01 12.4 C 8.96 g/m*3 12.4 C 0 km/h
1315 24-09-2011 23:07:01 12 C 8.85 g/m*3 12 C 0 km/h
1316 24-09-2011 23:19:01 11.9 C 8.79 g/m*3 11.9 C 0 km/h
1317 24-09-2011 23:31:01 11.8 C 8.95 g/m*3 11.8 C 0 km/h
1318 24-09-2011 23:43:01 11.8 C 9.05 g/m*3 11.8 C 0 km/h
1319 24-09-2011 23:55:01 11.7 C 9.1 g/m*3 11.7 C 0 km/h
1320 25-09-2011 00:07:01 11.8 C 9.16 g/m*3 11.8 C 0 km/h
1321 25-09-2011 00:19:02 11.2 C 8.82 g/m*3 11.2 C 0 km/h
1322 25-09-2011 00:31:01 11 C 8.61 g/m*3 11 C 0 km/h
1323 25-09-2011 00:43:01 10.9 C 8.65 g/m*3 10.9 C 0 km/h
1324 25-09-2011 00:55:01 10.7 C 8.55 g/m*3 10.7 C 0 km/h
1325 25-09-2011 01:07:01 10.6 C 8.49 g/m*3 10.6 C 0 km/h
Sensor: Nr:Datum:Temp:Abs-Feuchte:Windchill:Wind:
Aussen-T/F 1326 25-09-2011 01:19:02 10.5 C 8.44 g/m*3 10.5 C 0 km/h
1327 25-09-2011 01:31:01 10.4 C 8.38 g/m*3 10.4 C 0 km/h
1328 25-09-2011 01:43:01 10.4 C 8.38 g/m*3 10.4 C 0 km/h
1329 25-09-2011 01:55:03 10.4 C 8.38 g/m*3 10.4 C 0 km/h
1330 25-09-2011 02:07:02 10.2 C 8.28 g/m*3 10.2 C 0 km/h
1331 25-09-2011 02:19:02 10.1 C 8.23 g/m*3 10.1 C 0 km/h
1332 25-09-2011 02:31:03 10.4 C 8.38 g/m*3 10.4 C 0 km/h
1333 25-09-2011 02:43:03 10.1 C 8.23 g/m*3 10.1 C 0 km/h
1334 25-09-2011 02:56:03 10 C 8.17 g/m*3 10 C 0 km/h
1335 25-09-2011 03:08:03 9.8 C 8.26 g/m*3 9.8 C 0 km/h
1336 25-09-2011 03:20:03 9.9 C 8.31 g/m*3 9.9 C 0 km/h
1337 25-09-2011 03:32:02 9.7 C 8.2 g/m*3 9.7 C 0 km/h
1338 25-09-2011 03:44:02 9.7 C 8.2 g/m*3 9.7 C 0 km/h
1339 25-09-2011 03:56:02 9.6 C 8.15 g/m*3 9.6 C 0 km/h
1340 25-09-2011 04:08:02 9.6 C 8.15 g/m*3 9.6 C 0 km/h
1341 25-09-2011 04:20:02 9.4 C 8.05 g/m*3 9.4 C 0 km/h
1342 25-09-2011 04:32:02 9.5 C 8.1 g/m*3 9.5 C 0 km/h
1343 25-09-2011 04:44:02 9.3 C 8 g/m*3 9.3 C 0 km/h
1344 25-09-2011 04:56:02 9 C 7.85 g/m*3 9 C 0 km/h
1345 25-09-2011 05:08:01 9.1 C 7.9 g/m*3 9.1 C 0 km/h
1346 25-09-2011 05:20:02 8.9 C 7.88 g/m*3 8.9 C 0 km/h
1347 25-09-2011 05:32:02 8.7 C 7.78 g/m*3 8.7 C 0 km/h
1348 25-09-2011 05:44:02 8.5 C 7.68 g/m*3 8.5 C 0 km/h
1349 25-09-2011 05:56:02 8.3 C 7.59 g/m*3 8.3 C 0 km/h
1350 25-09-2011 06:08:02 8.1 C 7.49 g/m*3 8.1 C 0 km/h
Sensor: Nr:Datum:Temp:Abs-Feuchte:Windchill:Wind:
Aussen-T/F 1351 25-09-2011 06:20:02 8.5 C 7.68 g/m*3 8.5 C 0 km/h
1352 25-09-2011 06:32:02 8.2 C 7.54 g/m*3 8.2 C 0 km/h
1353 25-09-2011 06:44:02 8 C 7.36 g/m*3 8 C 0 km/h
1354 25-09-2011 06:56:01 8.1 C 7.49 g/m*3 8.1 C 0 km/h
1355 25-09-2011 07:08:01 8.1 C 7.49 g/m*3 8.1 C 0 km/h
1356 25-09-2011 07:20:01 7.7 C 7.38 g/m*3 7.7 C 0 km/h
1357 25-09-2011 07:32:01 7.6 C 7.33 g/m*3 7.6 C 0 km/h
1358 25-09-2011 07:44:01 8.4 C 7.72 g/m*3 8.4 C 0 km/h
1359 25-09-2011 07:56:02 8.5 C 7.77 g/m*3 8.5 C 0 km/h
1360 25-09-2011 08:08:02 9.1 C 7.99 g/m*3 9.1 C 0 km/h
1361 25-09-2011 08:20:02 9.4 C 8.23 g/m*3 9.4 C 0 km/h
1362 25-09-2011 08:32:02 9.5 C 8.28 g/m*3 9.5 C 0 km/h
1363 25-09-2011 08:44:02 9.7 C 8.39 g/m*3 9.7 C 0 km/h
1364 25-09-2011 08:56:02 9.7 C 8.39 g/m*3 9.7 C 0 km/h
1365 25-09-2011 09:08:02 9.8 C 8.44 g/m*3 9.8 C 0 km/h
1366 25-09-2011 09:20:02 9.9 C 8.5 g/m*3 9.9 C 0 km/h
1367 25-09-2011 09:32:02 10.1 C 8.42 g/m*3 10.1 C 0 km/h
1368 25-09-2011 09:44:02 10.6 C 8.69 g/m*3 10.6 C 0 km/h
1369 25-09-2011 09:56:02 10.7 C 8.74 g/m*3 10.7 C 0 km/h
1370 25-09-2011 10:08:01 10.8 C 8.8 g/m*3 10.8 C 0 km/h
1371 25-09-2011 10:20:01 10.5 C 8.53 g/m*3 10.5 C 0 km/h
1372 25-09-2011 10:32:02 10.7 C 8.64 g/m*3 10.7 C 0 km/h
1373 25-09-2011 10:44:02 10.9 C 8.75 g/m*3 10.9 C 0 km/h
1374 25-09-2011 10:56:02 11.1 C 8.86 g/m*3 11.1 C 0 km/h
1375 25-09-2011 11:08:02 11.5 C 9.09 g/m*3 11.5 C 0 km/h
Sensor: Nr:Datum:Temp:Abs-Feuchte:Windchill:Wind:
Aussen-T/F 1376 25-09-2011 11:20:02 11.8 C 9.26 g/m*3 11.8 C 0 km/h
1377 25-09-2011 11:32:02 12.1 C 9.44 g/m*3 12.1 C 0 km/h
1378 25-09-2011 11:44:02 12.6 C 9.74 g/m*3 12.6 C 0 km/h
1379 25-09-2011 11:56:02 13.1 C 10.04 g/m*3 13.1 C 0 km/h
1380 25-09-2011 12:08:02 13.3 C 10.17 g/m*3 13.3 C 0 km/h
1381 25-09-2011 12:20:01 13.9 C 10.55 g/m*3 13.9 C 0 km/h
1382 25-09-2011 12:32:02 14.5 C 10.94 g/m*3 14.5 C 0 km/h
1383 25-09-2011 12:44:02 15.1 C 11.22 g/m*3 15.1 C 0 km/h
1384 25-09-2011 12:56:01 15.4 C 11.43 g/m*3 15.4 C 0 km/h
1385 25-09-2011 13:08:02 16.2 C 11.86 g/m*3 16.2 C 0 km/h
1386 25-09-2011 13:20:02 17.2 C 12.01 g/m*3 17.2 C 0 km/h
1387 25-09-2011 13:32:02 17.8 C 11.99 g/m*3 17.8 C 0 km/h
1388 25-09-2011 13:44:02 18.8 C 11.92 g/m*3 18.8 C 0 km/h
1389 25-09-2011 13:56:02 18.6 C 11.46 g/m*3 18.6 C 0 km/h
1390 25-09-2011 14:08:01 19.2 C 11.38 g/m*3 19.2 C 0 km/h
1391 25-09-2011 14:20:02 19.7 C 10.53 g/m*3 19.7 C 0 km/h
1392 25-09-2011 14:32:02 20.2 C 10.14 g/m*3 20.2 C 0 km/h
1393 25-09-2011 14:44:02 20.2 C 10.32 g/m*3 20.2 C 0 km/h
1394 25-09-2011 14:56:02 20.7 C 9.36 g/m*3 20.7 C 0 km/h
1395 25-09-2011 15:08:02 20.4 C 9.91 g/m*3 20.4 C 0 km/h
1396 25-09-2011 15:20:02 20.8 C 9.42 g/m*3 20.8 C 0 km/h
1397 25-09-2011 15:32:02 20.9 C 9.65 g/m*3 20.9 C 0 km/h
1398 25-09-2011 15:44:02 21.7 C 9.35 g/m*3 21.7 C 0 km/h
1399 25-09-2011 15:56:02 21.7 C 9.16 g/m*3 21.7 C 0 km/h
1400 25-09-2011 16:08:02 21.3 C 8.95 g/m*3 21.3 C 0 km/h
Sensor: Nr:Datum:Temp:Abs-Feuchte:Windchill:Wind:
Aussen-T/F 1401 25-09-2011 16:20:01 25.5 C 8.29 g/m*3 25.5 C 0 km/h
1402 25-09-2011 16:32:02 27.1 C 8.28 g/m*3 27.1 C 0 km/h
1403 25-09-2011 16:44:02 27.4 C 8.16 g/m*3 27.4 C 0 km/h
1404 25-09-2011 16:56:02 27.2 C 8.07 g/m*3 27.2 C 0 km/h
1405 25-09-2011 17:08:02 26.1 C 8.08 g/m*3 26.1 C 0 km/h
1406 25-09-2011 17:20:01 26.3 C 8.17 g/m*3 26.3 C 0 km/h
1407 25-09-2011 17:32:02 25.7 C 8.14 g/m*3 25.7 C 0 km/h
1408 25-09-2011 17:44:02 25.4 C 7.77 g/m*3 25.4 C 0 km/h
1409 25-09-2011 17:56:01 24.6 C 8.1 g/m*3 24.6 C 0 km/h
1410 25-09-2011 18:08:02 23.3 C 8.36 g/m*3 23.3 C 0 km/h
1411 25-09-2011 18:20:02 22.4 C 8.54 g/m*3 22.4 C 0 km/h
1412 25-09-2011 18:32:01 21.4 C 8.44 g/m*3 21.4 C 0 km/h
1413 25-09-2011 18:44:01 20.7 C 8.64 g/m*3 20.7 C 0 km/h
1414 25-09-2011 18:56:02 19.3 C 8.46 g/m*3 19.3 C 0 km/h
1415 25-09-2011 19:08:01 18.5 C 8.54 g/m*3 18.5 C 0 km/h
1416 25-09-2011 19:20:02 18.4 C 8.81 g/m*3 18.4 C 0 km/h
1417 25-09-2011 19:32:02 17.9 C 9.47 g/m*3 17.9 C 0 km/h
1418 25-09-2011 19:44:02 17.4 C 10.08 g/m*3 17.4 C 0 km/h
1419 25-09-2011 19:56:02 16.7 C 10.09 g/m*3 16.7 C 0 km/h
1420 25-09-2011 20:08:03 16.1 C 10.14 g/m*3 16.1 C 0 km/h
1421 25-09-2011 20:20:02 15.8 C 10.23 g/m*3 15.8 C 0 km/h
1422 25-09-2011 20:32:02 15.5 C 10.18 g/m*3 15.5 C 0 km/h
1423 25-09-2011 20:44:02 15.2 C 10.12 g/m*3 15.2 C 0 km/h
1424 25-09-2011 20:56:02 15 C 10 g/m*3 15 C 0 km/h
1425 25-09-2011 21:08:02 15.2 C 10.25 g/m*3 15.2 C 0 km/h
Sensor: Nr:Datum:Temp:Abs-Feuchte:Windchill:Wind:
Aussen-T/F 1426 25-09-2011 21:20:01 15 C 10 g/m*3 15 C 0 km/h
1427 25-09-2011 21:32:02 14.6 C 9.89 g/m*3 14.6 C 0 km/h
1428 25-09-2011 21:44:02 14.5 C 9.83 g/m*3 14.5 C 0 km/h
1429 25-09-2011 21:56:02 14.2 C 9.65 g/m*3 14.2 C 0 km/h
1430 25-09-2011 22:08:02 13.8 C 9.65 g/m*3 13.8 C 0 km/h
1431 25-09-2011 22:20:01 13.5 C 9.59 g/m*3 13.5 C 0 km/h
1432 25-09-2011 22:32:02 13.1 C 9.36 g/m*3 13.1 C 0 km/h
1433 25-09-2011 22:44:02 13 C 9.3 g/m*3 13 C 0 km/h
1434 25-09-2011 22:56:02 13 C 9.41 g/m*3 13 C 0 km/h
1435 25-09-2011 23:08:02 13 C 9.53 g/m*3 13 C 0 km/h
1436 25-09-2011 23:20:02 13 C 9.64 g/m*3 13 C 0 km/h
1437 25-09-2011 23:32:02 13.2 C 9.76 g/m*3 13.2 C 0 km/h
1438 25-09-2011 23:44:02 12.8 C 9.63 g/m*3 12.8 C 0 km/h
1439 25-09-2011 23:56:01 12.6 C 9.51 g/m*3 12.6 C 0 km/h
1440 26-09-2011 00:08:02 12.4 C 9.4 g/m*3 12.4 C 0 km/h
1441 26-09-2011 00:20:02 12.7 C 9.68 g/m*3 12.7 C 0 km/h
1442 26-09-2011 00:32:02 12.3 C 9.45 g/m*3 12.3 C 0 km/h
1443 26-09-2011 00:44:02 12.1 C 9.33 g/m*3 12.1 C 0 km/h
1444 26-09-2011 00:56:02 12 C 9.27 g/m*3 12 C 0 km/h
1445 26-09-2011 01:08:02 11.7 C 9.1 g/m*3 11.7 C 0 km/h
1446 26-09-2011 01:20:02 11.8 C 9.16 g/m*3 11.8 C 0 km/h
1447 26-09-2011 01:32:01 11.6 C 9.04 g/m*3 11.6 C 0 km/h
1448 26-09-2011 01:44:01 11.4 C 8.93 g/m*3 11.4 C 0 km/h
1449 26-09-2011 01:56:02 11.4 C 8.93 g/m*3 11.4 C 0 km/h
1450 26-09-2011 02:08:01 11.2 C 8.82 g/m*3 11.2 C 0 km/h
Sensor: Nr:Datum:Temp:Abs-Feuchte:Windchill:Wind:
Aussen-T/F 1451 26-09-2011 02:20:01 11.2 C 8.82 g/m*3 11.2 C 0 km/h
1452 26-09-2011 02:32:02 11.1 C 8.76 g/m*3 11.1 C 0 km/h
1453 26-09-2011 02:44:02 11.1 C 8.76 g/m*3 11.1 C 0 km/h
1454 26-09-2011 02:56:01 11 C 8.81 g/m*3 11 C 0 km/h
1455 26-09-2011 03:08:01 10.9 C 8.75 g/m*3 10.9 C 0 km/h
1456 26-09-2011 03:20:02 11.4 C 9.03 g/m*3 11.4 C 0 km/h
1457 26-09-2011 03:32:01 11 C 8.91 g/m*3 11 C 0 km/h
1458 26-09-2011 03:44:01 10.8 C 8.8 g/m*3 10.8 C 0 km/h
1459 26-09-2011 03:56:01 10.4 C 8.58 g/m*3 10.4 C 0 km/h
1460 26-09-2011 04:08:01 10.3 C 8.43 g/m*3 10.3 C 0 km/h
1461 26-09-2011 04:20:01 10.5 C 8.63 g/m*3 10.5 C 0 km/h
1462 26-09-2011 04:32:02 10.4 C 8.58 g/m*3 10.4 C 0 km/h
1463 26-09-2011 04:44:02 10.2 C 8.47 g/m*3 10.2 C 0 km/h
1464 26-09-2011 04:56:01 10.2 C 8.47 g/m*3 10.2 C 0 km/h
1465 26-09-2011 05:08:02 10.3 C 8.52 g/m*3 10.3 C 0 km/h
1466 26-09-2011 05:20:01 10.1 C 8.42 g/m*3 10.1 C 0 km/h
1467 26-09-2011 05:32:01 10.1 C 8.32 g/m*3 10.1 C 0 km/h
1468 26-09-2011 05:44:01 10.1 C 8.42 g/m*3 10.1 C 0 km/h
1469 26-09-2011 05:56:01 10 C 8.36 g/m*3 10 C 0 km/h
1470 26-09-2011 06:08:01 10.1 C 8.42 g/m*3 10.1 C 0 km/h
1471 26-09-2011 06:20:02 9.8 C 8.35 g/m*3 9.8 C 0 km/h
1472 26-09-2011 06:32:01 10.1 C 8.42 g/m*3 10.1 C 0 km/h
1473 26-09-2011 06:44:01 9.9 C 8.4 g/m*3 9.9 C 0 km/h
1474 26-09-2011 06:56:01 9.9 C 8.4 g/m*3 9.9 C 0 km/h
1475 26-09-2011 07:08:01 9.9 C 8.5 g/m*3 9.9 C 0 km/h
Sensor: Nr:Datum:Temp:Abs-Feuchte:Windchill:Wind:
Aussen-T/F 1476 26-09-2011 07:20:02 9.6 C 8.24 g/m*3 9.6 C 0 km/h
1477 26-09-2011 07:32:01 9.5 C 8.19 g/m*3 9.5 C 0 km/h
1478 26-09-2011 07:44:01 9.6 C 8.24 g/m*3 9.6 C 0 km/h
1479 26-09-2011 07:56:02 9.6 C 8.24 g/m*3 9.6 C 0 km/h
1480 26-09-2011 08:08:01 9.7 C 8.3 g/m*3 9.7 C 0 km/h
1481 26-09-2011 08:20:01 10 C 8.36 g/m*3 10 C 0 km/h
1482 26-09-2011 08:32:02 10.5 C 8.63 g/m*3 10.5 C 0 km/h
1483 26-09-2011 08:44:02 10.5 C 8.63 g/m*3 10.5 C 0 km/h
1484 26-09-2011 08:56:01 10.6 C 8.78 g/m*3 10.6 C 0 km/h
1485 26-09-2011 09:08:02 10.8 C 8.9 g/m*3 10.8 C 0 km/h
1486 26-09-2011 09:20:01 11 C 8.91 g/m*3 11 C 0 km/h
1487 26-09-2011 09:32:02 11.2 C 9.02 g/m*3 11.2 C 0 km/h
1488 26-09-2011 09:44:02 11.8 C 9.37 g/m*3 11.8 C 0 km/h
1489 26-09-2011 09:56:01 12.1 C 9.54 g/m*3 12.1 C 0 km/h
1490 26-09-2011 10:08:02 12.5 C 9.78 g/m*3 12.5 C 0 km/h
1491 26-09-2011 10:20:01 12.7 C 9.91 g/m*3 12.7 C 0 km/h
1492 26-09-2011 10:32:01 13.4 C 10.35 g/m*3 13.4 C 0 km/h
1493 26-09-2011 10:44:01 13.7 C 10.54 g/m*3 13.7 C 0 km/h
1494 26-09-2011 10:56:01 14.2 C 10.75 g/m*3 14.2 C 0 km/h
1495 26-09-2011 11:08:01 14.4 C 10.88 g/m*3 14.4 C 0 km/h
1496 26-09-2011 11:20:02 14.7 C 11.08 g/m*3 14.7 C 0 km/h
1497 26-09-2011 11:32:01 15 C 11.28 g/m*3 15 C 0 km/h
1498 26-09-2011 11:44:01 15.4 C 11.56 g/m*3 15.4 C 0 km/h
1499 26-09-2011 11:56:02 15.8 C 11.85 g/m*3 15.8 C 0 km/h
1500 26-09-2011 12:08:01 16.1 C 11.93 g/m*3 16.1 C 0 km/h
Sensor: Nr:Datum:Temp:Abs-Feuchte:Windchill:Wind:
Aussen-T/F 1501 26-09-2011 12:20:02 16.7 C 12.36 g/m*3 16.7 C 0 km/h
1502 26-09-2011 12:32:01 17 C 12.3 g/m*3 17 C 0 km/h
1503 26-09-2011 12:44:01 17.8 C 12.75 g/m*3 17.8 C 0 km/h
1504 26-09-2011 12:56:02 18.6 C 12.89 g/m*3 18.6 C 0 km/h
1505 26-09-2011 13:08:01 19.1 C 12.95 g/m*3 19.1 C 0 km/h
1506 26-09-2011 13:20:01 19.8 C 13.15 g/m*3 19.8 C 0 km/h
1507 26-09-2011 13:32:02 20.6 C 13.07 g/m*3 20.6 C 0 km/h
1508 26-09-2011 13:44:02 21.5 C 13.2 g/m*3 21.5 C 0 km/h
1509 26-09-2011 13:56:01 22.1 C 12.69 g/m*3 22.1 C 0 km/h
1510 26-09-2011 14:08:02 23.1 C 12.82 g/m*3 23.1 C 0 km/h
1511 26-09-2011 14:20:01 24.1 C 10.94 g/m*3 24.1 C 0 km/h
1512 26-09-2011 14:32:01 25.2 C 9.08 g/m*3 25.2 C 0 km/h
1513 26-09-2011 14:44:01 24.9 C 9.84 g/m*3 24.9 C 0 km/h
1514 26-09-2011 14:56:01 25.4 C 9.18 g/m*3 25.4 C 0 km/h
1515 26-09-2011 15:08:01 25.5 C 8.76 g/m*3 25.5 C 0 km/h
1516 26-09-2011 15:20:01 25.9 C 9.68 g/m*3 25.9 C 0 km/h
1517 26-09-2011 15:32:01 26.3 C 9.9 g/m*3 26.3 C 0 km/h
1518 26-09-2011 15:44:01 26.1 C 9.06 g/m*3 26.1 C 0 km/h
1519 26-09-2011 15:56:01 25.6 C 9.52 g/m*3 25.6 C 0 km/h
1520 26-09-2011 16:08:01 25.2 C 9.54 g/m*3 25.2 C 0 km/h
1521 26-09-2011 16:20:01 24.7 C 9.73 g/m*3 24.7 C 0 km/h
1522 26-09-2011 16:32:02 24.8 C 9.56 g/m*3 24.8 C 0 km/h
1523 26-09-2011 16:44:02 24.7 C 8.83 g/m*3 24.7 C 0 km/h
1524 26-09-2011 16:56:01 23.9 C 9.3 g/m*3 23.9 C 0 km/h
1525 26-09-2011 17:08:02 23.5 C 9.73 g/m*3 23.5 C 0 km/h
Sensor: Nr:Datum:Temp:Abs-Feuchte:Windchill:Wind:
Aussen-T/F 1526 26-09-2011 17:20:01 23.2 C 9.98 g/m*3 23.2 C 0 km/h
1527 26-09-2011 17:32:01 22.7 C 10.51 g/m*3 22.7 C 0 km/h
1528 26-09-2011 17:44:01 22.6 C 10.25 g/m*3 22.6 C 0 km/h
1529 26-09-2011 17:56:01 22.6 C 10.45 g/m*3 22.6 C 0 km/h
1530 26-09-2011 18:08:01 22.2 C 10.41 g/m*3 22.2 C 0 km/h
1531 26-09-2011 18:20:01 21.7 C 10.68 g/m*3 21.7 C 0 km/h
1532 26-09-2011 18:32:01 21.8 C 10.36 g/m*3 21.8 C 0 km/h
1533 26-09-2011 18:44:01 21.2 C 10.38 g/m*3 21.2 C 0 km/h
1534 26-09-2011 18:56:01 21.3 C 10.44 g/m*3 21.3 C 0 km/h
1535 26-09-2011 19:08:01 20.4 C 10.26 g/m*3 20.4 C 0 km/h
1536 26-09-2011 19:20:02 19.8 C 10.59 g/m*3 19.8 C 0 km/h
1537 26-09-2011 19:32:01 19.5 C 10.57 g/m*3 19.5 C 0 km/h
1538 26-09-2011 19:44:01 19.3 C 10.62 g/m*3 19.3 C 0 km/h
1539 26-09-2011 19:56:02 19.1 C 10.66 g/m*3 19.1 C 0 km/h
1540 26-09-2011 20:08:01 18.7 C 10.73 g/m*3 18.7 C 0 km/h
1541 26-09-2011 20:20:01 18.2 C 10.88 g/m*3 18.2 C 0 km/h
1542 26-09-2011 20:32:02 18.1 C 10.97 g/m*3 18.1 C 0 km/h
1543 26-09-2011 20:44:02 17.5 C 10.73 g/m*3 17.5 C 0 km/h
1544 26-09-2011 20:56:01 16.8 C 10.72 g/m*3 16.8 C 0 km/h
1545 26-09-2011 21:08:01 16.6 C 11.02 g/m*3 16.6 C 0 km/h
1546 26-09-2011 21:20:01 16.5 C 11.09 g/m*3 16.5 C 0 km/h
1547 26-09-2011 21:32:02 16.4 C 11.17 g/m*3 16.4 C 0 km/h
1548 26-09-2011 21:44:02 16.4 C 10.89 g/m*3 16.4 C 0 km/h
1549 26-09-2011 21:56:01 17 C 11.14 g/m*3 17 C 0 km/h
1550 26-09-2011 22:08:01 17.1 C 11.06 g/m*3 17.1 C 0 km/h
Sensor: Nr:Datum:Temp:Abs-Feuchte:Windchill:Wind:
Aussen-T/F 1551 26-09-2011 22:21:10 16 C 10.35 g/m*3 16 C 0 km/h
1552 26-09-2011 22:33:10 15.3 C 10.32 g/m*3 15.3 C 0 km/h
1553 26-09-2011 22:45:10 15.3 C 10.71 g/m*3 15.3 C 0 km/h
1554 26-09-2011 22:57:11 15.5 C 10.97 g/m*3 15.5 C 0 km/h
1555 26-09-2011 23:09:11 15 C 10.64 g/m*3 15 C 0 km/h
1556 26-09-2011 23:21:11 14.7 C 10.58 g/m*3 14.7 C 0 km/h
1557 26-09-2011 23:33:11 14.6 C 10.51 g/m*3 14.6 C 0 km/h
1558 26-09-2011 23:45:11 14.5 C 10.57 g/m*3 14.5 C 0 km/h
1559 26-09-2011 23:57:11 14.4 C 10.51 g/m*3 14.4 C 0 km/h
1560 27-09-2011 00:09:11 14.3 C 10.44 g/m*3 14.3 C 0 km/h
1561 27-09-2011 00:21:11 14.2 C 10.38 g/m*3 14.2 C 0 km/h
1562 27-09-2011 00:33:11 14.2 C 10.5 g/m*3 14.2 C 0 km/h
1563 27-09-2011 00:45:11 14.3 C 10.57 g/m*3 14.3 C 0 km/h
1564 27-09-2011 00:57:11 14 C 10.37 g/m*3 14 C 0 km/h
1565 27-09-2011 01:09:11 14.3 C 10.69 g/m*3 14.3 C 0 km/h
1566 27-09-2011 01:21:11 14.5 C 10.82 g/m*3 14.5 C 0 km/h
1567 27-09-2011 01:33:11 14.1 C 10.56 g/m*3 14.1 C 0 km/h
1568 27-09-2011 01:45:11 13.8 C 10.37 g/m*3 13.8 C 0 km/h
1569 27-09-2011 01:57:11 14.3 C 10.69 g/m*3 14.3 C 0 km/h
1570 27-09-2011 02:09:11 13.9 C 10.55 g/m*3 13.9 C 0 km/h
1571 27-09-2011 02:21:11 13.6 C 10.36 g/m*3 13.6 C 0 km/h
1572 27-09-2011 02:33:11 13.3 C 10.17 g/m*3 13.3 C 0 km/h
1573 27-09-2011 02:45:11 13.2 C 10.1 g/m*3 13.2 C 0 km/h
1574 27-09-2011 02:57:11 13.4 C 10.23 g/m*3 13.4 C 0 km/h
1575 27-09-2011 03:09:12 13.2 C 10.1 g/m*3 13.2 C 0 km/h
Sensor: Nr:Datum:Temp:Abs-Feuchte:Windchill:Wind:
Aussen-T/F 1576 27-09-2011 03:21:12 13.3 C 10.17 g/m*3 13.3 C 0 km/h
1577 27-09-2011 03:33:12 13.5 C 10.41 g/m*3 13.5 C 0 km/h
1578 27-09-2011 03:45:12 13.3 C 10.17 g/m*3 13.3 C 0 km/h
1579 27-09-2011 03:57:12 13.2 C 10.1 g/m*3 13.2 C 0 km/h
1580 27-09-2011 04:09:12 13.2 C 10.1 g/m*3 13.2 C 0 km/h
1581 27-09-2011 04:21:12 13.1 C 10.04 g/m*3 13.1 C 0 km/h
1582 27-09-2011 04:33:12 12.9 C 10.03 g/m*3 12.9 C 0 km/h
1583 27-09-2011 04:45:12 12.7 C 9.91 g/m*3 12.7 C 0 km/h
1584 27-09-2011 04:57:12 12.5 C 9.78 g/m*3 12.5 C 0 km/h
1585 27-09-2011 05:09:12 12.4 C 9.72 g/m*3 12.4 C 0 km/h
1586 27-09-2011 05:21:12 12.4 C 9.72 g/m*3 12.4 C 0 km/h
1587 27-09-2011 05:33:12 12.3 C 9.66 g/m*3 12.3 C 0 km/h
1588 27-09-2011 05:45:12 12.7 C 9.91 g/m*3 12.7 C 0 km/h
1589 27-09-2011 05:57:12 12.9 C 10.03 g/m*3 12.9 C 0 km/h
1590 27-09-2011 06:09:12 13.1 C 10.16 g/m*3 13.1 C 0 km/h
1591 27-09-2011 06:21:12 13.3 C 10.28 g/m*3 13.3 C 0 km/h
1592 27-09-2011 06:33:12 13.1 C 10.16 g/m*3 13.1 C 0 km/h
1593 27-09-2011 06:45:12 13 C 10.09 g/m*3 13 C 0 km/h
1594 27-09-2011 06:57:12 13 C 10.09 g/m*3 13 C 0 km/h
1595 27-09-2011 07:09:13 12.6 C 9.96 g/m*3 12.6 C 0 km/h
1596 27-09-2011 07:21:13 12.8 C 10.08 g/m*3 12.8 C 0 km/h
1597 27-09-2011 07:33:11 12.8 C 10.08 g/m*3 12.8 C 0 km/h
1598 27-09-2011 07:45:02 12.6 C 9.96 g/m*3 12.6 C 0 km/h
1599 27-09-2011 07:57:02 12.9 C 10.14 g/m*3 12.9 C 0 km/h
1600 27-09-2011 08:09:03 12.7 C 10.02 g/m*3 12.7 C 0 km/h
Sensor: Nr:Datum:Temp:Abs-Feuchte:Windchill:Wind:
Aussen-T/F 1601 27-09-2011 08:21:02 12.8 C 10.08 g/m*3 12.8 C 0 km/h
1602 27-09-2011 08:33:03 12.7 C 10.02 g/m*3 12.7 C 0 km/h
1603 27-09-2011 08:45:02 12.8 C 10.08 g/m*3 12.8 C 0 km/h
1604 27-09-2011 08:57:02 13.2 C 10.22 g/m*3 13.2 C 0 km/h
1605 27-09-2011 09:09:02 13.3 C 10.28 g/m*3 13.3 C 0 km/h
1606 27-09-2011 09:21:03 13.4 C 10.35 g/m*3 13.4 C 0 km/h
1607 27-09-2011 09:33:02 13.5 C 10.41 g/m*3 13.5 C 0 km/h
1608 27-09-2011 09:45:03 13.6 C 10.47 g/m*3 13.6 C 0 km/h
1609 27-09-2011 09:57:03 13.8 C 10.6 g/m*3 13.8 C 0 km/h
1610 27-09-2011 10:09:02 14.1 C 10.8 g/m*3 14.1 C 0 km/h
1611 27-09-2011 10:21:03 14.8 C 11.27 g/m*3 14.8 C 0 km/h
1612 27-09-2011 10:33:02 15.8 C 11.98 g/m*3 15.8 C 0 km/h
1613 27-09-2011 10:45:02 16.1 C 11.93 g/m*3 16.1 C 0 km/h
1614 27-09-2011 10:57:02 16.8 C 12.3 g/m*3 16.8 C 0 km/h
1615 27-09-2011 11:09:02 16.8 C 11.87 g/m*3 16.8 C 0 km/h
1616 27-09-2011 11:21:02 17 C 11.87 g/m*3 17 C 0 km/h
1617 27-09-2011 11:33:02 16.9 C 11.79 g/m*3 16.9 C 0 km/h
1618 27-09-2011 11:45:01 17 C 11.87 g/m*3 17 C 0 km/h
1619 27-09-2011 11:57:01 17.2 C 12.01 g/m*3 17.2 C 0 km/h
1620 27-09-2011 12:09:02 17.4 C 11.71 g/m*3 17.4 C 0 km/h
1621 27-09-2011 12:21:01 18.2 C 11.97 g/m*3 18.2 C 0 km/h
1622 27-09-2011 12:33:02 18.3 C 12.04 g/m*3 18.3 C 0 km/h
1623 27-09-2011 12:45:01 18.5 C 12.18 g/m*3 18.5 C 0 km/h
1624 27-09-2011 12:57:01 18.9 C 11.5 g/m*3 18.9 C 0 km/h
1625 27-09-2011 13:09:02 19.7 C 11.72 g/m*3 19.7 C 0 km/h
Sensor: Nr:Datum:Temp:Abs-Feuchte:Windchill:Wind:
Aussen-T/F 1626 27-09-2011 13:21:01 20.2 C 11.89 g/m*3 20.2 C 0 km/h
1627 27-09-2011 13:33:02 21.1 C 11.06 g/m*3 21.1 C 0 km/h
1628 27-09-2011 13:45:01 22.4 C 10.92 g/m*3 22.4 C 0 km/h
1629 27-09-2011 13:57:01 21.8 C 10.94 g/m*3 21.8 C 0 km/h
1630 27-09-2011 14:09:02 22.2 C 10.41 g/m*3 22.2 C 0 km/h
1631 27-09-2011 14:21:02 21.9 C 10.42 g/m*3 21.9 C 0 km/h
1632 27-09-2011 14:33:01 22.2 C 10.01 g/m*3 22.2 C 0 km/h
1633 27-09-2011 14:45:02 22.9 C 8.99 g/m*3 22.9 C 0 km/h
1634 27-09-2011 14:57:02 22.5 C 9.79 g/m*3 22.5 C 0 km/h
1635 27-09-2011 15:09:01 23.2 C 9.15 g/m*3 23.2 C 0 km/h
1636 27-09-2011 15:21:01 23 C 9.25 g/m*3 23 C 0 km/h
1637 27-09-2011 15:33:01 23.4 C 8.62 g/m*3 23.4 C 0 km/h
1638 27-09-2011 15:45:02 24.1 C 8.75 g/m*3 24.1 C 0 km/h
1639 27-09-2011 15:57:02 23.9 C 8.87 g/m*3 23.9 C 0 km/h
1640 27-09-2011 16:09:01 24.1 C 9.19 g/m*3 24.1 C 0 km/h
1641 27-09-2011 16:21:02 27.3 C 8.63 g/m*3 27.3 C 0 km/h
1642 27-09-2011 16:33:02 29.5 C 8.56 g/m*3 29.5 C 0 km/h
1643 27-09-2011 16:45:02 30.3 C 9.55 g/m*3 30.3 C 0 km/h
1644 27-09-2011 16:57:02 30 C 9.4 g/m*3 30 C 0 km/h
1645 27-09-2011 17:09:02 28.9 C 8.86 g/m*3 28.9 C 0 km/h
1646 27-09-2011 17:21:02 28 C 9.52 g/m*3 28 C 0 km/h
1647 27-09-2011 17:33:02 26.1 C 8.81 g/m*3 26.1 C 0 km/h
1648 27-09-2011 17:45:02 26.9 C 9.73 g/m*3 26.9 C 0 km/h
1649 27-09-2011 17:57:02 26.1 C 10.04 g/m*3 26.1 C 0 km/h
1650 27-09-2011 18:09:02 23.1 C 10.34 g/m*3 23.1 C 0 km/h
Sensor: Nr:Datum:Temp:Abs-Feuchte:Windchill:Wind:
Aussen-T/F 1651 27-09-2011 18:21:02 23.2 C 11.02 g/m*3 23.2 C 0 km/h
1652 27-09-2011 18:33:02 22.4 C 10.72 g/m*3 22.4 C 0 km/h
1653 27-09-2011 18:45:01 21.2 C 10.56 g/m*3 21.2 C 0 km/h
1654 27-09-2011 18:57:01 20.4 C 10.61 g/m*3 20.4 C 0 km/h
1655 27-09-2011 19:09:01 19.4 C 10.84 g/m*3 19.4 C 0 km/h
1656 27-09-2011 19:21:02 19 C 10.92 g/m*3 19 C 0 km/h
1657 27-09-2011 19:33:01 18.6 C 10.98 g/m*3 18.6 C 0 km/h
1658 27-09-2011 19:45:02 18.4 C 10.85 g/m*3 18.4 C 0 km/h
1659 27-09-2011 19:57:02 18.1 C 10.97 g/m*3 18.1 C 0 km/h
1660 27-09-2011 20:09:02 17.8 C 11.08 g/m*3 17.8 C 0 km/h
1661 27-09-2011 20:21:02 17.7 C 11.16 g/m*3 17.7 C 0 km/h
1662 27-09-2011 20:33:02 17.6 C 11.1 g/m*3 17.6 C 0 km/h
1663 27-09-2011 20:45:02 17.2 C 10.84 g/m*3 17.2 C 0 km/h
1664 27-09-2011 20:57:02 17.2 C 11.13 g/m*3 17.2 C 0 km/h
1665 27-09-2011 21:09:02 17.1 C 11.06 g/m*3 17.1 C 0 km/h
1666 27-09-2011 21:21:01 16.9 C 11.22 g/m*3 16.9 C 0 km/h
1667 27-09-2011 21:34:01 16.8 C 11.15 g/m*3 16.8 C 0 km/h
1668 27-09-2011 21:46:01 16.7 C 11.23 g/m*3 16.7 C 0 km/h
1669 27-09-2011 21:58:01 16.6 C 11.3 g/m*3 16.6 C 0 km/h
1670 27-09-2011 22:10:01 16.4 C 11.17 g/m*3 16.4 C 0 km/h
1671 27-09-2011 22:22:01 16 C 11.04 g/m*3 16 C 0 km/h
1672 27-09-2011 22:34:01 15.6 C 10.91 g/m*3 15.6 C 0 km/h
1673 27-09-2011 22:46:01 15.9 C 11.24 g/m*3 15.9 C 0 km/h
1674 27-09-2011 22:58:01 15.5 C 10.97 g/m*3 15.5 C 0 km/h
1675 27-09-2011 23:10:01 15.5 C 11.1 g/m*3 15.5 C 0 km/h
Sensor: Nr:Datum:Temp:Abs-Feuchte:Windchill:Wind:
Aussen-T/F 1676 27-09-2011 23:22:01 14.9 C 10.83 g/m*3 14.9 C 0 km/h
1677 27-09-2011 23:34:01 14.6 C 10.64 g/m*3 14.6 C 0 km/h
1678 27-09-2011 23:46:02 14.6 C 10.76 g/m*3 14.6 C 0 km/h
1679 27-09-2011 23:58:02 14.4 C 10.63 g/m*3 14.4 C 0 km/h
1680 28-09-2011 00:10:02 14.1 C 10.44 g/m*3 14.1 C 0 km/h
1681 28-09-2011 00:22:02 14 C 10.37 g/m*3 14 C 0 km/h
1682 28-09-2011 00:34:02 14.2 C 10.5 g/m*3 14.2 C 0 km/h
1683 28-09-2011 00:46:02 13.8 C 10.37 g/m*3 13.8 C 0 km/h
1684 28-09-2011 00:58:02 13.7 C 10.3 g/m*3 13.7 C 0 km/h
1685 28-09-2011 01:10:02 13.5 C 10.18 g/m*3 13.5 C 0 km/h
1686 28-09-2011 01:22:02 13.2 C 9.99 g/m*3 13.2 C 0 km/h
1687 28-09-2011 01:34:02 13.4 C 10.23 g/m*3 13.4 C 0 km/h
1688 28-09-2011 01:46:02 12.7 C 9.8 g/m*3 12.7 C 0 km/h
1689 28-09-2011 01:58:02 12.9 C 9.92 g/m*3 12.9 C 0 km/h
1690 28-09-2011 02:10:02 12.8 C 9.86 g/m*3 12.8 C 0 km/h
1691 28-09-2011 02:22:02 13.1 C 9.93 g/m*3 13.1 C 0 km/h
1692 28-09-2011 02:34:02 12.8 C 9.86 g/m*3 12.8 C 0 km/h
1693 28-09-2011 02:46:02 12.8 C 9.97 g/m*3 12.8 C 0 km/h
1694 28-09-2011 02:58:02 12.8 C 9.97 g/m*3 12.8 C 0 km/h
1695 28-09-2011 03:10:02 12.4 C 9.72 g/m*3 12.4 C 0 km/h
1696 28-09-2011 03:22:02 12.6 C 9.74 g/m*3 12.6 C 0 km/h
1697 28-09-2011 03:34:02 12.4 C 9.62 g/m*3 12.4 C 0 km/h
1698 28-09-2011 03:46:02 12.3 C 9.56 g/m*3 12.3 C 0 km/h
1699 28-09-2011 03:58:03 12.4 C 9.72 g/m*3 12.4 C 0 km/h
1700 28-09-2011 04:10:03 12.1 C 9.44 g/m*3 12.1 C 0 km/h
Sensor: Nr:Datum:Temp:Abs-Feuchte:Windchill:Wind:
Aussen-T/F 1701 28-09-2011 04:22:03 11.8 C 9.37 g/m*3 11.8 C 0 km/h
1702 28-09-2011 04:34:03 11.8 C 9.37 g/m*3 11.8 C 0 km/h
1703 28-09-2011 04:46:03 11.9 C 9.43 g/m*3 11.9 C 0 km/h
1704 28-09-2011 04:58:03 11.8 C 9.37 g/m*3 11.8 C 0 km/h
1705 28-09-2011 05:10:03 11.5 C 9.19 g/m*3 11.5 C 0 km/h
1706 28-09-2011 05:22:03 11.7 C 9.31 g/m*3 11.7 C 0 km/h
1707 28-09-2011 05:34:03 11.5 C 9.19 g/m*3 11.5 C 0 km/h
1708 28-09-2011 05:46:03 11.3 C 9.08 g/m*3 11.3 C 0 km/h
1709 28-09-2011 05:58:03 11.2 C 9.02 g/m*3 11.2 C 0 km/h
1710 28-09-2011 06:10:03 10.9 C 8.85 g/m*3 10.9 C 0 km/h
1711 28-09-2011 06:22:03 11.2 C 9.02 g/m*3 11.2 C 0 km/h
1712 28-09-2011 06:34:03 11.7 C 9.31 g/m*3 11.7 C 0 km/h
1713 28-09-2011 06:46:03 12.2 C 9.6 g/m*3 12.2 C 0 km/h
1714 28-09-2011 06:58:03 12.6 C 9.85 g/m*3 12.6 C 0 km/h
1715 28-09-2011 07:10:02 12.8 C 10.08 g/m*3 12.8 C 0 km/h
1716 28-09-2011 07:22:01 13 C 10.09 g/m*3 13 C 0 km/h
1717 28-09-2011 07:34:02 13.1 C 10.16 g/m*3 13.1 C 0 km/h
1718 28-09-2011 07:46:02 13.1 C 10.16 g/m*3 13.1 C 0 km/h
1719 28-09-2011 07:58:02 13.2 C 10.22 g/m*3 13.2 C 0 km/h
1720 28-09-2011 08:10:02 13.3 C 10.28 g/m*3 13.3 C 0 km/h
1721 28-09-2011 08:22:01 13.3 C 10.4 g/m*3 13.3 C 0 km/h
1722 28-09-2011 08:34:02 13.4 C 10.46 g/m*3 13.4 C 0 km/h
1723 28-09-2011 08:46:02 13.4 C 10.46 g/m*3 13.4 C 0 km/h
1724 28-09-2011 08:58:02 13.5 C 10.53 g/m*3 13.5 C 0 km/h
1725 28-09-2011 09:10:02 13.5 C 10.53 g/m*3 13.5 C 0 km/h
Sensor: Nr:Datum:Temp:Abs-Feuchte:Windchill:Wind:
Aussen-T/F 1726 28-09-2011 09:22:02 13.5 C 10.53 g/m*3 13.5 C 0 km/h
1727 28-09-2011 09:34:02 14 C 10.74 g/m*3 14 C 0 km/h
1728 28-09-2011 09:46:02 14.4 C 11 g/m*3 14.4 C 0 km/h
1729 28-09-2011 09:58:02 14.4 C 11 g/m*3 14.4 C 0 km/h
1730 28-09-2011 10:10:02 14.7 C 11.21 g/m*3 14.7 C 0 km/h
1731 28-09-2011 10:22:02 15 C 11.28 g/m*3 15 C 0 km/h
1732 28-09-2011 10:34:01 14.9 C 11.34 g/m*3 14.9 C 0 km/h
1733 28-09-2011 10:46:02 15.2 C 11.29 g/m*3 15.2 C 0 km/h
1734 28-09-2011 10:58:03 15.4 C 11.43 g/m*3 15.4 C 0 km/h
1735 28-09-2011 11:10:01 15.2 C 11.16 g/m*3 15.2 C 0 km/h
1736 28-09-2011 11:22:01 15.2 C 11.16 g/m*3 15.2 C 0 km/h
1737 28-09-2011 11:34:02 15.5 C 11.37 g/m*3 15.5 C 0 km/h
1738 28-09-2011 11:46:02 16 C 11.72 g/m*3 16 C 0 km/h
1739 28-09-2011 11:58:02 16.4 C 12 g/m*3 16.4 C 0 km/h
1740 28-09-2011 12:10:02 16.8 C 12.15 g/m*3 16.8 C 0 km/h
1741 28-09-2011 12:22:02 17.6 C 12 g/m*3 17.6 C 0 km/h
1742 28-09-2011 12:34:02 17.9 C 11.91 g/m*3 17.9 C 0 km/h
1743 28-09-2011 12:46:02 18.2 C 11.97 g/m*3 18.2 C 0 km/h
1744 28-09-2011 12:58:02 18.6 C 11.78 g/m*3 18.6 C 0 km/h
1745 28-09-2011 13:10:02 19.2 C 11.54 g/m*3 19.2 C 0 km/h
1746 28-09-2011 13:22:01 19.5 C 11.58 g/m*3 19.5 C 0 km/h
1747 28-09-2011 13:34:02 20.3 C 11.78 g/m*3 20.3 C 0 km/h
1748 28-09-2011 13:46:01 20.9 C 11.29 g/m*3 20.9 C 0 km/h
1749 28-09-2011 13:58:01 21 C 11.17 g/m*3 21 C 0 km/h
1750 28-09-2011 14:10:02 21.6 C 11 g/m*3 21.6 C 0 km/h
Sensor: Nr:Datum:Temp:Abs-Feuchte:Windchill:Wind:
Aussen-T/F 1751 28-09-2011 14:22:02 21.6 C 11.19 g/m*3 21.6 C 0 km/h
1752 28-09-2011 14:34:02 22 C 10.87 g/m*3 22 C 0 km/h
1753 28-09-2011 14:46:02 22.5 C 10.59 g/m*3 22.5 C 0 km/h
1754 28-09-2011 14:58:02 22.8 C 10.97 g/m*3 22.8 C 0 km/h
1755 28-09-2011 15:10:01 23.2 C 10.6 g/m*3 23.2 C 0 km/h
1756 28-09-2011 15:22:02 23.4 C 10.51 g/m*3 23.4 C 0 km/h
1757 28-09-2011 15:34:02 23.5 C 10.57 g/m*3 23.5 C 0 km/h
1758 28-09-2011 15:46:02 22.4 C 11.72 g/m*3 22.4 C 0 km/h
1759 28-09-2011 15:58:02 22.1 C 11.52 g/m*3 22.1 C 0 km/h
1760 28-09-2011 16:10:02 22.9 C 12.06 g/m*3 22.9 C 0 km/h
1761 28-09-2011 16:22:02 25.4 C 11.06 g/m*3 25.4 C 0 km/h
1762 28-09-2011 16:34:02 26.5 C 10.51 g/m*3 26.5 C 0 km/h
1763 28-09-2011 16:46:01 26.1 C 11.02 g/m*3 26.1 C 0 km/h
1764 28-09-2011 16:58:01 27.3 C 9.68 g/m*3 27.3 C 0 km/h
1765 28-09-2011 17:10:02 28.7 C 11.3 g/m*3 28.7 C 0 km/h
1766 28-09-2011 17:22:01 28.3 C 10.78 g/m*3 28.3 C 0 km/h
1767 28-09-2011 17:34:02 27.7 C 10.7 g/m*3 27.7 C 0 km/h
1768 28-09-2011 17:46:01 27.1 C 10.87 g/m*3 27.1 C 0 km/h
1769 28-09-2011 17:58:01 26.2 C 10.34 g/m*3 26.2 C 0 km/h
1770 28-09-2011 18:10:02 25.7 C 10.53 g/m*3 25.7 C 0 km/h
1771 28-09-2011 18:22:02 24.6 C 10.8 g/m*3 24.6 C 0 km/h
1772 28-09-2011 18:34:01 23.5 C 11 g/m*3 23.5 C 0 km/h
1773 28-09-2011 18:46:02 22.6 C 11.05 g/m*3 22.6 C 0 km/h
1774 28-09-2011 18:58:02 21.3 C 11 g/m*3 21.3 C 0 km/h
1775 28-09-2011 19:10:01 19.3 C 11.28 g/m*3 19.3 C 0 km/h
Sensor: Nr:Datum:Temp:Abs-Feuchte:Windchill:Wind:
Aussen-T/F 1776 28-09-2011 19:22:02 18.5 C 11.39 g/m*3 18.5 C 0 km/h
1777 28-09-2011 19:34:01 18.1 C 11.43 g/m*3 18.1 C 0 km/h
1778 28-09-2011 19:46:02 17.7 C 11.62 g/m*3 17.7 C 0 km/h
1779 28-09-2011 19:58:02 17.6 C 11.7 g/m*3 17.6 C 0 km/h
1780 28-09-2011 20:10:01 17.2 C 11.42 g/m*3 17.2 C 0 km/h
1781 28-09-2011 20:22:01 17.1 C 11.5 g/m*3 17.1 C 0 km/h
1782 28-09-2011 20:34:02 17 C 11.58 g/m*3 17 C 0 km/h
1783 28-09-2011 20:46:02 16.8 C 11.58 g/m*3 16.8 C 0 km/h
1784 28-09-2011 20:58:02 16.7 C 11.65 g/m*3 16.7 C 0 km/h
1785 28-09-2011 21:10:02 16.5 C 11.65 g/m*3 16.5 C 0 km/h
1786 28-09-2011 21:22:02 16.4 C 11.58 g/m*3 16.4 C 0 km/h
1787 28-09-2011 21:34:02 16.2 C 11.45 g/m*3 16.2 C 0 km/h
1788 28-09-2011 21:46:02 16.3 C 11.65 g/m*3 16.3 C 0 km/h
1789 28-09-2011 21:58:02 16 C 11.44 g/m*3 16 C 0 km/h
1790 28-09-2011 22:10:02 16.2 C 11.58 g/m*3 16.2 C 0 km/h
1791 28-09-2011 22:22:02 16 C 11.44 g/m*3 16 C 0 km/h
1792 28-09-2011 22:34:02 15.7 C 11.37 g/m*3 15.7 C 0 km/h
1793 28-09-2011 22:46:02 15.7 C 11.51 g/m*3 15.7 C 0 km/h
1794 28-09-2011 22:58:02 15.8 C 11.58 g/m*3 15.8 C 0 km/h
1795 28-09-2011 23:10:02 15.7 C 11.51 g/m*3 15.7 C 0 km/h
1796 28-09-2011 23:22:03 15.6 C 11.44 g/m*3 15.6 C 0 km/h
1797 28-09-2011 23:34:02 15.6 C 11.44 g/m*3 15.6 C 0 km/h
1798 28-09-2011 23:46:01 15.2 C 11.16 g/m*3 15.2 C 0 km/h
1799 28-09-2011 23:58:01 14.8 C 11.02 g/m*3 14.8 C 0 km/h
1800 29-09-2011 00:10:02 14.8 C 11.02 g/m*3 14.8 C 0 km/h
Sensor: Nr:Datum:Temp:Abs-Feuchte:Windchill:Wind:
Aussen-T/F 1801 29-09-2011 00:22:01 14.3 C 10.69 g/m*3 14.3 C 0 km/h
1802 29-09-2011 00:34:01 14.1 C 10.56 g/m*3 14.1 C 0 km/h
1803 29-09-2011 00:46:01 13.9 C 10.55 g/m*3 13.9 C 0 km/h
1804 29-09-2011 00:58:01 13.7 C 10.42 g/m*3 13.7 C 0 km/h
1805 29-09-2011 01:10:02 13.6 C 10.24 g/m*3 13.6 C 0 km/h
1806 29-09-2011 01:22:01 13.4 C 10.23 g/m*3 13.4 C 0 km/h
1807 29-09-2011 01:34:01 13.5 C 10.29 g/m*3 13.5 C 0 km/h
1808 29-09-2011 01:46:01 13.5 C 10.29 g/m*3 13.5 C 0 km/h
1809 29-09-2011 01:58:01 13 C 9.98 g/m*3 13 C 0 km/h
1810 29-09-2011 02:10:01 12.8 C 9.97 g/m*3 12.8 C 0 km/h
1811 29-09-2011 02:22:02 12.7 C 9.91 g/m*3 12.7 C 0 km/h
1812 29-09-2011 02:34:01 12.7 C 9.91 g/m*3 12.7 C 0 km/h
1813 29-09-2011 02:46:02 12.7 C 9.91 g/m*3 12.7 C 0 km/h
1814 29-09-2011 02:58:02 12.5 C 9.78 g/m*3 12.5 C 0 km/h
1815 29-09-2011 03:10:01 12.2 C 9.6 g/m*3 12.2 C 0 km/h
1816 29-09-2011 03:22:01 12.4 C 9.72 g/m*3 12.4 C 0 km/h
1817 29-09-2011 03:34:02 12 C 9.48 g/m*3 12 C 0 km/h
1818 29-09-2011 03:46:02 11.8 C 9.37 g/m*3 11.8 C 0 km/h
1819 29-09-2011 03:58:02 11.6 C 9.25 g/m*3 11.6 C 0 km/h
1820 29-09-2011 04:10:01 11.7 C 9.31 g/m*3 11.7 C 0 km/h
1821 29-09-2011 04:22:02 11.9 C 9.53 g/m*3 11.9 C 0 km/h
1822 29-09-2011 04:34:01 12.1 C 9.54 g/m*3 12.1 C 0 km/h
1823 29-09-2011 04:46:02 12.2 C 9.6 g/m*3 12.2 C 0 km/h
1824 29-09-2011 04:58:02 12.2 C 9.6 g/m*3 12.2 C 0 km/h
1825 29-09-2011 05:10:01 12.4 C 9.72 g/m*3 12.4 C 0 km/h
Sensor: Nr:Datum:Temp:Abs-Feuchte:Windchill:Wind:
Aussen-T/F 1826 29-09-2011 05:22:01 12.5 C 9.78 g/m*3 12.5 C 0 km/h
1827 29-09-2011 05:34:02 12.4 C 9.72 g/m*3 12.4 C 0 km/h
1828 29-09-2011 05:46:01 12.5 C 9.89 g/m*3 12.5 C 0 km/h
1829 29-09-2011 05:58:01 12.6 C 9.96 g/m*3 12.6 C 0 km/h
1830 29-09-2011 06:10:02 12.5 C 9.89 g/m*3 12.5 C 0 km/h
1831 29-09-2011 06:22:01 12.3 C 9.77 g/m*3 12.3 C 0 km/h
1832 29-09-2011 06:34:02 12.4 C 9.83 g/m*3 12.4 C 0 km/h
1833 29-09-2011 06:46:01 12.3 C 9.77 g/m*3 12.3 C 0 km/h
1834 29-09-2011 06:58:01 12.4 C 9.83 g/m*3 12.4 C 0 km/h
1835 29-09-2011 07:10:02 12.3 C 9.77 g/m*3 12.3 C 0 km/h
1836 29-09-2011 07:22:01 12.2 C 9.71 g/m*3 12.2 C 0 km/h
1837 29-09-2011 07:34:01 12.2 C 9.71 g/m*3 12.2 C 0 km/h
1838 29-09-2011 07:46:01 12.3 C 9.77 g/m*3 12.3 C 0 km/h
1839 29-09-2011 07:58:01 12.3 C 9.77 g/m*3 12.3 C 0 km/h
1840 29-09-2011 08:10:01 12.5 C 9.89 g/m*3 12.5 C 0 km/h
1841 29-09-2011 08:22:02 12.5 C 9.89 g/m*3 12.5 C 0 km/h
1842 29-09-2011 08:34:01 12.4 C 9.83 g/m*3 12.4 C 0 km/h
1843 29-09-2011 08:46:02 12.6 C 9.96 g/m*3 12.6 C 0 km/h
1844 29-09-2011 08:58:02 12.8 C 10.08 g/m*3 12.8 C 0 km/h
1845 29-09-2011 09:10:01 13 C 10.21 g/m*3 13 C 0 km/h
1846 29-09-2011 09:22:01 13.2 C 10.33 g/m*3 13.2 C 0 km/h
1847 29-09-2011 09:34:01 13.1 C 10.27 g/m*3 13.1 C 0 km/h
1848 29-09-2011 09:46:01 13.2 C 10.33 g/m*3 13.2 C 0 km/h
1849 29-09-2011 09:58:02 13.7 C 10.66 g/m*3 13.7 C 0 km/h
1850 29-09-2011 10:10:01 13.9 C 10.79 g/m*3 13.9 C 0 km/h
Sensor: Nr:Datum:Temp:Abs-Feuchte:Windchill:Wind:
Aussen-T/F 1851 29-09-2011 10:22:01 14.3 C 10.93 g/m*3 14.3 C 0 km/h
1852 29-09-2011 10:34:02 14 C 10.61 g/m*3 14 C 0 km/h
1853 29-09-2011 10:46:01 14 C 10.49 g/m*3 14 C 0 km/h
1854 29-09-2011 10:58:01 14.2 C 10.62 g/m*3 14.2 C 0 km/h
1855 29-09-2011 11:10:02 14.1 C 10.56 g/m*3 14.1 C 0 km/h
1856 29-09-2011 11:22:01 14.4 C 10.88 g/m*3 14.4 C 0 km/h
1857 29-09-2011 11:34:01 15 C 11.16 g/m*3 15 C 0 km/h
1858 29-09-2011 11:46:01 15.5 C 11.63 g/m*3 15.5 C 0 km/h
1859 29-09-2011 11:58:01 15.6 C 11.7 g/m*3 15.6 C 0 km/h
1860 29-09-2011 12:10:01 16.2 C 12 g/m*3 16.2 C 0 km/h
1861 29-09-2011 12:22:02 16.9 C 12.08 g/m*3 16.9 C 0 km/h
1862 29-09-2011 12:34:01 17.6 C 11.55 g/m*3 17.6 C 0 km/h
1863 29-09-2011 12:46:02 18.5 C 11.08 g/m*3 18.5 C 0 km/h
1864 29-09-2011 12:58:02 19.3 C 10.95 g/m*3 19.3 C 0 km/h
1865 29-09-2011 13:10:01 19.6 C 10.8 g/m*3 19.6 C 0 km/h
1866 29-09-2011 13:22:02 20.3 C 10.55 g/m*3 20.3 C 0 km/h
1867 29-09-2011 13:34:01 21.6 C 11 g/m*3 21.6 C 0 km/h
1868 29-09-2011 13:46:02 22 C 10.29 g/m*3 22 C 0 km/h
1869 29-09-2011 13:58:02 22.2 C 9.82 g/m*3 22.2 C 0 km/h
1870 29-09-2011 14:10:01 22.5 C 9.99 g/m*3 22.5 C 0 km/h
1871 29-09-2011 14:22:01 22.5 C 9.79 g/m*3 22.5 C 0 km/h
1872 29-09-2011 14:34:02 22.6 C 9.84 g/m*3 22.6 C 0 km/h
1873 29-09-2011 14:46:01 23 C 10.07 g/m*3 23 C 0 km/h
1874 29-09-2011 14:58:01 23.4 C 10.3 g/m*3 23.4 C 0 km/h
1875 29-09-2011 15:10:02 23.7 C 10.27 g/m*3 23.7 C 0 km/h
Sensor: Nr:Datum:Temp:Abs-Feuchte:Windchill:Wind:
Aussen-T/F 1876 29-09-2011 15:22:01 23.7 C 10.05 g/m*3 23.7 C 0 km/h
1877 29-09-2011 15:34:01 23.4 C 10.3 g/m*3 23.4 C 0 km/h
1878 29-09-2011 15:46:01 22.8 C 9.96 g/m*3 22.8 C 0 km/h
1879 29-09-2011 15:58:01 22.6 C 10.04 g/m*3 22.6 C 0 km/h
1880 29-09-2011 16:10:02 23.1 C 9.72 g/m*3 23.1 C 0 km/h
1881 29-09-2011 16:22:01 25.3 C 10.07 g/m*3 25.3 C 0 km/h
1882 29-09-2011 16:34:01 27.7 C 8.83 g/m*3 27.7 C 0 km/h
1883 29-09-2011 16:46:01 27.5 C 9.79 g/m*3 27.5 C 0 km/h
1884 29-09-2011 16:58:01 28.4 C 9.45 g/m*3 28.4 C 0 km/h
1885 29-09-2011 17:10:01 29 C 9.77 g/m*3 29 C 0 km/h
1886 29-09-2011 17:22:02 28.4 C 9.45 g/m*3 28.4 C 0 km/h
1887 29-09-2011 17:34:01 28.5 C 9.78 g/m*3 28.5 C 0 km/h
1888 29-09-2011 17:46:02 25.2 C 9.54 g/m*3 25.2 C 0 km/h
1889 29-09-2011 17:58:02 23.8 C 10.33 g/m*3 23.8 C 0 km/h
1890 29-09-2011 18:10:01 22.9 C 10.01 g/m*3 22.9 C 0 km/h
1891 29-09-2011 18:22:01 21 C 8.79 g/m*3 21 C 0 km/h
1892 29-09-2011 18:34:02 20.7 C 8.64 g/m*3 20.7 C 0 km/h
1893 29-09-2011 18:46:01 20.6 C 8.95 g/m*3 20.6 C 0 km/h
1894 29-09-2011 18:58:01 19.5 C 8.73 g/m*3 19.5 C 0 km/h
1895 29-09-2011 19:10:01 18.2 C 9.01 g/m*3 18.2 C 0 km/h
1896 29-09-2011 19:22:01 17.6 C 9.15 g/m*3 17.6 C 0 km/h
1897 29-09-2011 19:34:02 17.1 C 9.32 g/m*3 17.1 C 0 km/h
1898 29-09-2011 19:46:01 17 C 9.26 g/m*3 17 C 0 km/h
1899 29-09-2011 19:58:01 17 C 9.41 g/m*3 17 C 0 km/h
1900 29-09-2011 20:10:02 16.8 C 9.58 g/m*3 16.8 C 0 km/h
Sensor: Nr:Datum:Temp:Abs-Feuchte:Windchill:Wind:
Aussen-T/F 1901 29-09-2011 20:22:01 16.2 C 9.52 g/m*3 16.2 C 0 km/h
1902 29-09-2011 20:34:01 16 C 9.67 g/m*3 16 C 0 km/h
1903 29-09-2011 20:46:01 15.7 C 9.9 g/m*3 15.7 C 0 km/h
1904 29-09-2011 20:58:01 15 C 9.62 g/m*3 15 C 0 km/h
1905 29-09-2011 21:10:01 14.4 C 9.39 g/m*3 14.4 C 0 km/h
1906 29-09-2011 21:22:02 14.1 C 9.34 g/m*3 14.1 C 0 km/h
1907 29-09-2011 21:34:01 13.8 C 9.41 g/m*3 13.8 C 0 km/h
1908 29-09-2011 21:46:02 13.6 C 9.53 g/m*3 13.6 C 0 km/h
1909 29-09-2011 21:58:02 13.4 C 9.42 g/m*3 13.4 C 0 km/h
1910 29-09-2011 22:10:01 13.1 C 9.36 g/m*3 13.1 C 0 km/h
1911 29-09-2011 22:23:02 12.8 C 9.3 g/m*3 12.8 C 0 km/h
1912 29-09-2011 22:35:02 12.7 C 9.24 g/m*3 12.7 C 0 km/h
1913 29-09-2011 22:47:02 12.5 C 9.13 g/m*3 12.5 C 0 km/h
1914 29-09-2011 22:59:02 12.4 C 9.07 g/m*3 12.4 C 0 km/h
1915 29-09-2011 23:11:02 12.4 C 9.18 g/m*3 12.4 C 0 km/h
1916 29-09-2011 23:23:02 11.9 C 9 g/m*3 11.9 C 0 km/h
1917 29-09-2011 23:35:02 11.9 C 9 g/m*3 11.9 C 0 km/h
1918 29-09-2011 23:47:02 11.8 C 9.05 g/m*3 11.8 C 0 km/h
1919 29-09-2011 23:59:02 11.5 C 8.78 g/m*3 11.5 C 0 km/h
1920 30-09-2011 00:11:02 11.5 C 8.88 g/m*3 11.5 C 0 km/h
1921 30-09-2011 00:23:02 11.5 C 8.88 g/m*3 11.5 C 0 km/h
1922 30-09-2011 00:35:02 11.2 C 8.72 g/m*3 11.2 C 0 km/h
1923 30-09-2011 00:47:02 11 C 8.61 g/m*3 11 C 0 km/h
1924 30-09-2011 00:59:02 11 C 8.61 g/m*3 11 C 0 km/h
1925 30-09-2011 01:11:03 11.1 C 8.76 g/m*3 11.1 C 0 km/h
Sensor: Nr:Datum:Temp:Abs-Feuchte:Windchill:Wind:
Aussen-T/F 1926 30-09-2011 01:23:03 10.7 C 8.55 g/m*3 10.7 C 0 km/h
1927 30-09-2011 01:35:03 10.6 C 8.49 g/m*3 10.6 C 0 km/h
1928 30-09-2011 01:47:03 10.6 C 8.49 g/m*3 10.6 C 0 km/h
1929 30-09-2011 01:59:03 10.8 C 8.7 g/m*3 10.8 C 0 km/h
1930 30-09-2011 02:11:03 10.3 C 8.43 g/m*3 10.3 C 0 km/h
1931 30-09-2011 02:23:03 10.1 C 8.32 g/m*3 10.1 C 0 km/h
1932 30-09-2011 02:35:03 9.8 C 8.26 g/m*3 9.8 C 0 km/h
1933 30-09-2011 02:47:03 9.9 C 8.31 g/m*3 9.9 C 0 km/h
1934 30-09-2011 02:59:03 9.7 C 8.2 g/m*3 9.7 C 0 km/h
1935 30-09-2011 03:11:03 9.6 C 8.15 g/m*3 9.6 C 0 km/h
1936 30-09-2011 03:23:03 9.5 C 8.1 g/m*3 9.5 C 0 km/h
1937 30-09-2011 03:35:03 9.6 C 8.15 g/m*3 9.6 C 0 km/h
1938 30-09-2011 03:47:03 9.5 C 8.01 g/m*3 9.5 C 0 km/h
1939 30-09-2011 03:59:03 9.5 C 8.1 g/m*3 9.5 C 0 km/h
1940 30-09-2011 04:11:03 9.3 C 8 g/m*3 9.3 C 0 km/h
1941 30-09-2011 04:23:03 9.2 C 7.95 g/m*3 9.2 C 0 km/h
1942 30-09-2011 04:35:03 9.3 C 8 g/m*3 9.3 C 0 km/h
1943 30-09-2011 04:47:03 9.3 C 7.91 g/m*3 9.3 C 0 km/h
1944 30-09-2011 04:59:03 9 C 7.85 g/m*3 9 C 0 km/h
1945 30-09-2011 05:11:03 8.8 C 7.83 g/m*3 8.8 C 0 km/h
1946 30-09-2011 05:23:03 9.3 C 8 g/m*3 9.3 C 0 km/h
1947 30-09-2011 05:35:04 9 C 7.85 g/m*3 9 C 0 km/h
1948 30-09-2011 05:47:04 9.3 C 8.09 g/m*3 9.3 C 0 km/h
1949 30-09-2011 05:59:04 9.2 C 8.04 g/m*3 9.2 C 0 km/h
1950 30-09-2011 06:11:04 8.7 C 7.87 g/m*3 8.7 C 0 km/h
Sensor: Nr:Datum:Temp:Abs-Feuchte:Windchill:Wind:
Aussen-T/F 1951 30-09-2011 06:23:04 8.4 C 7.72 g/m*3 8.4 C 0 km/h
1952 30-09-2011 06:35:04 8.3 C 7.67 g/m*3 8.3 C 0 km/h
1953 30-09-2011 06:47:04 8.6 C 7.82 g/m*3 8.6 C 0 km/h
1954 30-09-2011 06:59:04 8.6 C 7.82 g/m*3 8.6 C 0 km/h
1955 30-09-2011 07:11:02 8.6 C 7.82 g/m*3 8.6 C 0 km/h
1956 30-09-2011 07:23:02 8.9 C 7.97 g/m*3 8.9 C 0 km/h
1957 30-09-2011 07:35:02 9 C 7.93 g/m*3 9 C 0 km/h
1958 30-09-2011 07:47:02 9.3 C 8.18 g/m*3 9.3 C 0 km/h
1959 30-09-2011 07:59:02 9.4 C 8.23 g/m*3 9.4 C 0 km/h
1960 30-09-2011 08:11:02 9.5 C 8.28 g/m*3 9.5 C 0 km/h
1961 30-09-2011 08:23:03 9.5 C 8.28 g/m*3 9.5 C 0 km/h
1962 30-09-2011 08:35:02 9.4 C 8.23 g/m*3 9.4 C 0 km/h
1963 30-09-2011 08:47:02 9.1 C 8.07 g/m*3 9.1 C 0 km/h
1964 30-09-2011 08:59:02 9.4 C 8.23 g/m*3 9.4 C 0 km/h
1965 30-09-2011 09:11:02 9.4 C 8.23 g/m*3 9.4 C 0 km/h
1966 30-09-2011 09:23:02 9.3 C 8.18 g/m*3 9.3 C 0 km/h
1967 30-09-2011 09:35:01 9.8 C 8.44 g/m*3 9.8 C 0 km/h
1968 30-09-2011 09:47:02 10.5 C 8.73 g/m*3 10.5 C 0 km/h
1969 30-09-2011 09:59:02 10.5 C 8.73 g/m*3 10.5 C 0 km/h
1970 30-09-2011 10:11:01 10.2 C 8.56 g/m*3 10.2 C 0 km/h
1971 30-09-2011 10:23:01 10.1 C 8.42 g/m*3 10.1 C 0 km/h
1972 30-09-2011 10:35:02 10.5 C 8.73 g/m*3 10.5 C 0 km/h
1973 30-09-2011 10:47:02 11.1 C 9.07 g/m*3 11.1 C 0 km/h
1974 30-09-2011 10:59:02 11.6 C 9.35 g/m*3 11.6 C 0 km/h
1975 30-09-2011 11:11:02 12.3 C 9.77 g/m*3 12.3 C 0 km/h
Sensor: Nr:Datum:Temp:Abs-Feuchte:Windchill:Wind:
Aussen-T/F 1976 30-09-2011 11:23:02 12.9 C 10.14 g/m*3 12.9 C 0 km/h
1977 30-09-2011 11:35:02 13.5 C 10.41 g/m*3 13.5 C 0 km/h
1978 30-09-2011 11:47:02 14 C 10.74 g/m*3 14 C 0 km/h
1979 30-09-2011 11:59:02 14.8 C 11.27 g/m*3 14.8 C 0 km/h
1980 30-09-2011 12:11:02 15 C 11.41 g/m*3 15 C 0 km/h
1981 30-09-2011 12:23:02 15.5 C 11.63 g/m*3 15.5 C 0 km/h
1982 30-09-2011 12:35:02 16.1 C 11.93 g/m*3 16.1 C 0 km/h
1983 30-09-2011 12:47:02 16.5 C 11.94 g/m*3 16.5 C 0 km/h
1984 30-09-2011 12:59:02 16.9 C 12.08 g/m*3 16.9 C 0 km/h
1985 30-09-2011 13:11:02 17.6 C 12 g/m*3 17.6 C 0 km/h
1986 30-09-2011 13:23:02 18.1 C 11.9 g/m*3 18.1 C 0 km/h
1987 30-09-2011 13:35:02 20.7 C 12.6 g/m*3 20.7 C 0 km/h
1988 30-09-2011 13:47:02 20.9 C 10.56 g/m*3 20.9 C 0 km/h
1989 30-09-2011 13:59:02 20 C 10.89 g/m*3 20 C 0 km/h
1990 30-09-2011 14:11:01 19.9 C 10.31 g/m*3 19.9 C 0 km/h
1991 30-09-2011 14:23:02 20.2 C 9.79 g/m*3 20.2 C 0 km/h
1992 30-09-2011 14:35:02 20.9 C 9.11 g/m*3 20.9 C 0 km/h
1993 30-09-2011 14:47:02 21.9 C 8.68 g/m*3 21.9 C 0 km/h
1994 30-09-2011 14:59:02 21.9 C 8.88 g/m*3 21.9 C 0 km/h
1995 30-09-2011 15:11:03 21.5 C 9.43 g/m*3 21.5 C 0 km/h
1996 30-09-2011 15:23:02 21.3 C 9.32 g/m*3 21.3 C 0 km/h
1997 30-09-2011 15:35:02 21 C 8.98 g/m*3 21 C 0 km/h
1998 30-09-2011 15:47:01 21.9 C 8.88 g/m*3 21.9 C 0 km/h
1999 30-09-2011 15:59:01 22 C 8.73 g/m*3 22 C 0 km/h
2000 30-09-2011 16:11:02 23.1 C 8.27 g/m*3 23.1 C 0 km/h
Sensor: Nr:Datum:Temp:Abs-Feuchte:Windchill:Wind:
Aussen-T/F 2001 30-09-2011 16:23:01 26.2 C 9.35 g/m*3 26.2 C 0 km/h
2002 30-09-2011 16:35:01 29.3 C 7.88 g/m*3 29.3 C 0 km/h
2003 30-09-2011 16:47:01 30.1 C 7.93 g/m*3 30.1 C 0 km/h
2004 30-09-2011 16:59:01 30.6 C 8.46 g/m*3 30.6 C 0 km/h
2005 30-09-2011 17:11:01 30.4 C 8.68 g/m*3 30.4 C 0 km/h
2006 30-09-2011 17:23:02 28.5 C 8.38 g/m*3 28.5 C 0 km/h
2007 30-09-2011 17:35:01 26.9 C 8.45 g/m*3 26.9 C 0 km/h
2008 30-09-2011 17:47:03 25.6 C 8.33 g/m*3 25.6 C 0 km/h
2009 30-09-2011 17:59:03 25 C 8.52 g/m*3 25 C 0 km/h
2010 30-09-2011 18:11:02 23.8 C 8.6 g/m*3 23.8 C 0 km/h
2011 30-09-2011 18:23:02 22.6 C 8.64 g/m*3 22.6 C 0 km/h
2012 30-09-2011 18:35:02 21.8 C 8.83 g/m*3 21.8 C 0 km/h
2013 30-09-2011 18:47:02 20.7 C 8.82 g/m*3 20.7 C 0 km/h
2014 30-09-2011 18:59:02 19.1 C 8.85 g/m*3 19.1 C 0 km/h
2015 30-09-2011 19:11:01 18.5 C 9.18 g/m*3 18.5 C 0 km/h
2016 30-09-2011 19:23:02 18.6 C 8.75 g/m*3 18.6 C 0 km/h
2017 30-09-2011 19:35:02 18.4 C 8.81 g/m*3 18.4 C 0 km/h
2018 30-09-2011 19:47:01 18.1 C 8.65 g/m*3 18.1 C 0 km/h
2019 30-09-2011 19:59:01 16.9 C 9.06 g/m*3 16.9 C 0 km/h
2020 30-09-2011 20:11:02 15.7 C 8.96 g/m*3 15.7 C 0 km/h
2021 30-09-2011 20:23:01 15.1 C 9.16 g/m*3 15.1 C 0 km/h
2022 30-09-2011 20:35:01 15.2 C 9.48 g/m*3 15.2 C 0 km/h
2023 30-09-2011 20:47:01 15.1 C 9.68 g/m*3 15.1 C 0 km/h
2024 30-09-2011 20:59:01 14.7 C 9.44 g/m*3 14.7 C 0 km/h
2025 30-09-2011 21:11:02 14.2 C 9.16 g/m*3 14.2 C 0 km/h
Sensor: Nr:Datum:Temp:Abs-Feuchte:Windchill:Wind:
Aussen-T/F 2026 30-09-2011 21:23:01 13.8 C 9.17 g/m*3 13.8 C 0 km/h
2027 30-09-2011 21:35:01 13.6 C 9.18 g/m*3 13.6 C 0 km/h
2028 30-09-2011 21:47:01 13.4 C 9.18 g/m*3 13.4 C 0 km/h
2029 30-09-2011 21:59:01 13.1 C 9.01 g/m*3 13.1 C 0 km/h
2030 30-09-2011 22:12:03 13.1 C 9.24 g/m*3 13.1 C 0 km/h
2031 30-09-2011 22:24:03 12.8 C 9.18 g/m*3 12.8 C 0 km/h
2032 30-09-2011 22:36:03 12.8 C 9.18 g/m*3 12.8 C 0 km/h
2033 30-09-2011 22:48:03 12.5 C 9.02 g/m*3 12.5 C 0 km/h
2034 30-09-2011 23:00:03 12.4 C 9.07 g/m*3 12.4 C 0 km/h
2035 30-09-2011 23:12:03 12.2 C 8.96 g/m*3 12.2 C 0 km/h
2036 30-09-2011 23:24:03 12.1 C 9.01 g/m*3 12.1 C 0 km/h
2037 30-09-2011 23:36:03 12.2 C 9.17 g/m*3 12.2 C 0 km/h
2038 30-09-2011 23:48:03 11.7 C 8.89 g/m*3 11.7 C 0 km/h
2039 01-10-2011 00:00:03 11.5 C 8.78 g/m*3 11.5 C 0 km/h
2040 01-10-2011 00:12:03 11.3 C 8.67 g/m*3 11.3 C 0 km/h
2041 01-10-2011 00:24:03 11.3 C 8.77 g/m*3 11.3 C 0 km/h
2042 01-10-2011 00:36:03 11.2 C 8.72 g/m*3 11.2 C 0 km/h
2043 01-10-2011 00:48:03 11.1 C 8.66 g/m*3 11.1 C 0 km/h
2044 01-10-2011 01:00:03 11.1 C 8.66 g/m*3 11.1 C 0 km/h
2045 01-10-2011 01:12:03 10.8 C 8.6 g/m*3 10.8 C 0 km/h
2046 01-10-2011 01:24:03 10.8 C 8.6 g/m*3 10.8 C 0 km/h
2047 01-10-2011 01:36:03 10.6 C 8.49 g/m*3 10.6 C 0 km/h
2048 01-10-2011 01:48:03 10.8 C 8.6 g/m*3 10.8 C 0 km/h
2049 01-10-2011 02:00:03 10.6 C 8.59 g/m*3 10.6 C 0 km/h
2050 01-10-2011 02:12:04 10.2 C 8.28 g/m*3 10.2 C 0 km/h
Sensor: Nr:Datum:Temp:Abs-Feuchte:Windchill:Wind:
Aussen-T/F 2051 01-10-2011 02:24:04 10.5 C 8.44 g/m*3 10.5 C 0 km/h
2052 01-10-2011 02:36:04 10.4 C 8.48 g/m*3 10.4 C 0 km/h
2053 01-10-2011 02:48:04 9.9 C 8.31 g/m*3 9.9 C 0 km/h
2054 01-10-2011 03:00:04 10 C 8.17 g/m*3 10 C 0 km/h
2055 01-10-2011 03:12:04 10 C 8.27 g/m*3 10 C 0 km/h
2056 01-10-2011 03:24:04 9.9 C 8.31 g/m*3 9.9 C 0 km/h
2057 01-10-2011 03:36:04 9.8 C 8.26 g/m*3 9.8 C 0 km/h
2058 01-10-2011 03:48:04 9.6 C 8.15 g/m*3 9.6 C 0 km/h
2059 01-10-2011 04:00:04 9.6 C 8.06 g/m*3 9.6 C 0 km/h
2060 01-10-2011 04:12:04 9.5 C 8.1 g/m*3 9.5 C 0 km/h
2061 01-10-2011 04:24:04 9.6 C 8.15 g/m*3 9.6 C 0 km/h
2062 01-10-2011 04:36:04 9.3 C 8 g/m*3 9.3 C 0 km/h
2063 01-10-2011 04:48:04 9 C 7.85 g/m*3 9 C 0 km/h
2064 01-10-2011 05:00:04 9 C 7.85 g/m*3 9 C 0 km/h
2065 01-10-2011 05:12:04 9.1 C 7.9 g/m*3 9.1 C 0 km/h
2066 01-10-2011 05:24:04 8.8 C 7.83 g/m*3 8.8 C 0 km/h
2067 01-10-2011 05:36:04 9.1 C 7.9 g/m*3 9.1 C 0 km/h
2068 01-10-2011 05:48:04 9.1 C 7.9 g/m*3 9.1 C 0 km/h
2069 01-10-2011 06:00:04 8.8 C 7.83 g/m*3 8.8 C 0 km/h
2070 01-10-2011 06:12:04 8.5 C 7.68 g/m*3 8.5 C 0 km/h
2071 01-10-2011 06:24:04 8.6 C 7.73 g/m*3 8.6 C 0 km/h
2072 01-10-2011 06:36:05 8.3 C 7.59 g/m*3 8.3 C 0 km/h
2073 01-10-2011 06:48:05 8.3 C 7.59 g/m*3 8.3 C 0 km/h
2074 01-10-2011 07:00:05 8.2 C 7.54 g/m*3 8.2 C 0 km/h
2075 01-10-2011 07:12:05 8.2 C 7.54 g/m*3 8.2 C 0 km/h
Sensor: Nr:Datum:Temp:Abs-Feuchte:Windchill:Wind:
Aussen-T/F 2076 01-10-2011 07:24:05 8.4 C 7.63 g/m*3 8.4 C 0 km/h
2077 01-10-2011 07:36:05 8.2 C 7.54 g/m*3 8.2 C 0 km/h
2078 01-10-2011 07:48:01 8.5 C 7.77 g/m*3 8.5 C 0 km/h
2079 01-10-2011 08:00:02 8.5 C 7.77 g/m*3 8.5 C 0 km/h
2080 01-10-2011 08:12:01 8.3 C 7.67 g/m*3 8.3 C 0 km/h
2081 01-10-2011 08:24:01 8.4 C 7.72 g/m*3 8.4 C 0 km/h
2082 01-10-2011 08:36:02 8.4 C 7.63 g/m*3 8.4 C 0 km/h
2083 01-10-2011 08:48:02 8.5 C 7.77 g/m*3 8.5 C 0 km/h
2084 01-10-2011 09:00:02 8.6 C 7.82 g/m*3 8.6 C 0 km/h
2085 01-10-2011 09:12:02 8.7 C 7.87 g/m*3 8.7 C 0 km/h
2086 01-10-2011 09:24:01 8.8 C 7.92 g/m*3 8.8 C 0 km/h
2087 01-10-2011 09:36:02 9 C 7.93 g/m*3 9 C 0 km/h
2088 01-10-2011 09:48:01 9.1 C 7.99 g/m*3 9.1 C 0 km/h
2089 01-10-2011 10:00:01 9.4 C 8.14 g/m*3 9.4 C 0 km/h
2090 01-10-2011 10:12:02 9.9 C 8.4 g/m*3 9.9 C 0 km/h
2091 01-10-2011 10:24:01 10.3 C 8.52 g/m*3 10.3 C 0 km/h
2092 01-10-2011 10:36:02 10.8 C 8.9 g/m*3 10.8 C 0 km/h
2093 01-10-2011 10:48:02 11.3 C 9.18 g/m*3 11.3 C 0 km/h
2094 01-10-2011 11:00:02 11.7 C 9.41 g/m*3 11.7 C 0 km/h
2095 01-10-2011 11:12:01 11.9 C 9.53 g/m*3 11.9 C 0 km/h
2096 01-10-2011 11:24:02 12.4 C 9.83 g/m*3 12.4 C 0 km/h
2097 01-10-2011 11:36:01 12.9 C 10.14 g/m*3 12.9 C 0 km/h
2098 01-10-2011 11:48:02 13.2 C 10.22 g/m*3 13.2 C 0 km/h
2099 01-10-2011 12:00:02 13.5 C 10.41 g/m*3 13.5 C 0 km/h
2100 01-10-2011 12:12:01 13.8 C 10.6 g/m*3 13.8 C 0 km/h
Sensor: Nr:Datum:Temp:Abs-Feuchte:Windchill:Wind:
Aussen-T/F 2101 01-10-2011 12:24:01 14.4 C 11 g/m*3 14.4 C 0 km/h
2102 01-10-2011 12:36:01 14.5 C 11.07 g/m*3 14.5 C 0 km/h
2103 01-10-2011 12:48:02 15.5 C 11.76 g/m*3 15.5 C 0 km/h
2104 01-10-2011 13:00:03 16.4 C 12.14 g/m*3 16.4 C 0 km/h
2105 01-10-2011 13:12:01 16.7 C 12.08 g/m*3 16.7 C 0 km/h
2106 01-10-2011 13:24:02 17.8 C 12.6 g/m*3 17.8 C 0 km/h
2107 01-10-2011 13:36:02 20 C 13.31 g/m*3 20 C 0 km/h
2108 01-10-2011 13:48:02 19.5 C 12.08 g/m*3 19.5 C 0 km/h
2109 01-10-2011 14:00:02 19 C 11.73 g/m*3 19 C 0 km/h
2110 01-10-2011 14:12:03 19.3 C 11.78 g/m*3 19.3 C 0 km/h
2111 01-10-2011 14:24:02 19.3 C 11.94 g/m*3 19.3 C 0 km/h
2112 01-10-2011 14:36:03 19.2 C 11.87 g/m*3 19.2 C 0 km/h
2113 01-10-2011 14:48:02 19.1 C 11.8 g/m*3 19.1 C 0 km/h
2114 01-10-2011 15:00:02 19.3 C 11.61 g/m*3 19.3 C 0 km/h
2115 01-10-2011 15:12:02 19.6 C 11.65 g/m*3 19.6 C 0 km/h
2116 01-10-2011 15:24:01 19.9 C 11.34 g/m*3 19.9 C 0 km/h
2117 01-10-2011 15:36:02 20.1 C 11.13 g/m*3 20.1 C 0 km/h
2118 01-10-2011 15:48:02 20.5 C 10.68 g/m*3 20.5 C 0 km/h
2119 01-10-2011 16:00:02 20.8 C 10.5 g/m*3 20.8 C 0 km/h
2120 01-10-2011 16:12:02 21.4 C 10.12 g/m*3 21.4 C 0 km/h
2121 01-10-2011 16:24:01 26.9 C 9.98 g/m*3 26.9 C 0 km/h
2122 01-10-2011 16:36:02 30 C 9.4 g/m*3 30 C 0 km/h
2123 01-10-2011 16:48:01 30.1 C 9.76 g/m*3 30.1 C 0 km/h
2124 01-10-2011 17:00:01 30 C 9.1 g/m*3 30 C 0 km/h
2125 01-10-2011 17:12:02 29.8 C 9 g/m*3 29.8 C 0 km/h
Sensor: Nr:Datum:Temp:Abs-Feuchte:Windchill:Wind:
Aussen-T/F 2126 01-10-2011 17:24:02 28.5 C 8.66 g/m*3 28.5 C 0 km/h
2127 01-10-2011 17:36:02 28.5 C 8.66 g/m*3 28.5 C 0 km/h
2128 01-10-2011 17:48:02 26.7 C 8.86 g/m*3 26.7 C 0 km/h
2129 01-10-2011 18:00:02 26.3 C 8.91 g/m*3 26.3 C 0 km/h
2130 01-10-2011 18:12:01 25.6 C 8.81 g/m*3 25.6 C 0 km/h
2131 01-10-2011 18:24:02 24.3 C 8.85 g/m*3 24.3 C 0 km/h
2132 01-10-2011 18:36:01 24 C 8.92 g/m*3 24 C 0 km/h
2133 01-10-2011 18:48:02 23.2 C 8.94 g/m*3 23.2 C 0 km/h
2134 01-10-2011 19:00:03 20.4 C 9.02 g/m*3 20.4 C 0 km/h
2135 01-10-2011 19:12:02 19 C 9.13 g/m*3 19 C 0 km/h
2136 01-10-2011 19:24:02 18.4 C 9.59 g/m*3 18.4 C 0 km/h
2137 01-10-2011 19:36:02 18 C 9.68 g/m*3 18 C 0 km/h
2138 01-10-2011 19:48:02 17.8 C 9.71 g/m*3 17.8 C 0 km/h
2139 01-10-2011 20:00:02 17.1 C 9.61 g/m*3 17.1 C 0 km/h
2140 01-10-2011 20:12:02 17 C 9.84 g/m*3 17 C 0 km/h
2141 01-10-2011 20:24:02 16.5 C 9.83 g/m*3 16.5 C 0 km/h
2142 01-10-2011 20:36:02 15.9 C 9.75 g/m*3 15.9 C 0 km/h
2143 01-10-2011 20:48:01 15.6 C 9.71 g/m*3 15.6 C 0 km/h
2144 01-10-2011 21:00:01 15.2 C 9.61 g/m*3 15.2 C 0 km/h
2145 01-10-2011 21:12:02 14.9 C 9.69 g/m*3 14.9 C 0 km/h
2146 01-10-2011 21:24:01 14.7 C 9.57 g/m*3 14.7 C 0 km/h
2147 01-10-2011 21:36:02 14.5 C 9.58 g/m*3 14.5 C 0 km/h
2148 01-10-2011 21:48:01 14.3 C 9.46 g/m*3 14.3 C 0 km/h
2149 01-10-2011 22:00:01 13.8 C 9.41 g/m*3 13.8 C 0 km/h
2150 01-10-2011 22:12:02 13.6 C 9.3 g/m*3 13.6 C 0 km/h
Sensor: Nr:Datum:Temp:Abs-Feuchte:Windchill:Wind:
Aussen-T/F 2151 01-10-2011 22:24:01 13.5 C 9.36 g/m*3 13.5 C 0 km/h
2152 01-10-2011 22:37:02 13.2 C 9.3 g/m*3 13.2 C 0 km/h
2153 01-10-2011 22:49:02 12.9 C 9.24 g/m*3 12.9 C 0 km/h
2154 01-10-2011 23:01:02 13.1 C 9.36 g/m*3 13.1 C 0 km/h
2155 01-10-2011 23:13:02 13 C 9.41 g/m*3 13 C 0 km/h
2156 01-10-2011 23:25:02 13 C 9.53 g/m*3 13 C 0 km/h
2157 01-10-2011 23:37:02 12.8 C 9.41 g/m*3 12.8 C 0 km/h
2158 01-10-2011 23:49:02 13 C 9.53 g/m*3 13 C 0 km/h
2159 02-10-2011 00:01:02 12.5 C 9.35 g/m*3 12.5 C 0 km/h
2160 02-10-2011 00:13:02 12.4 C 9.29 g/m*3 12.4 C 0 km/h
2161 02-10-2011 00:25:02 12.1 C 9.12 g/m*3 12.1 C 0 km/h
2162 02-10-2011 00:37:02 12.1 C 9.12 g/m*3 12.1 C 0 km/h
2163 02-10-2011 00:49:02 11.9 C 9.21 g/m*3 11.9 C 0 km/h
2164 02-10-2011 01:01:02 11.7 C 9.1 g/m*3 11.7 C 0 km/h
2165 02-10-2011 01:13:02 11.5 C 8.88 g/m*3 11.5 C 0 km/h
2166 02-10-2011 01:25:02 11.3 C 8.77 g/m*3 11.3 C 0 km/h
2167 02-10-2011 01:37:02 11.2 C 8.82 g/m*3 11.2 C 0 km/h
2168 02-10-2011 01:49:02 11.2 C 8.82 g/m*3 11.2 C 0 km/h
2169 02-10-2011 02:01:02 11.2 C 8.82 g/m*3 11.2 C 0 km/h
2170 02-10-2011 02:13:02 11 C 8.71 g/m*3 11 C 0 km/h
2171 02-10-2011 02:25:02 10.8 C 8.7 g/m*3 10.8 C 0 km/h
2172 02-10-2011 02:37:02 10.8 C 8.6 g/m*3 10.8 C 0 km/h
2173 02-10-2011 02:49:02 10.9 C 8.65 g/m*3 10.9 C 0 km/h
2174 02-10-2011 03:01:03 11 C 8.71 g/m*3 11 C 0 km/h
2175 02-10-2011 03:13:03 11 C 8.71 g/m*3 11 C 0 km/h
Sensor: Nr:Datum:Temp:Abs-Feuchte:Windchill:Wind:
Aussen-T/F 2176 02-10-2011 03:25:03 10.6 C 8.59 g/m*3 10.6 C 0 km/h
2177 02-10-2011 03:37:03 10.4 C 8.48 g/m*3 10.4 C 0 km/h
2178 02-10-2011 03:49:03 10.4 C 8.48 g/m*3 10.4 C 0 km/h
2179 02-10-2011 04:01:03 10.4 C 8.48 g/m*3 10.4 C 0 km/h
2180 02-10-2011 04:13:03 10.3 C 8.43 g/m*3 10.3 C 0 km/h
2181 02-10-2011 04:25:03 10.1 C 8.32 g/m*3 10.1 C 0 km/h
2182 02-10-2011 04:37:03 10 C 8.27 g/m*3 10 C 0 km/h
2183 02-10-2011 04:49:03 9.9 C 8.31 g/m*3 9.9 C 0 km/h
2184 02-10-2011 05:01:03 9.6 C 8.15 g/m*3 9.6 C 0 km/h
2185 02-10-2011 05:13:03 9.8 C 8.26 g/m*3 9.8 C 0 km/h
2186 02-10-2011 05:25:03 9.6 C 8.15 g/m*3 9.6 C 0 km/h
2187 02-10-2011 05:37:03 9.5 C 8.1 g/m*3 9.5 C 0 km/h
2188 02-10-2011 05:49:03 9.7 C 8.2 g/m*3 9.7 C 0 km/h
2189 02-10-2011 06:01:03 10 C 8.36 g/m*3 10 C 0 km/h
2190 02-10-2011 06:13:03 10.1 C 8.42 g/m*3 10.1 C 0 km/h
2191 02-10-2011 06:25:03 9.8 C 8.35 g/m*3 9.8 C 0 km/h
2192 02-10-2011 06:37:03 9.7 C 8.3 g/m*3 9.7 C 0 km/h
2193 02-10-2011 06:49:03 9.3 C 8.09 g/m*3 9.3 C 0 km/h
2194 02-10-2011 07:01:03 9.2 C 8.04 g/m*3 9.2 C 0 km/h
2195 02-10-2011 07:13:03 9.1 C 7.99 g/m*3 9.1 C 0 km/h
2196 02-10-2011 07:25:04 9.3 C 8.09 g/m*3 9.3 C 0 km/h
2197 02-10-2011 07:37:04 9.5 C 8.19 g/m*3 9.5 C 0 km/h
2198 02-10-2011 07:49:04 9.3 C 8.09 g/m*3 9.3 C 0 km/h
2199 02-10-2011 08:01:04 9.1 C 7.99 g/m*3 9.1 C 0 km/h
2200 02-10-2011 08:13:04 9.1 C 7.99 g/m*3 9.1 C 0 km/h
Sensor: Nr:Datum:Temp:Abs-Feuchte:Windchill:Wind:
Aussen-T/F 2201 02-10-2011 08:25:04 9.1 C 7.99 g/m*3 9.1 C 0 km/h
2202 02-10-2011 08:37:04 9.3 C 8.09 g/m*3 9.3 C 0 km/h
2203 02-10-2011 08:49:04 9.6 C 8.34 g/m*3 9.6 C 0 km/h
2204 02-10-2011 09:01:02 9.6 C 8.34 g/m*3 9.6 C 0 km/h
2205 02-10-2011 09:13:02 9.7 C 8.39 g/m*3 9.7 C 0 km/h
2206 02-10-2011 09:25:01 10 C 8.36 g/m*3 10 C 0 km/h
2207 02-10-2011 09:37:01 10.2 C 8.47 g/m*3 10.2 C 0 km/h
2208 02-10-2011 09:49:01 10.5 C 8.73 g/m*3 10.5 C 0 km/h
2209 02-10-2011 10:01:02 10.8 C 8.9 g/m*3 10.8 C 0 km/h
2210 02-10-2011 10:13:02 11.1 C 8.96 g/m*3 11.1 C 0 km/h
2211 02-10-2011 10:25:02 11.4 C 9.14 g/m*3 11.4 C 0 km/h
2212 02-10-2011 10:37:01 11.7 C 9.41 g/m*3 11.7 C 0 km/h
2213 02-10-2011 10:49:02 12.3 C 9.77 g/m*3 12.3 C 0 km/h
2214 02-10-2011 11:01:01 12.6 C 9.96 g/m*3 12.6 C 0 km/h
2215 02-10-2011 11:13:01 12.7 C 10.02 g/m*3 12.7 C 0 km/h
2216 02-10-2011 11:25:02 13 C 10.09 g/m*3 13 C 0 km/h
2217 02-10-2011 11:37:01 13.3 C 10.28 g/m*3 13.3 C 0 km/h
2218 02-10-2011 11:49:02 13.8 C 10.72 g/m*3 13.8 C 0 km/h
2219 02-10-2011 12:01:02 14.2 C 10.87 g/m*3 14.2 C 0 km/h
2220 02-10-2011 12:13:02 14.4 C 11 g/m*3 14.4 C 0 km/h
2221 02-10-2011 12:25:02 15 C 11.28 g/m*3 15 C 0 km/h
2222 02-10-2011 12:37:02 15.4 C 11.56 g/m*3 15.4 C 0 km/h
2223 02-10-2011 12:49:01 16.2 C 12.14 g/m*3 16.2 C 0 km/h
2224 02-10-2011 13:01:02 16.8 C 12.3 g/m*3 16.8 C 0 km/h
2225 02-10-2011 13:13:02 17.3 C 12.37 g/m*3 17.3 C 0 km/h
Sensor: Nr:Datum:Temp:Abs-Feuchte:Windchill:Wind:
Aussen-T/F 2226 02-10-2011 13:25:01 18.2 C 12.43 g/m*3 18.2 C 0 km/h
2227 02-10-2011 13:37:02 20.9 C 12.75 g/m*3 20.9 C 0 km/h
2228 02-10-2011 13:49:01 19.6 C 11.48 g/m*3 19.6 C 0 km/h
2229 02-10-2011 14:01:02 19.6 C 11.31 g/m*3 19.6 C 0 km/h
2230 02-10-2011 14:13:02 19.3 C 11.11 g/m*3 19.3 C 0 km/h
2231 02-10-2011 14:25:01 19.3 C 11.11 g/m*3 19.3 C 0 km/h
2232 02-10-2011 14:37:02 19.2 C 11.21 g/m*3 19.2 C 0 km/h
2233 02-10-2011 14:49:01 19.2 C 11.05 g/m*3 19.2 C 0 km/h
2234 02-10-2011 15:01:02 19.1 C 10.98 g/m*3 19.1 C 0 km/h
2235 02-10-2011 15:13:02 19.7 C 10.7 g/m*3 19.7 C 0 km/h
2236 02-10-2011 15:25:02 19.7 C 10.7 g/m*3 19.7 C 0 km/h
2237 02-10-2011 15:37:01 19.8 C 10.76 g/m*3 19.8 C 0 km/h
2238 02-10-2011 15:49:02 20.4 C 10.44 g/m*3 20.4 C 0 km/h
2239 02-10-2011 16:01:01 20.6 C 10.56 g/m*3 20.6 C 0 km/h
2240 02-10-2011 16:13:01 20.9 C 10.56 g/m*3 20.9 C 0 km/h
2241 02-10-2011 16:25:02 27.1 C 10.35 g/m*3 27.1 C 0 km/h
2242 02-10-2011 16:37:01 29.4 C 9.1 g/m*3 29.4 C 0 km/h
2243 02-10-2011 16:49:02 30.3 C 9.55 g/m*3 30.3 C 0 km/h
2244 02-10-2011 17:01:02 30.1 C 9.15 g/m*3 30.1 C 0 km/h
2245 02-10-2011 17:13:02 29.1 C 8.95 g/m*3 29.1 C 0 km/h
2246 02-10-2011 17:25:02 29 C 8.9 g/m*3 29 C 0 km/h
2247 02-10-2011 17:37:02 26.7 C 8.86 g/m*3 26.7 C 0 km/h
2248 02-10-2011 17:49:01 25.4 C 8.71 g/m*3 25.4 C 0 km/h
2249 02-10-2011 18:01:02 24.3 C 8.63 g/m*3 24.3 C 0 km/h
2250 02-10-2011 18:13:02 23.6 C 8.93 g/m*3 23.6 C 0 km/h
Sensor: Nr:Datum:Temp:Abs-Feuchte:Windchill:Wind:
Aussen-T/F 2251 02-10-2011 18:25:01 23.3 C 8.99 g/m*3 23.3 C 0 km/h
2252 02-10-2011 18:37:02 22.5 C 8.99 g/m*3 22.5 C 0 km/h
2253 02-10-2011 18:49:01 22 C 9.12 g/m*3 22 C 0 km/h
2254 02-10-2011 19:01:02 19.7 C 9.17 g/m*3 19.7 C 0 km/h
2255 02-10-2011 19:13:02 18.8 C 9.18 g/m*3 18.8 C 0 km/h
2256 02-10-2011 19:25:01 18.2 C 9.17 g/m*3 18.2 C 0 km/h
2257 02-10-2011 19:37:02 17.9 C 9.31 g/m*3 17.9 C 0 km/h
2258 02-10-2011 19:49:01 17.1 C 9.17 g/m*3 17.1 C 0 km/h
2259 02-10-2011 20:01:02 16.8 C 9.72 g/m*3 16.8 C 0 km/h
2260 02-10-2011 20:13:02 16.3 C 9.57 g/m*3 16.3 C 0 km/h
2261 02-10-2011 20:25:02 16.3 C 9.71 g/m*3 16.3 C 0 km/h
2262 02-10-2011 20:37:01 15.7 C 9.63 g/m*3 15.7 C 0 km/h
2263 02-10-2011 20:49:02 15.6 C 9.71 g/m*3 15.6 C 0 km/h
2264 02-10-2011 21:01:01 15.4 C 9.85 g/m*3 15.4 C 0 km/h
2265 02-10-2011 21:13:01 15.1 C 9.68 g/m*3 15.1 C 0 km/h
2266 02-10-2011 21:25:02 14.8 C 9.75 g/m*3 14.8 C 0 km/h
2267 02-10-2011 21:37:01 14.6 C 9.76 g/m*3 14.6 C 0 km/h
2268 02-10-2011 21:50:03 14.5 C 9.83 g/m*3 14.5 C 0 km/h
2269 02-10-2011 22:02:03 14.4 C 9.89 g/m*3 14.4 C 0 km/h
2270 02-10-2011 22:14:03 14.1 C 9.95 g/m*3 14.1 C 0 km/h
2271 02-10-2011 22:26:03 14.1 C 9.95 g/m*3 14.1 C 0 km/h
2272 02-10-2011 22:38:03 13.8 C 9.89 g/m*3 13.8 C 0 km/h
2273 02-10-2011 22:50:03 13.5 C 9.71 g/m*3 13.5 C 0 km/h
2274 02-10-2011 23:02:03 13.4 C 9.76 g/m*3 13.4 C 0 km/h
2275 02-10-2011 23:14:03 13.1 C 9.59 g/m*3 13.1 C 0 km/h
Sensor: Nr:Datum:Temp:Abs-Feuchte:Windchill:Wind:
Aussen-T/F 2276 02-10-2011 23:26:03 13.1 C 9.59 g/m*3 13.1 C 0 km/h
2277 02-10-2011 23:38:03 12.9 C 9.58 g/m*3 12.9 C 0 km/h
2278 02-10-2011 23:50:03 12.9 C 9.58 g/m*3 12.9 C 0 km/h
2279 03-10-2011 00:02:03 12.8 C 9.52 g/m*3 12.8 C 0 km/h
2280 03-10-2011 00:14:03 12.7 C 9.46 g/m*3 12.7 C 0 km/h
2281 03-10-2011 00:26:03 12.5 C 9.46 g/m*3 12.5 C 0 km/h
2282 03-10-2011 00:38:03 12.3 C 9.34 g/m*3 12.3 C 0 km/h
2283 03-10-2011 00:50:03 12.6 C 9.62 g/m*3 12.6 C 0 km/h
2284 03-10-2011 01:02:03 12.7 C 9.68 g/m*3 12.7 C 0 km/h
2285 03-10-2011 01:14:03 12.3 C 9.45 g/m*3 12.3 C 0 km/h
2286 03-10-2011 01:26:03 12.2 C 9.39 g/m*3 12.2 C 0 km/h
2287 03-10-2011 01:38:03 12.2 C 9.39 g/m*3 12.2 C 0 km/h
2288 03-10-2011 01:50:04 12 C 9.38 g/m*3 12 C 0 km/h
2289 03-10-2011 02:02:04 11.7 C 9.2 g/m*3 11.7 C 0 km/h
2290 03-10-2011 02:14:04 11.4 C 9.03 g/m*3 11.4 C 0 km/h
2291 03-10-2011 02:26:04 11.5 C 9.09 g/m*3 11.5 C 0 km/h
2292 03-10-2011 02:38:04 11.9 C 9.32 g/m*3 11.9 C 0 km/h
2293 03-10-2011 02:50:04 11.5 C 9.09 g/m*3 11.5 C 0 km/h
2294 03-10-2011 03:02:04 11.5 C 9.09 g/m*3 11.5 C 0 km/h
2295 03-10-2011 03:14:04 11.4 C 9.03 g/m*3 11.4 C 0 km/h
2296 03-10-2011 03:26:04 11.2 C 8.92 g/m*3 11.2 C 0 km/h
2297 03-10-2011 03:38:04 11.5 C 9.19 g/m*3 11.5 C 0 km/h
2298 03-10-2011 03:50:04 11.1 C 8.86 g/m*3 11.1 C 0 km/h
2299 03-10-2011 04:02:04 11 C 8.81 g/m*3 11 C 0 km/h
2300 03-10-2011 04:14:04 11.1 C 8.96 g/m*3 11.1 C 0 km/h
Sensor: Nr:Datum:Temp:Abs-Feuchte:Windchill:Wind:
Aussen-T/F 2301 03-10-2011 04:26:04 11.1 C 8.96 g/m*3 11.1 C 0 km/h
2302 03-10-2011 04:38:04 11.1 C 8.96 g/m*3 11.1 C 0 km/h
2303 03-10-2011 04:50:04 10.7 C 8.74 g/m*3 10.7 C 0 km/h
2304 03-10-2011 05:02:04 10.6 C 8.69 g/m*3 10.6 C 0 km/h
2305 03-10-2011 05:14:04 10.3 C 8.52 g/m*3 10.3 C 0 km/h
2306 03-10-2011 05:26:04 10.2 C 8.47 g/m*3 10.2 C 0 km/h
2307 03-10-2011 05:38:04 10.4 C 8.58 g/m*3 10.4 C 0 km/h
2308 03-10-2011 05:50:05 10.4 C 8.58 g/m*3 10.4 C 0 km/h
2309 03-10-2011 06:02:05 10.7 C 8.84 g/m*3 10.7 C 0 km/h
2310 03-10-2011 06:14:05 10.4 C 8.58 g/m*3 10.4 C 0 km/h
2311 03-10-2011 06:26:05 10.6 C 8.78 g/m*3 10.6 C 0 km/h
2312 03-10-2011 06:38:05 10.7 C 8.84 g/m*3 10.7 C 0 km/h
2313 03-10-2011 06:50:05 10.3 C 8.62 g/m*3 10.3 C 0 km/h
2314 03-10-2011 07:02:05 10 C 8.46 g/m*3 10 C 0 km/h
2315 03-10-2011 07:14:05 9.6 C 8.34 g/m*3 9.6 C 0 km/h
2316 03-10-2011 07:26:05 10 C 8.46 g/m*3 10 C 0 km/h
2317 03-10-2011 07:38:05 10.1 C 8.51 g/m*3 10.1 C 0 km/h
2318 03-10-2011 07:50:05 9.7 C 8.39 g/m*3 9.7 C 0 km/h
2319 03-10-2011 08:02:03 10.2 C 8.56 g/m*3 10.2 C 0 km/h
2320 03-10-2011 08:14:03 10.3 C 8.62 g/m*3 10.3 C 0 km/h
2321 03-10-2011 08:26:02 10.5 C 8.73 g/m*3 10.5 C 0 km/h
2322 03-10-2011 08:38:02 10.5 C 8.73 g/m*3 10.5 C 0 km/h
2323 03-10-2011 08:50:02 10.5 C 8.73 g/m*3 10.5 C 0 km/h
2324 03-10-2011 09:02:01 10.7 C 8.84 g/m*3 10.7 C 0 km/h
2325 03-10-2011 09:14:01 10.8 C 8.9 g/m*3 10.8 C 0 km/h
Sensor: Nr:Datum:Temp:Abs-Feuchte:Windchill:Wind:
Aussen-T/F 2326 03-10-2011 09:26:02 11.2 C 9.12 g/m*3 11.2 C 0 km/h
2327 03-10-2011 09:38:01 11.2 C 9.12 g/m*3 11.2 C 0 km/h
2328 03-10-2011 09:50:02 11.5 C 9.3 g/m*3 11.5 C 0 km/h
2329 03-10-2011 10:02:02 11.8 C 9.47 g/m*3 11.8 C 0 km/h
2330 03-10-2011 10:14:02 12 C 9.59 g/m*3 12 C 0 km/h
2331 03-10-2011 10:26:01 12.2 C 9.71 g/m*3 12.2 C 0 km/h
2332 03-10-2011 10:38:02 12.5 C 9.89 g/m*3 12.5 C 0 km/h
2333 03-10-2011 10:50:02 12.8 C 10.08 g/m*3 12.8 C 0 km/h
2334 03-10-2011 11:02:02 13.1 C 10.16 g/m*3 13.1 C 0 km/h
2335 03-10-2011 11:14:02 13.4 C 10.35 g/m*3 13.4 C 0 km/h
2336 03-10-2011 11:26:02 13.8 C 10.6 g/m*3 13.8 C 0 km/h
2337 03-10-2011 11:38:02 14.1 C 10.8 g/m*3 14.1 C 0 km/h
2338 03-10-2011 11:50:02 14.2 C 10.75 g/m*3 14.2 C 0 km/h
2339 03-10-2011 12:02:02 14.5 C 10.94 g/m*3 14.5 C 0 km/h
2340 03-10-2011 12:14:03 14.7 C 10.95 g/m*3 14.7 C 0 km/h
2341 03-10-2011 12:26:02 15.4 C 11.43 g/m*3 15.4 C 0 km/h
2342 03-10-2011 12:38:02 15.6 C 11.57 g/m*3 15.6 C 0 km/h
2343 03-10-2011 12:50:02 16.4 C 12 g/m*3 16.4 C 0 km/h
2344 03-10-2011 13:02:02 16.9 C 12.37 g/m*3 16.9 C 0 km/h
2345 03-10-2011 13:14:02 17.5 C 12.52 g/m*3 17.5 C 0 km/h
2346 03-10-2011 13:26:02 18 C 12.44 g/m*3 18 C 0 km/h
2347 03-10-2011 13:38:02 19.8 C 13.15 g/m*3 19.8 C 0 km/h
2348 03-10-2011 13:50:02 20.2 C 12.06 g/m*3 20.2 C 0 km/h
2349 03-10-2011 14:02:02 19.7 C 11.38 g/m*3 19.7 C 0 km/h
2350 03-10-2011 14:14:02 20 C 10.89 g/m*3 20 C 0 km/h
Sensor: Nr:Datum:Temp:Abs-Feuchte:Windchill:Wind:
Aussen-T/F 2351 03-10-2011 14:26:02 20 C 10.37 g/m*3 20 C 0 km/h
2352 03-10-2011 14:38:01 20.4 C 9.91 g/m*3 20.4 C 0 km/h
2353 03-10-2011 14:50:02 21.1 C 9.77 g/m*3 21.1 C 0 km/h
2354 03-10-2011 15:02:01 20.4 C 10.08 g/m*3 20.4 C 0 km/h
2355 03-10-2011 15:14:01 20.8 C 9.6 g/m*3 20.8 C 0 km/h
2356 03-10-2011 15:26:02 20.6 C 10.02 g/m*3 20.6 C 0 km/h
2357 03-10-2011 15:38:02 21 C 9.71 g/m*3 21 C 0 km/h
2358 03-10-2011 15:50:02 21.5 C 9.24 g/m*3 21.5 C 0 km/h
2359 03-10-2011 16:02:02 21.2 C 9.45 g/m*3 21.2 C 0 km/h
2360 03-10-2011 16:14:02 23 C 9.45 g/m*3 23 C 0 km/h
2361 03-10-2011 16:26:02 26.6 C 7.8 g/m*3 26.6 C 0 km/h
2362 03-10-2011 16:38:02 27.9 C 8.65 g/m*3 27.9 C 0 km/h
2363 03-10-2011 16:50:01 27.5 C 8.2 g/m*3 27.5 C 0 km/h
2364 03-10-2011 17:02:02 27.6 C 8.51 g/m*3 27.6 C 0 km/h
2365 03-10-2011 17:14:02 26 C 8.03 g/m*3 26 C 0 km/h
2366 03-10-2011 17:26:01 26.2 C 8.62 g/m*3 26.2 C 0 km/h
2367 03-10-2011 17:38:01 25.5 C 8.29 g/m*3 25.5 C 0 km/h
2368 03-10-2011 17:50:01 25.2 C 8.61 g/m*3 25.2 C 0 km/h
2369 03-10-2011 18:02:02 24.6 C 8.55 g/m*3 24.6 C 0 km/h
2370 03-10-2011 18:14:02 23 C 8.22 g/m*3 23 C 0 km/h
2371 03-10-2011 18:26:01 22.1 C 8.39 g/m*3 22.1 C 0 km/h
2372 03-10-2011 18:38:01 20.8 C 8.51 g/m*3 20.8 C 0 km/h
2373 03-10-2011 18:50:01 20.2 C 8.57 g/m*3 20.2 C 0 km/h
2374 03-10-2011 19:02:01 18.6 C 8.91 g/m*3 18.6 C 0 km/h
2375 03-10-2011 19:14:01 18.4 C 8.81 g/m*3 18.4 C 0 km/h
Sensor: Nr:Datum:Temp:Abs-Feuchte:Windchill:Wind:
Aussen-T/F 2376 03-10-2011 19:26:02 18.1 C 8.81 g/m*3 18.1 C 0 km/h
2377 03-10-2011 19:38:01 17.7 C 9.05 g/m*3 17.7 C 0 km/h
2378 03-10-2011 19:50:02 17.6 C 9 g/m*3 17.6 C 0 km/h
2379 03-10-2011 20:02:01 17.4 C 9.04 g/m*3 17.4 C 0 km/h
2380 03-10-2011 20:14:01 17.2 C 9.08 g/m*3 17.2 C 0 km/h
2381 03-10-2011 20:26:01 16.8 C 9.15 g/m*3 16.8 C 0 km/h
2382 03-10-2011 20:38:01 16.3 C 9.3 g/m*3 16.3 C 0 km/h
2383 03-10-2011 20:51:04 15.6 C 9.31 g/m*3 15.6 C 0 km/h
2384 03-10-2011 21:03:04 15.5 C 9.52 g/m*3 15.5 C 0 km/h
2385 03-10-2011 21:15:04 15.4 C 9.72 g/m*3 15.4 C 0 km/h
2386 03-10-2011 21:27:04 15.5 C 9.65 g/m*3 15.5 C 0 km/h
2387 03-10-2011 21:39:04 15.2 C 9.35 g/m*3 15.2 C 0 km/h
2388 03-10-2011 21:51:04 14.9 C 9.43 g/m*3 14.9 C 0 km/h
2389 03-10-2011 22:03:04 15 C 9.49 g/m*3 15 C 0 km/h
2390 03-10-2011 22:15:04 14.4 C 9.39 g/m*3 14.4 C 0 km/h
2391 03-10-2011 22:27:04 14.2 C 9.4 g/m*3 14.2 C 0 km/h
2392 03-10-2011 22:39:04 14.1 C 9.34 g/m*3 14.1 C 0 km/h
2393 03-10-2011 22:51:04 14.3 C 9.21 g/m*3 14.3 C 0 km/h
2394 03-10-2011 23:03:05 13.8 C 8.94 g/m*3 13.8 C 0 km/h
2395 03-10-2011 23:15:05 13.3 C 8.9 g/m*3 13.3 C 0 km/h
2396 03-10-2011 23:27:05 13.1 C 8.9 g/m*3 13.1 C 0 km/h
2397 03-10-2011 23:39:05 12.9 C 9.02 g/m*3 12.9 C 0 km/h
2398 03-10-2011 23:51:05 12.5 C 8.91 g/m*3 12.5 C 0 km/h
2399 04-10-2011 00:03:05 12.9 C 9.35 g/m*3 12.9 C 0 km/h
2400 04-10-2011 00:15:05 12.6 C 9.18 g/m*3 12.6 C 0 km/h
Sensor: Nr:Datum:Temp:Abs-Feuchte:Windchill:Wind:
Aussen-T/F 2401 04-10-2011 00:27:05 12.3 C 9.01 g/m*3 12.3 C 0 km/h
2402 04-10-2011 00:39:05 12.2 C 8.96 g/m*3 12.2 C 0 km/h
2403 04-10-2011 00:51:05 12.1 C 9.01 g/m*3 12.1 C 0 km/h
2404 04-10-2011 01:03:05 12 C 8.95 g/m*3 12 C 0 km/h
2405 04-10-2011 01:15:05 11.8 C 8.95 g/m*3 11.8 C 0 km/h
2406 04-10-2011 01:27:05 11.9 C 9.11 g/m*3 11.9 C 0 km/h
2407 04-10-2011 01:39:05 11.7 C 8.99 g/m*3 11.7 C 0 km/h
2408 04-10-2011 01:51:05 11.4 C 8.83 g/m*3 11.4 C 0 km/h
2409 04-10-2011 02:03:05 11.3 C 8.77 g/m*3 11.3 C 0 km/h
2410 04-10-2011 02:15:05 11.2 C 8.82 g/m*3 11.2 C 0 km/h
2411 04-10-2011 02:27:05 11.1 C 8.76 g/m*3 11.1 C 0 km/h
2412 04-10-2011 02:39:05 11.2 C 8.82 g/m*3 11.2 C 0 km/h
2413 04-10-2011 02:51:05 11 C 8.71 g/m*3 11 C 0 km/h
2414 04-10-2011 03:03:05 11 C 8.71 g/m*3 11 C 0 km/h
2415 04-10-2011 03:15:06 11.1 C 8.86 g/m*3 11.1 C 0 km/h
2416 04-10-2011 03:27:06 11.1 C 8.86 g/m*3 11.1 C 0 km/h
2417 04-10-2011 03:39:06 11.1 C 8.86 g/m*3 11.1 C 0 km/h
2418 04-10-2011 03:51:06 11.1 C 8.86 g/m*3 11.1 C 0 km/h
2419 04-10-2011 04:03:06 12.1 C 9.44 g/m*3 12.1 C 0 km/h
2420 04-10-2011 04:15:06 11.9 C 9.32 g/m*3 11.9 C 0 km/h
2421 04-10-2011 04:27:06 11.8 C 9.26 g/m*3 11.8 C 0 km/h
2422 04-10-2011 04:39:06 12.7 C 9.68 g/m*3 12.7 C 0 km/h
2423 04-10-2011 04:51:06 12.5 C 9.35 g/m*3 12.5 C 0 km/h
2424 04-10-2011 05:03:06 12.4 C 9.18 g/m*3 12.4 C 0 km/h
2425 04-10-2011 05:15:06 13.3 C 9.7 g/m*3 13.3 C 0 km/h
Sensor: Nr:Datum:Temp:Abs-Feuchte:Windchill:Wind:
Aussen-T/F 2426 04-10-2011 05:27:06 12.8 C 9.07 g/m*3 12.8 C 0 km/h
2427 04-10-2011 05:39:06 12 C 8.63 g/m*3 12 C 0 km/h
2428 04-10-2011 05:51:06 12.2 C 8.96 g/m*3 12.2 C 0 km/h
2429 04-10-2011 06:03:06 12.7 C 9.02 g/m*3 12.7 C 0 km/h
2430 04-10-2011 06:15:06 12.8 C 9.07 g/m*3 12.8 C 0 km/h
2431 04-10-2011 06:27:06 13.5 C 8.77 g/m*3 13.5 C 0 km/h
2432 04-10-2011 06:39:06 13.5 C 8.66 g/m*3 13.5 C 0 km/h
2433 04-10-2011 06:51:06 13.5 C 8.54 g/m*3 13.5 C 0 km/h
2434 04-10-2011 07:03:06 13.4 C 8.6 g/m*3 13.4 C 0 km/h
2435 04-10-2011 07:15:07 13.5 C 8.66 g/m*3 13.5 C 0 km/h
2436 04-10-2011 07:27:07 13.2 C 8.38 g/m*3 13.2 C 0 km/h
2437 04-10-2011 07:39:07 13.3 C 8.43 g/m*3 13.3 C 0 km/h
2438 04-10-2011 07:51:07 13.3 C 8.43 g/m*3 13.3 C 0 km/h
2439 04-10-2011 08:03:07 13.4 C 8.49 g/m*3 13.4 C 0 km/h
2440 04-10-2011 08:15:03 13.3 C 8.55 g/m*3 13.3 C 0 km/h
2441 04-10-2011 08:27:03 13.3 C 8.55 g/m*3 13.3 C 0 km/h
2442 04-10-2011 08:39:03 13.7 C 8.76 g/m*3 13.7 C 0 km/h
2443 04-10-2011 08:51:01 13.8 C 8.58 g/m*3 13.8 C 0 km/h
2444 04-10-2011 09:03:01 14.4 C 8.65 g/m*3 14.4 C 0 km/h
2445 04-10-2011 09:15:01 14.7 C 8.69 g/m*3 14.7 C 0 km/h
2446 04-10-2011 09:27:01 14.6 C 8.63 g/m*3 14.6 C 0 km/h
2447 04-10-2011 09:39:02 15.1 C 8.64 g/m*3 15.1 C 0 km/h
2448 04-10-2011 09:51:02 15.4 C 8.54 g/m*3 15.4 C 0 km/h
2449 04-10-2011 10:03:02 15.7 C 8.56 g/m*3 15.7 C 0 km/h
2450 04-10-2011 10:15:02 15.8 C 8.62 g/m*3 15.8 C 0 km/h
Sensor: Nr:Datum:Temp:Abs-Feuchte:Windchill:Wind:
Aussen-T/F 2451 04-10-2011 10:27:02 15.9 C 8.94 g/m*3 15.9 C 0 km/h
2452 04-10-2011 10:39:02 16.4 C 8.65 g/m*3 16.4 C 0 km/h
2453 04-10-2011 10:51:02 17.4 C 8.3 g/m*3 17.4 C 0 km/h
2454 04-10-2011 11:03:02 18.2 C 8.08 g/m*3 18.2 C 0 km/h
2455 04-10-2011 11:15:02 18.7 C 8.01 g/m*3 18.7 C 0 km/h
2456 04-10-2011 11:27:02 19.1 C 7.87 g/m*3 19.1 C 0 km/h
2457 04-10-2011 11:39:02 19.6 C 7.93 g/m*3 19.6 C 0 km/h
2458 04-10-2011 11:51:01 19.5 C 7.89 g/m*3 19.5 C 0 km/h
2459 04-10-2011 12:03:01 19.8 C 8.03 g/m*3 19.8 C 0 km/h
2460 04-10-2011 12:15:02 19.7 C 8.66 g/m*3 19.7 C 0 km/h
2461 04-10-2011 12:27:02 20.2 C 8.57 g/m*3 20.2 C 0 km/h
2462 04-10-2011 12:39:01 20.8 C 8.33 g/m*3 20.8 C 0 km/h
2463 04-10-2011 12:51:02 20.6 C 8.59 g/m*3 20.6 C 0 km/h
2464 04-10-2011 13:03:02 21.1 C 8.29 g/m*3 21.1 C 0 km/h
2465 04-10-2011 13:15:02 20.9 C 8.74 g/m*3 20.9 C 0 km/h
2466 04-10-2011 13:27:02 21.8 C 8.25 g/m*3 21.8 C 0 km/h
2467 04-10-2011 13:39:02 23 C 8.84 g/m*3 23 C 0 km/h
2468 04-10-2011 13:51:02 22.5 C 7.99 g/m*3 22.5 C 0 km/h
2469 04-10-2011 14:03:02 22.5 C 8.19 g/m*3 22.5 C 0 km/h
2470 04-10-2011 14:15:02 22.5 C 8.19 g/m*3 22.5 C 0 km/h
2471 04-10-2011 14:27:02 22.5 C 8.39 g/m*3 22.5 C 0 km/h
2472 04-10-2011 14:39:01 23.2 C 8.11 g/m*3 23.2 C 0 km/h
2473 04-10-2011 14:51:02 23.5 C 8.04 g/m*3 23.5 C 0 km/h
2474 04-10-2011 15:03:01 23.1 C 8.48 g/m*3 23.1 C 0 km/h
2475 04-10-2011 15:15:01 23.4 C 8.2 g/m*3 23.4 C 0 km/h
Sensor: Nr:Datum:Temp:Abs-Feuchte:Windchill:Wind:
Aussen-T/F 2476 04-10-2011 15:27:01 23.6 C 8.29 g/m*3 23.6 C 0 km/h
2477 04-10-2011 15:39:02 23.5 C 8.25 g/m*3 23.5 C 0 km/h
2478 04-10-2011 15:51:02 23.1 C 8.48 g/m*3 23.1 C 0 km/h
2479 04-10-2011 16:03:02 23.3 C 8.57 g/m*3 23.3 C 0 km/h
2480 04-10-2011 16:15:02 23.9 C 8.65 g/m*3 23.9 C 0 km/h
2481 04-10-2011 16:27:02 25 C 8.06 g/m*3 25 C 0 km/h
2482 04-10-2011 16:39:02 26 C 8.03 g/m*3 26 C 0 km/h
2483 04-10-2011 16:51:02 22.8 C 8.53 g/m*3 22.8 C 0 km/h
2484 04-10-2011 17:03:02 22.2 C 8.64 g/m*3 22.2 C 0 km/h
2485 04-10-2011 17:15:02 21.6 C 8.53 g/m*3 21.6 C 0 km/h
2486 04-10-2011 17:27:02 24 C 8.27 g/m*3 24 C 0 km/h
2487 04-10-2011 17:39:02 23.7 C 8.34 g/m*3 23.7 C 0 km/h
2488 04-10-2011 17:51:02 23 C 8.22 g/m*3 23 C 0 km/h
2489 04-10-2011 18:03:02 22.2 C 8.44 g/m*3 22.2 C 0 km/h
2490 04-10-2011 18:15:02 21.5 C 8.3 g/m*3 21.5 C 0 km/h
2491 04-10-2011 18:27:02 19.8 C 8.54 g/m*3 19.8 C 0 km/h
2492 04-10-2011 18:39:02 19.2 C 8.74 g/m*3 19.2 C 0 km/h
2493 04-10-2011 18:51:02 19.3 C 8.79 g/m*3 19.3 C 0 km/h
2494 04-10-2011 19:03:02 19.3 C 8.79 g/m*3 19.3 C 0 km/h
2495 04-10-2011 19:15:02 19.1 C 9.02 g/m*3 19.1 C 0 km/h
2496 04-10-2011 19:27:03 19.3 C 8.96 g/m*3 19.3 C 0 km/h
2497 04-10-2011 19:39:01 19.1 C 8.69 g/m*3 19.1 C 0 km/h
2498 04-10-2011 19:51:02 18.2 C 8.86 g/m*3 18.2 C 0 km/h
2499 04-10-2011 20:03:01 17.9 C 9.16 g/m*3 17.9 C 0 km/h
2500 04-10-2011 20:15:02 18.5 C 9.02 g/m*3 18.5 C 0 km/h
Sensor: Nr:Datum:Temp:Abs-Feuchte:Windchill:Wind:
Aussen-T/F 2501 04-10-2011 20:27:02 18.5 C 8.86 g/m*3 18.5 C 0 km/h
2502 04-10-2011 20:39:02 18.3 C 9.07 g/m*3 18.3 C 0 km/h
2503 04-10-2011 20:51:03 18.4 C 8.97 g/m*3 18.4 C 0 km/h
2504 04-10-2011 21:03:09 18.6 C 8.75 g/m*3 18.6 C 0 km/h
2505 04-10-2011 21:16:03 18.2 C 8.86 g/m*3 18.2 C 0 km/h
2506 04-10-2011 21:28:03 18.2 C 8.86 g/m*3 18.2 C 0 km/h
2507 04-10-2011 21:40:03 18.2 C 8.86 g/m*3 18.2 C 0 km/h
2508 04-10-2011 21:52:03 18.2 C 8.86 g/m*3 18.2 C 0 km/h
2509 04-10-2011 22:04:03 18.1 C 9.12 g/m*3 18.1 C 0 km/h
2510 04-10-2011 22:16:03 18 C 9.22 g/m*3 18 C 0 km/h
2511 04-10-2011 22:28:03 17.5 C 9.39 g/m*3 17.5 C 0 km/h
2512 04-10-2011 22:40:03 16.8 C 9.58 g/m*3 16.8 C 0 km/h
2513 04-10-2011 22:52:03 16.9 C 9.92 g/m*3 16.9 C 0 km/h
2514 04-10-2011 23:04:03 17 C 9.69 g/m*3 17 C 0 km/h
2515 04-10-2011 23:16:03 17.1 C 9.61 g/m*3 17.1 C 0 km/h
2516 04-10-2011 23:28:03 17 C 9.69 g/m*3 17 C 0 km/h
2517 04-10-2011 23:40:03 16.9 C 9.64 g/m*3 16.9 C 0 km/h
2518 04-10-2011 23:52:03 16.8 C 9.58 g/m*3 16.8 C 0 km/h
2519 05-10-2011 00:04:03 16.8 C 9.72 g/m*3 16.8 C 0 km/h
2520 05-10-2011 00:16:03 16.8 C 9.58 g/m*3 16.8 C 0 km/h
2521 05-10-2011 00:28:03 16.8 C 9.58 g/m*3 16.8 C 0 km/h
2522 05-10-2011 00:40:04 16.8 C 9.58 g/m*3 16.8 C 0 km/h
2523 05-10-2011 00:52:04 17 C 9.55 g/m*3 17 C 0 km/h
2524 05-10-2011 01:04:04 17.4 C 9.48 g/m*3 17.4 C 0 km/h
2525 05-10-2011 01:16:04 17.5 C 9.39 g/m*3 17.5 C 0 km/h
Sensor: Nr:Datum:Temp:Abs-Feuchte:Windchill:Wind:
Aussen-T/F 2526 05-10-2011 01:28:04 17.5 C 9.54 g/m*3 17.5 C 0 km/h
2527 05-10-2011 01:40:04 17.5 C 9.39 g/m*3 17.5 C 0 km/h
2528 05-10-2011 01:52:04 17.5 C 9.54 g/m*3 17.5 C 0 km/h
2529 05-10-2011 02:04:04 17.7 C 9.66 g/m*3 17.7 C 0 km/h
2530 05-10-2011 02:16:04 17.7 C 9.51 g/m*3 17.7 C 0 km/h
2531 05-10-2011 02:28:04 17.5 C 9.54 g/m*3 17.5 C 0 km/h
2532 05-10-2011 02:40:04 17.5 C 9.69 g/m*3 17.5 C 0 km/h
2533 05-10-2011 02:52:04 17.5 C 9.84 g/m*3 17.5 C 0 km/h
2534 05-10-2011 03:04:04 17.5 C 9.69 g/m*3 17.5 C 0 km/h
2535 05-10-2011 03:16:04 17.5 C 9.84 g/m*3 17.5 C 0 km/h
2536 05-10-2011 03:28:04 17.4 C 9.78 g/m*3 17.4 C 0 km/h
2537 05-10-2011 03:40:04 17.4 C 9.78 g/m*3 17.4 C 0 km/h
2538 05-10-2011 03:52:04 17.4 C 9.93 g/m*3 17.4 C 0 km/h
2539 05-10-2011 04:04:04 17.4 C 9.78 g/m*3 17.4 C 0 km/h
2540 05-10-2011 04:16:04 17.6 C 9.6 g/m*3 17.6 C 0 km/h
2541 05-10-2011 04:28:04 18 C 9.06 g/m*3 18 C 0 km/h
2542 05-10-2011 04:40:04 17.8 C 9.41 g/m*3 17.8 C 0 km/h
2543 05-10-2011 04:52:05 17.7 C 9.51 g/m*3 17.7 C 0 km/h
2544 05-10-2011 05:04:05 17.7 C 9.51 g/m*3 17.7 C 0 km/h
2545 05-10-2011 05:16:05 17.4 C 9.48 g/m*3 17.4 C 0 km/h
2546 05-10-2011 05:28:05 17.3 C 9.58 g/m*3 17.3 C 0 km/h
2547 05-10-2011 05:40:05 17.2 C 9.67 g/m*3 17.2 C 0 km/h
2548 05-10-2011 05:52:05 17.2 C 9.67 g/m*3 17.2 C 0 km/h
2549 05-10-2011 06:04:05 17.2 C 9.81 g/m*3 17.2 C 0 km/h
2550 05-10-2011 06:16:05 17.2 C 9.67 g/m*3 17.2 C 0 km/h
Sensor: Nr:Datum:Temp:Abs-Feuchte:Windchill:Wind:
Aussen-T/F 2551 05-10-2011 06:28:05 17.2 C 9.67 g/m*3 17.2 C 0 km/h
2552 05-10-2011 06:40:05 17.2 C 9.67 g/m*3 17.2 C 0 km/h
2553 05-10-2011 06:52:05 17.1 C 9.61 g/m*3 17.1 C 0 km/h
2554 05-10-2011 07:04:05 17 C 9.69 g/m*3 17 C 0 km/h
2555 05-10-2011 07:16:05 16.7 C 9.95 g/m*3 16.7 C 0 km/h
2556 05-10-2011 07:28:05 16.5 C 9.97 g/m*3 16.5 C 0 km/h
2557 05-10-2011 07:40:03 16.7 C 9.95 g/m*3 16.7 C 0 km/h
2558 05-10-2011 07:52:02 16.6 C 9.89 g/m*3 16.6 C 0 km/h
2559 05-10-2011 08:04:03 16.8 C 10.01 g/m*3 16.8 C 0 km/h
2560 05-10-2011 08:16:02 16.9 C 10.07 g/m*3 16.9 C 0 km/h
2561 05-10-2011 08:28:02 16.9 C 9.92 g/m*3 16.9 C 0 km/h
2562 05-10-2011 08:40:02 17.1 C 9.75 g/m*3 17.1 C 0 km/h
2563 05-10-2011 08:52:01 17.2 C 9.67 g/m*3 17.2 C 0 km/h
2564 05-10-2011 09:04:01 17.3 C 9.72 g/m*3 17.3 C 0 km/h
2565 05-10-2011 09:16:02 17.5 C 9.69 g/m*3 17.5 C 0 km/h
2566 05-10-2011 09:28:02 17.4 C 9.78 g/m*3 17.4 C 0 km/h
2567 05-10-2011 09:40:01 16.1 C 10.01 g/m*3 16.1 C 0 km/h
2568 05-10-2011 09:52:02 15.9 C 10.43 g/m*3 15.9 C 0 km/h
2569 05-10-2011 10:04:02 16.2 C 10.62 g/m*3 16.2 C 0 km/h
2570 05-10-2011 10:16:02 16.9 C 10.5 g/m*3 16.9 C 0 km/h
2571 05-10-2011 10:28:02 17.2 C 10.4 g/m*3 17.2 C 0 km/h
2572 05-10-2011 10:40:02 17.5 C 10.29 g/m*3 17.5 C 0 km/h
2573 05-10-2011 10:52:02 17.9 C 9.92 g/m*3 17.9 C 0 km/h
2574 05-10-2011 11:04:01 17.9 C 9.92 g/m*3 17.9 C 0 km/h
2575 05-10-2011 11:16:02 18.3 C 9.85 g/m*3 18.3 C 0 km/h
Sensor: Nr:Datum:Temp:Abs-Feuchte:Windchill:Wind:
Aussen-T/F 2576 05-10-2011 11:28:02 18.5 C 9.81 g/m*3 18.5 C 0 km/h
2577 05-10-2011 11:40:02 18.5 C 9.49 g/m*3 18.5 C 0 km/h
2578 05-10-2011 11:52:02 18.5 C 9.65 g/m*3 18.5 C 0 km/h
2579 05-10-2011 12:04:02 18.8 C 9.34 g/m*3 18.8 C 0 km/h
2580 05-10-2011 12:16:02 19.3 C 8.96 g/m*3 19.3 C 0 km/h
2581 05-10-2011 12:28:02 20.1 C 9.04 g/m*3 20.1 C 0 km/h
2582 05-10-2011 12:40:02 20.6 C 8.95 g/m*3 20.6 C 0 km/h
2583 05-10-2011 12:52:01 19.8 C 8.71 g/m*3 19.8 C 0 km/h
2584 05-10-2011 13:04:02 19.5 C 8.56 g/m*3 19.5 C 0 km/h
2585 05-10-2011 13:16:01 19.5 C 8.39 g/m*3 19.5 C 0 km/h
2586 05-10-2011 13:28:01 19.8 C 8.03 g/m*3 19.8 C 0 km/h
2587 05-10-2011 13:40:01 20.1 C 7.65 g/m*3 20.1 C 0 km/h
2588 05-10-2011 13:52:01 20.4 C 7.78 g/m*3 20.4 C 0 km/h
2589 05-10-2011 14:04:01 20.3 C 7.56 g/m*3 20.3 C 0 km/h
2590 05-10-2011 14:16:02 20.5 C 7.65 g/m*3 20.5 C 0 km/h
2591 05-10-2011 14:28:02 20.6 C 7.7 g/m*3 20.6 C 0 km/h
2592 05-10-2011 14:40:01 20.5 C 7.65 g/m*3 20.5 C 0 km/h
2593 05-10-2011 14:52:03 20.4 C 7.78 g/m*3 20.4 C 0 km/h
2594 05-10-2011 15:04:02 20.8 C 7.97 g/m*3 20.8 C 0 km/h
2595 05-10-2011 15:16:02 21 C 7.69 g/m*3 21 C 0 km/h
2596 05-10-2011 15:28:02 20.7 C 7.74 g/m*3 20.7 C 0 km/h
2597 05-10-2011 15:40:02 21.1 C 7.92 g/m*3 21.1 C 0 km/h
2598 05-10-2011 15:52:02 20.7 C 7.92 g/m*3 20.7 C 0 km/h
2599 05-10-2011 16:04:02 20.8 C 7.79 g/m*3 20.8 C 0 km/h
2600 05-10-2011 16:16:02 21.1 C 7.74 g/m*3 21.1 C 0 km/h
Sensor: Nr:Datum:Temp:Abs-Feuchte:Windchill:Wind:
Aussen-T/F 2601 05-10-2011 16:28:02 22 C 7.96 g/m*3 22 C 0 km/h
2602 05-10-2011 16:40:02 20.9 C 7.65 g/m*3 20.9 C 0 km/h
2603 05-10-2011 16:52:01 20.4 C 7.61 g/m*3 20.4 C 0 km/h
2604 05-10-2011 17:04:02 20.3 C 7.74 g/m*3 20.3 C 0 km/h
2605 05-10-2011 17:16:01 20.4 C 7.61 g/m*3 20.4 C 0 km/h
2606 05-10-2011 17:28:01 20.2 C 7.69 g/m*3 20.2 C 0 km/h
2607 05-10-2011 17:40:02 20 C 7.78 g/m*3 20 C 0 km/h
2608 05-10-2011 17:52:02 19.9 C 7.9 g/m*3 19.9 C 0 km/h
2609 05-10-2011 18:04:02 19.7 C 7.98 g/m*3 19.7 C 0 km/h
2610 05-10-2011 18:16:01 19.6 C 7.93 g/m*3 19.6 C 0 km/h
2611 05-10-2011 18:28:01 19.4 C 8.01 g/m*3 19.4 C 0 km/h
2612 05-10-2011 18:40:02 19.2 C 8.08 g/m*3 19.2 C 0 km/h
2613 05-10-2011 18:52:01 19 C 7.99 g/m*3 19 C 0 km/h
2614 05-10-2011 19:04:02 18.9 C 8.26 g/m*3 18.9 C 0 km/h
2615 05-10-2011 19:16:02 18.6 C 8.28 g/m*3 18.6 C 0 km/h
2616 05-10-2011 19:28:02 18.5 C 8.23 g/m*3 18.5 C 0 km/h
2617 05-10-2011 19:40:02 18.4 C 8.18 g/m*3 18.4 C 0 km/h
2618 05-10-2011 19:52:01 18.4 C 8.18 g/m*3 18.4 C 0 km/h
2619 05-10-2011 20:04:02 18.4 C 8.34 g/m*3 18.4 C 0 km/h
2620 05-10-2011 20:16:02 18 C 8.29 g/m*3 18 C 0 km/h
2621 05-10-2011 20:28:02 17.6 C 8.4 g/m*3 17.6 C 0 km/h
2622 05-10-2011 20:40:01 17.2 C 8.64 g/m*3 17.2 C 0 km/h
2623 05-10-2011 20:52:02 16.7 C 8.53 g/m*3 16.7 C 0 km/h
2624 05-10-2011 21:04:01 16.3 C 8.74 g/m*3 16.3 C 0 km/h
2625 05-10-2011 21:17:01 15.8 C 8.75 g/m*3 15.8 C 0 km/h
Sensor: Nr:Datum:Temp:Abs-Feuchte:Windchill:Wind:
Aussen-T/F 2626 05-10-2011 21:29:01 15.7 C 8.83 g/m*3 15.7 C 0 km/h
2627 05-10-2011 21:41:01 16 C 8.86 g/m*3 16 C 0 km/h
2628 05-10-2011 21:53:01 16.1 C 8.91 g/m*3 16.1 C 0 km/h
2629 05-10-2011 22:05:02 15.3 C 8.75 g/m*3 15.3 C 0 km/h
2630 05-10-2011 22:17:02 15 C 8.85 g/m*3 15 C 0 km/h
2631 05-10-2011 22:29:02 15 C 8.72 g/m*3 15 C 0 km/h
2632 05-10-2011 22:41:02 14.7 C 8.94 g/m*3 14.7 C 0 km/h
2633 05-10-2011 22:53:02 14.8 C 8.99 g/m*3 14.8 C 0 km/h
2634 05-10-2011 23:05:02 14.7 C 9.07 g/m*3 14.7 C 0 km/h
2635 05-10-2011 23:17:02 14.8 C 9.12 g/m*3 14.8 C 0 km/h
2636 05-10-2011 23:29:02 14.5 C 8.95 g/m*3 14.5 C 0 km/h
2637 05-10-2011 23:41:02 14.5 C 9.08 g/m*3 14.5 C 0 km/h
2638 05-10-2011 23:53:02 14.4 C 8.9 g/m*3 14.4 C 0 km/h
2639 06-10-2011 00:05:02 13.9 C 8.87 g/m*3 13.9 C 0 km/h
2640 06-10-2011 00:17:02 13.1 C 8.67 g/m*3 13.1 C 0 km/h
2641 06-10-2011 00:29:02 12.8 C 8.96 g/m*3 12.8 C 0 km/h
2642 06-10-2011 00:41:02 12.8 C 9.07 g/m*3 12.8 C 0 km/h
2643 06-10-2011 00:53:02 12.5 C 8.91 g/m*3 12.5 C 0 km/h
2644 06-10-2011 01:05:02 12.4 C 9.07 g/m*3 12.4 C 0 km/h
2645 06-10-2011 01:17:02 13 C 9.41 g/m*3 13 C 0 km/h
2646 06-10-2011 01:29:02 12.9 C 9.47 g/m*3 12.9 C 0 km/h
2647 06-10-2011 01:41:02 13 C 9.41 g/m*3 13 C 0 km/h
2648 06-10-2011 01:53:02 13.2 C 9.64 g/m*3 13.2 C 0 km/h
2649 06-10-2011 02:05:03 13.7 C 9.83 g/m*3 13.7 C 0 km/h
2650 06-10-2011 02:17:03 13.9 C 9.59 g/m*3 13.9 C 0 km/h
Sensor: Nr:Datum:Temp:Abs-Feuchte:Windchill:Wind:
Aussen-T/F 2651 06-10-2011 02:29:03 14 C 9.41 g/m*3 14 C 0 km/h
2652 06-10-2011 02:41:03 14.3 C 9.21 g/m*3 14.3 C 0 km/h
2653 06-10-2011 02:53:03 14 C 9.17 g/m*3 14 C 0 km/h
2654 06-10-2011 03:05:03 14.1 C 9.22 g/m*3 14.1 C 0 km/h
2655 06-10-2011 03:17:03 14.5 C 8.58 g/m*3 14.5 C 0 km/h
2656 06-10-2011 03:29:03 14.4 C 8.53 g/m*3 14.4 C 0 km/h
2657 06-10-2011 03:41:03 14.3 C 8.23 g/m*3 14.3 C 0 km/h
2658 06-10-2011 03:53:03 14.4 C 8.41 g/m*3 14.4 C 0 km/h
2659 06-10-2011 04:05:03 14.1 C 8.25 g/m*3 14.1 C 0 km/h
2660 06-10-2011 04:17:03 14 C 8.56 g/m*3 14 C 0 km/h
2661 06-10-2011 04:29:03 13.7 C 8.53 g/m*3 13.7 C 0 km/h
2662 06-10-2011 04:41:03 14.3 C 8.48 g/m*3 14.3 C 0 km/h
2663 06-10-2011 04:53:03 14.5 C 8.33 g/m*3 14.5 C 0 km/h
2664 06-10-2011 05:05:03 15.3 C 8.23 g/m*3 15.3 C 0 km/h
2665 06-10-2011 05:17:03 15 C 7.95 g/m*3 15 C 0 km/h
2666 06-10-2011 05:29:03 15.4 C 8.15 g/m*3 15.4 C 0 km/h
2667 06-10-2011 05:41:03 15.5 C 8.2 g/m*3 15.5 C 0 km/h
2668 06-10-2011 05:53:03 15.5 C 8.06 g/m*3 15.5 C 0 km/h
2669 06-10-2011 06:05:02 15.6 C 8.11 g/m*3 15.6 C 0 km/h
2670 06-10-2011 06:17:01 15.8 C 8.08 g/m*3 15.8 C 0 km/h
2671 06-10-2011 06:29:01 16.4 C 7.96 g/m*3 16.4 C 0 km/h
2672 06-10-2011 06:41:01 16.4 C 7.96 g/m*3 16.4 C 0 km/h
2673 06-10-2011 06:53:02 17 C 7.96 g/m*3 17 C 0 km/h
2674 06-10-2011 07:05:02 16.8 C 8.01 g/m*3 16.8 C 0 km/h
2675 06-10-2011 07:17:01 16.8 C 8.01 g/m*3 16.8 C 0 km/h
Sensor: Nr:Datum:Temp:Abs-Feuchte:Windchill:Wind:
Aussen-T/F 2676 06-10-2011 07:29:01 17 C 7.81 g/m*3 17 C 0 km/h
2677 06-10-2011 07:41:02 17 C 7.81 g/m*3 17 C 0 km/h
2678 06-10-2011 07:53:02 16.9 C 7.91 g/m*3 16.9 C 0 km/h
2679 06-10-2011 08:05:02 16.8 C 8.01 g/m*3 16.8 C 0 km/h
2680 06-10-2011 08:17:02 16.9 C 8.05 g/m*3 16.9 C 0 km/h
2681 06-10-2011 08:29:02 16.8 C 8.01 g/m*3 16.8 C 0 km/h
2682 06-10-2011 08:41:02 16.8 C 8.01 g/m*3 16.8 C 0 km/h
2683 06-10-2011 08:53:02 16.8 C 8.01 g/m*3 16.8 C 0 km/h
2684 06-10-2011 09:05:02 16.8 C 8.15 g/m*3 16.8 C 0 km/h
2685 06-10-2011 09:17:02 16.9 C 8.2 g/m*3 16.9 C 0 km/h
2686 06-10-2011 09:29:02 17 C 7.96 g/m*3 17 C 0 km/h
2687 06-10-2011 09:41:02 17.4 C 8.15 g/m*3 17.4 C 0 km/h
2688 06-10-2011 09:53:02 17.5 C 8.05 g/m*3 17.5 C 0 km/h
2689 06-10-2011 10:05:02 17.7 C 8.15 g/m*3 17.7 C 0 km/h
2690 06-10-2011 10:17:03 17.9 C 8.09 g/m*3 17.9 C 0 km/h
2691 06-10-2011 10:29:03 17.9 C 8.09 g/m*3 17.9 C 0 km/h
2692 06-10-2011 10:41:02 17.9 C 8.09 g/m*3 17.9 C 0 km/h
2693 06-10-2011 10:53:01 18 C 7.99 g/m*3 18 C 0 km/h
2694 06-10-2011 11:05:01 18.4 C 8.02 g/m*3 18.4 C 0 km/h
2695 06-10-2011 11:17:02 18.3 C 7.97 g/m*3 18.3 C 0 km/h
2696 06-10-2011 11:29:02 18.5 C 8.07 g/m*3 18.5 C 0 km/h
2697 06-10-2011 11:41:01 18.5 C 8.07 g/m*3 18.5 C 0 km/h
2698 06-10-2011 11:53:02 18.7 C 8.17 g/m*3 18.7 C 0 km/h
2699 06-10-2011 12:05:01 19 C 8.15 g/m*3 19 C 0 km/h
2700 06-10-2011 12:17:01 19.5 C 8.22 g/m*3 19.5 C 0 km/h
Sensor: Nr:Datum:Temp:Abs-Feuchte:Windchill:Wind:
Aussen-T/F 2701 06-10-2011 12:29:01 19.8 C 8.2 g/m*3 19.8 C 0 km/h
2702 06-10-2011 12:41:02 19.8 C 8.37 g/m*3 19.8 C 0 km/h
2703 06-10-2011 12:53:02 19.3 C 8.13 g/m*3 19.3 C 0 km/h
2704 06-10-2011 13:05:02 18.8 C 8.37 g/m*3 18.8 C 0 km/h
2705 06-10-2011 13:17:02 19 C 8.47 g/m*3 19 C 0 km/h
2706 06-10-2011 13:29:02 19.1 C 8.52 g/m*3 19.1 C 0 km/h
2707 06-10-2011 13:41:02 18.5 C 8.7 g/m*3 18.5 C 0 km/h
2708 06-10-2011 13:53:02 18.3 C 8.91 g/m*3 18.3 C 0 km/h
2709 06-10-2011 14:05:02 17.6 C 9.15 g/m*3 17.6 C 0 km/h
2710 06-10-2011 14:17:02 18.4 C 9.12 g/m*3 18.4 C 0 km/h
2711 06-10-2011 14:29:02 18.1 C 9.12 g/m*3 18.1 C 0 km/h
2712 06-10-2011 14:41:01 17.6 C 9.3 g/m*3 17.6 C 0 km/h
2713 06-10-2011 14:53:02 16.9 C 9.78 g/m*3 16.9 C 0 km/h
2714 06-10-2011 15:05:01 17.1 C 9.9 g/m*3 17.1 C 0 km/h
2715 06-10-2011 15:17:02 17.3 C 9.72 g/m*3 17.3 C 0 km/h
2716 06-10-2011 15:29:02 17 C 9.84 g/m*3 17 C 0 km/h
2717 06-10-2011 15:41:03 14.3 C 9.09 g/m*3 14.3 C 0 km/h
2718 06-10-2011 15:53:02 13 C 8.96 g/m*3 13 C 0 km/h
2719 06-10-2011 16:05:02 12.5 C 8.47 g/m*3 12.5 C 0 km/h
2720 06-10-2011 16:17:02 11.7 C 8.26 g/m*3 11.7 C 0 km/h
2721 06-10-2011 16:29:02 11.4 C 8.31 g/m*3 11.4 C 0 km/h
2722 06-10-2011 16:41:02 11.4 C 8.52 g/m*3 11.4 C 0 km/h
2723 06-10-2011 16:53:01 11.2 C 8.41 g/m*3 11.2 C 0 km/h
2724 06-10-2011 17:05:01 11 C 8.31 g/m*3 11 C 0 km/h
2725 06-10-2011 17:17:01 10.9 C 8.36 g/m*3 10.9 C 0 km/h
Sensor: Nr:Datum:Temp:Abs-Feuchte:Windchill:Wind:
Aussen-T/F 2726 06-10-2011 17:29:01 10.8 C 8.3 g/m*3 10.8 C 0 km/h
2727 06-10-2011 17:41:01 10.8 C 8.3 g/m*3 10.8 C 0 km/h
2728 06-10-2011 17:53:02 10.8 C 8.3 g/m*3 10.8 C 0 km/h
2729 06-10-2011 18:05:02 10.9 C 8.36 g/m*3 10.9 C 0 km/h
2730 06-10-2011 18:17:03 10.9 C 8.26 g/m*3 10.9 C 0 km/h
2731 06-10-2011 18:29:03 10.9 C 8.26 g/m*3 10.9 C 0 km/h
2732 06-10-2011 18:41:02 10.8 C 8.2 g/m*3 10.8 C 0 km/h
2733 06-10-2011 18:53:02 10.7 C 8.15 g/m*3 10.7 C 0 km/h
2734 06-10-2011 19:05:01 10.6 C 8.2 g/m*3 10.6 C 0 km/h
2735 06-10-2011 19:17:02 10.5 C 8.24 g/m*3 10.5 C 0 km/h
2736 06-10-2011 19:29:03 10.4 C 8.19 g/m*3 10.4 C 0 km/h
2737 06-10-2011 19:41:01 10.4 C 8.29 g/m*3 10.4 C 0 km/h
2738 06-10-2011 19:53:02 10.5 C 8.34 g/m*3 10.5 C 0 km/h
2739 06-10-2011 20:05:02 10.7 C 8.45 g/m*3 10.7 C 0 km/h
2740 06-10-2011 20:17:02 10.6 C 8.1 g/m*3 10.6 C 0 km/h
2741 06-10-2011 20:29:02 10.4 C 7.9 g/m*3 10.4 C 0 km/h
2742 06-10-2011 20:41:03 10.2 C 7.52 g/m*3 10.2 C 0 km/h
2743 06-10-2011 20:53:02 9.8 C 7.52 g/m*3 9.8 C 0 km/h
2744 06-10-2011 21:05:02 9.5 C 7.55 g/m*3 9.5 C 0 km/h
2745 06-10-2011 21:17:02 9.2 C 7.5 g/m*3 9.2 C 0 km/h
2746 06-10-2011 21:29:02 9 C 7.49 g/m*3 9 C 0 km/h
2747 06-10-2011 21:41:02 9 C 7.49 g/m*3 9 C 0 km/h
2748 06-10-2011 21:53:02 9 C 7.58 g/m*3 9 C 0 km/h
2749 06-10-2011 22:05:02 9.1 C 7.63 g/m*3 9.1 C 0 km/h
2750 06-10-2011 22:17:02 9.6 C 7.69 g/m*3 9.6 C 0 km/h
Sensor: Nr:Datum:Temp:Abs-Feuchte:Windchill:Wind:
Aussen-T/F 2751 06-10-2011 22:29:02 9.2 C 7.32 g/m*3 9.2 C 0 km/h
2752 06-10-2011 22:41:02 8.8 C 7.31 g/m*3 8.8 C 0 km/h
2753 06-10-2011 22:53:01 8.6 C 7.22 g/m*3 8.6 C 0 km/h
2754 06-10-2011 23:05:02 8.5 C 7.26 g/m*3 8.5 C 0 km/h
2755 06-10-2011 23:17:01 8.9 C 7.36 g/m*3 8.9 C 0 km/h
2756 06-10-2011 23:29:01 9.2 C 6.88 g/m*3 9.2 C 0 km/h
2757 06-10-2011 23:41:01 9.3 C 6.2 g/m*3 9.3 C 0 km/h
2758 06-10-2011 23:53:01 9.2 C 5.98 g/m*3 9.2 C 0 km/h
2759 07-10-2011 00:05:02 8.5 C 6.23 g/m*3 8.5 C 0 km/h
2760 07-10-2011 00:17:01 8.3 C 6.24 g/m*3 8.3 C 0 km/h
2761 07-10-2011 00:29:01 8.4 C 6.28 g/m*3 8.4 C 0 km/h
2762 07-10-2011 00:41:02 8.3 C 6.24 g/m*3 8.3 C 0 km/h
2763 07-10-2011 00:53:02 8.5 C 6.23 g/m*3 8.5 C 0 km/h
2764 07-10-2011 01:05:02 7.5 C 6.24 g/m*3 7.5 C 0 km/h
2765 07-10-2011 01:17:02 7.5 C 6.4 g/m*3 7.5 C 0 km/h
2766 07-10-2011 01:29:02 8 C 6.45 g/m*3 8 C 0 km/h
2767 07-10-2011 01:41:02 8.9 C 6.48 g/m*3 8.9 C 0 km/h
2768 07-10-2011 01:53:01 9.1 C 6.21 g/m*3 9.1 C 0 km/h
2769 07-10-2011 02:05:01 8.3 C 6.15 g/m*3 8.3 C 0 km/h
2770 07-10-2011 02:17:01 8.3 C 6.32 g/m*3 8.3 C 0 km/h
2771 07-10-2011 02:29:01 8.1 C 6.32 g/m*3 8.1 C 0 km/h
2772 07-10-2011 02:41:01 8.2 C 6.36 g/m*3 8.2 C 0 km/h
2773 07-10-2011 02:54:02 8.9 C 6.22 g/m*3 8.9 C 0 km/h
2774 07-10-2011 03:06:02 8.9 C 6.22 g/m*3 8.9 C 0 km/h
2775 07-10-2011 03:18:03 8.8 C 6.18 g/m*3 8.8 C 0 km/h
Sensor: Nr:Datum:Temp:Abs-Feuchte:Windchill:Wind:
Aussen-T/F 2776 07-10-2011 03:30:03 8.8 C 6.27 g/m*3 8.8 C 0 km/h
2777 07-10-2011 03:42:02 8.9 C 6.31 g/m*3 8.9 C 0 km/h
2778 07-10-2011 03:54:02 8.9 C 6.22 g/m*3 8.9 C 0 km/h
2779 07-10-2011 04:06:02 9 C 5.99 g/m*3 9 C 0 km/h
2780 07-10-2011 04:18:02 8.4 C 6.02 g/m*3 8.4 C 0 km/h
2781 07-10-2011 04:30:02 7.9 C 6.32 g/m*3 7.9 C 0 km/h
2782 07-10-2011 04:42:02 7.7 C 6.41 g/m*3 7.7 C 0 km/h
2783 07-10-2011 04:54:02 8 C 6.53 g/m*3 8 C 0 km/h
2784 07-10-2011 05:06:02 8.1 C 6.49 g/m*3 8.1 C 0 km/h
2785 07-10-2011 05:18:02 8.4 C 6.36 g/m*3 8.4 C 0 km/h
2786 07-10-2011 05:30:02 8.1 C 6.32 g/m*3 8.1 C 0 km/h
2787 07-10-2011 05:42:02 8.7 C 6.31 g/m*3 8.7 C 0 km/h
2788 07-10-2011 05:54:02 8.5 C 6.4 g/m*3 8.5 C 0 km/h
2789 07-10-2011 06:06:02 8.3 C 6.49 g/m*3 8.3 C 0 km/h
2790 07-10-2011 06:18:02 8.2 C 6.62 g/m*3 8.2 C 0 km/h
2791 07-10-2011 06:30:02 8.4 C 6.7 g/m*3 8.4 C 0 km/h
2792 07-10-2011 06:42:01 8.3 C 6.49 g/m*3 8.3 C 0 km/h
2793 07-10-2011 06:54:02 8 C 6.45 g/m*3 8 C 0 km/h
2794 07-10-2011 07:06:01 8.2 C 6.53 g/m*3 8.2 C 0 km/h
2795 07-10-2011 07:18:01 8.7 C 6.31 g/m*3 8.7 C 0 km/h
2796 07-10-2011 07:30:01 8.8 C 6.35 g/m*3 8.8 C 0 km/h
2797 07-10-2011 07:42:02 8.5 C 6.23 g/m*3 8.5 C 0 km/h
2798 07-10-2011 07:54:02 8 C 6.28 g/m*3 8 C 0 km/h
2799 07-10-2011 08:06:02 7.6 C 6.04 g/m*3 7.6 C 0 km/h
2800 07-10-2011 08:18:01 7.3 C 6 g/m*3 7.3 C 0 km/h
Sensor: Nr:Datum:Temp:Abs-Feuchte:Windchill:Wind:
Aussen-T/F 2801 07-10-2011 08:30:01 7.5 C 5.92 g/m*3 7.5 C 0 km/h
2802 07-10-2011 08:42:02 7.5 C 5.76 g/m*3 7.5 C 0 km/h
2803 07-10-2011 08:54:01 7.5 C 5.84 g/m*3 7.5 C 0 km/h
2804 07-10-2011 09:06:02 8.1 C 5.91 g/m*3 8.1 C 0 km/h
2805 07-10-2011 09:18:02 8.5 C 5.72 g/m*3 8.5 C 0 km/h
2806 07-10-2011 09:30:02 8.6 C 5.76 g/m*3 8.6 C 0 km/h
2807 07-10-2011 09:42:02 8.7 C 5.62 g/m*3 8.7 C 0 km/h
2808 07-10-2011 09:54:02 9.3 C 5.66 g/m*3 9.3 C 0 km/h
2809 07-10-2011 10:06:01 9.4 C 5.88 g/m*3 9.4 C 0 km/h
2810 07-10-2011 10:18:02 8.9 C 6.04 g/m*3 8.9 C 0 km/h
2811 07-10-2011 10:30:02 9.8 C 6.12 g/m*3 9.8 C 0 km/h
2812 07-10-2011 10:42:01 10 C 6.01 g/m*3 10 C 0 km/h
2813 07-10-2011 10:54:02 10.5 C 6.21 g/m*3 10.5 C 0 km/h
2814 07-10-2011 11:06:02 10.6 C 5.95 g/m*3 10.6 C 0 km/h
2815 07-10-2011 11:18:02 10.5 C 5.82 g/m*3 10.5 C 0 km/h
2816 07-10-2011 11:30:02 9.7 C 5.99 g/m*3 9.7 C 0 km/h
2817 07-10-2011 11:42:02 10.4 C 5.98 g/m*3 10.4 C 0 km/h
2818 07-10-2011 11:54:02 10.2 C 6.09 g/m*3 10.2 C 0 km/h
2819 07-10-2011 12:06:02 10.5 C 5.92 g/m*3 10.5 C 0 km/h
2820 07-10-2011 12:18:01 10.1 C 6.05 g/m*3 10.1 C 0 km/h
2821 07-10-2011 12:30:01 11.1 C 6.04 g/m*3 11.1 C 0 km/h
2822 07-10-2011 12:42:02 11.4 C 5.95 g/m*3 11.4 C 0 km/h
2823 07-10-2011 12:54:01 12.2 C 5.83 g/m*3 12.2 C 0 km/h
2824 07-10-2011 13:06:02 12.4 C 5.68 g/m*3 12.4 C 0 km/h
2825 07-10-2011 13:18:01 12.6 C 5.97 g/m*3 12.6 C 0 km/h
Sensor: Nr:Datum:Temp:Abs-Feuchte:Windchill:Wind:
Aussen-T/F 2826 07-10-2011 13:30:01 12.7 C 5.68 g/m*3 12.7 C 0 km/h
2827 07-10-2011 13:42:01 13 C 5.78 g/m*3 13 C 0 km/h
2828 07-10-2011 13:54:01 12.5 C 5.72 g/m*3 12.5 C 0 km/h
2829 07-10-2011 14:06:02 13 C 5.78 g/m*3 13 C 0 km/h
2830 07-10-2011 14:18:02 12.2 C 5.83 g/m*3 12.2 C 0 km/h
2831 07-10-2011 14:30:02 11.1 C 6.35 g/m*3 11.1 C 0 km/h
2832 07-10-2011 14:42:01 11.2 C 6.49 g/m*3 11.2 C 0 km/h
2833 07-10-2011 14:54:02 10.4 C 6.65 g/m*3 10.4 C 0 km/h
2834 07-10-2011 15:06:01 10.2 C 6.95 g/m*3 10.2 C 0 km/h
2835 07-10-2011 15:18:01 10.8 C 7.41 g/m*3 10.8 C 0 km/h
2836 07-10-2011 15:30:02 11.3 C 7.14 g/m*3 11.3 C 0 km/h
2837 07-10-2011 15:42:01 11.6 C 6.34 g/m*3 11.6 C 0 km/h
2838 07-10-2011 15:54:03 11.7 C 5.86 g/m*3 11.7 C 0 km/h
2839 07-10-2011 16:06:02 11.7 C 5.75 g/m*3 11.7 C 0 km/h
2840 07-10-2011 16:18:02 11.8 C 5.79 g/m*3 11.8 C 0 km/h
2841 07-10-2011 16:30:03 12.2 C 5.94 g/m*3 12.2 C 0 km/h
2842 07-10-2011 16:42:02 12.3 C 6.08 g/m*3 12.3 C 0 km/h
2843 07-10-2011 16:54:02 13.7 C 5.8 g/m*3 13.7 C 0 km/h
2844 07-10-2011 17:06:01 15.3 C 6.01 g/m*3 15.3 C 0 km/h
2845 07-10-2011 17:18:02 12.6 C 6.08 g/m*3 12.6 C 0 km/h
2846 07-10-2011 17:30:02 12.4 C 6.34 g/m*3 12.4 C 0 km/h
2847 07-10-2011 17:42:02 12 C 6.39 g/m*3 12 C 0 km/h
2848 07-10-2011 17:54:02 11.9 C 6.67 g/m*3 11.9 C 0 km/h
2849 07-10-2011 18:06:03 11.9 C 6.67 g/m*3 11.9 C 0 km/h
2850 07-10-2011 18:18:02 11.8 C 6.63 g/m*3 11.8 C 0 km/h
Sensor: Nr:Datum:Temp:Abs-Feuchte:Windchill:Wind:
Aussen-T/F 2851 07-10-2011 18:30:02 11.8 C 6.1 g/m*3 11.8 C 0 km/h
2852 07-10-2011 18:42:02 12 C 5.65 g/m*3 12 C 0 km/h
2853 07-10-2011 18:54:01 12 C 5.33 g/m*3 12 C 0 km/h
2854 07-10-2011 19:06:02 12 C 5.33 g/m*3 12 C 0 km/h
2855 07-10-2011 19:18:01 11.5 C 5.37 g/m*3 11.5 C 0 km/h
2856 07-10-2011 19:30:01 11.8 C 5.47 g/m*3 11.8 C 0 km/h
2857 07-10-2011 19:42:01 11.4 C 5.65 g/m*3 11.4 C 0 km/h
2858 07-10-2011 19:54:01 11.8 C 5.37 g/m*3 11.8 C 0 km/h
2859 07-10-2011 20:06:01 11.3 C 5.61 g/m*3 11.3 C 0 km/h
2860 07-10-2011 20:18:02 11.1 C 5.64 g/m*3 11.1 C 0 km/h
2861 07-10-2011 20:30:02 10.9 C 5.77 g/m*3 10.9 C 0 km/h
2862 07-10-2011 20:42:01 10.7 C 5.89 g/m*3 10.7 C 0 km/h
2863 07-10-2011 20:54:03 11.4 C 5.65 g/m*3 11.4 C 0 km/h
2864 07-10-2011 21:06:02 11 C 5.71 g/m*3 11 C 0 km/h
2865 07-10-2011 21:18:03 10.4 C 5.88 g/m*3 10.4 C 0 km/h
2866 07-10-2011 21:30:03 10.2 C 6.09 g/m*3 10.2 C 0 km/h
2867 07-10-2011 21:42:02 10.1 C 6.34 g/m*3 10.1 C 0 km/h
2868 07-10-2011 21:54:03 9.4 C 6.6 g/m*3 9.4 C 0 km/h
2869 07-10-2011 22:06:02 9.2 C 6.79 g/m*3 9.2 C 0 km/h
2870 07-10-2011 22:18:02 8.8 C 6.88 g/m*3 8.8 C 0 km/h
2871 07-10-2011 22:30:02 8.9 C 7.01 g/m*3 8.9 C 0 km/h
2872 07-10-2011 22:43:01 9.1 C 6.92 g/m*3 9.1 C 0 km/h
2873 07-10-2011 22:55:01 9.2 C 6.88 g/m*3 9.2 C 0 km/h
2874 07-10-2011 23:07:01 9.6 C 6.69 g/m*3 9.6 C 0 km/h
2875 07-10-2011 23:19:01 9.6 C 6.6 g/m*3 9.6 C 0 km/h
Sensor: Nr:Datum:Temp:Abs-Feuchte:Windchill:Wind:
Aussen-T/F 2876 07-10-2011 23:31:01 9.5 C 6.46 g/m*3 9.5 C 0 km/h
2877 07-10-2011 23:43:01 9.6 C 6.6 g/m*3 9.6 C 0 km/h
2878 07-10-2011 23:55:01 9.3 C 6.47 g/m*3 9.3 C 0 km/h
2879 08-10-2011 00:07:01 9.3 C 6.65 g/m*3 9.3 C 0 km/h
2880 08-10-2011 00:19:02 9 C 6.79 g/m*3 9 C 0 km/h
2881 08-10-2011 00:31:02 8.8 C 6.96 g/m*3 8.8 C 0 km/h
2882 08-10-2011 00:43:02 8.8 C 7.14 g/m*3 8.8 C 0 km/h
2883 08-10-2011 00:55:02 9.1 C 7.1 g/m*3 9.1 C 0 km/h
2884 08-10-2011 01:07:02 9.1 C 7.01 g/m*3 9.1 C 0 km/h
2885 08-10-2011 01:19:02 8.9 C 7.1 g/m*3 8.9 C 0 km/h
2886 08-10-2011 01:31:02 8.7 C 7.09 g/m*3 8.7 C 0 km/h
2887 08-10-2011 01:43:02 8.7 C 7.18 g/m*3 8.7 C 0 km/h
2888 08-10-2011 01:55:02 8.9 C 7.27 g/m*3 8.9 C 0 km/h
2889 08-10-2011 02:07:02 9.1 C 7.01 g/m*3 9.1 C 0 km/h
2890 08-10-2011 02:19:02 8.9 C 6.83 g/m*3 8.9 C 0 km/h
2891 08-10-2011 02:31:02 9 C 6.7 g/m*3 9 C 0 km/h
2892 08-10-2011 02:43:02 9 C 6.7 g/m*3 9 C 0 km/h
2893 08-10-2011 02:55:02 9 C 6.7 g/m*3 9 C 0 km/h
2894 08-10-2011 03:07:02 9.1 C 6.74 g/m*3 9.1 C 0 km/h
2895 08-10-2011 03:19:02 8.6 C 6.7 g/m*3 8.6 C 0 km/h
2896 08-10-2011 03:31:02 8.7 C 6.83 g/m*3 8.7 C 0 km/h
2897 08-10-2011 03:43:02 8.9 C 6.75 g/m*3 8.9 C 0 km/h
2898 08-10-2011 03:55:02 8.8 C 6.61 g/m*3 8.8 C 0 km/h
2899 08-10-2011 04:07:02 9 C 6.44 g/m*3 9 C 0 km/h
2900 08-10-2011 04:19:02 8.8 C 6.35 g/m*3 8.8 C 0 km/h
Sensor: Nr:Datum:Temp:Abs-Feuchte:Windchill:Wind:
Aussen-T/F 2901 08-10-2011 04:31:02 9.2 C 6.43 g/m*3 9.2 C 0 km/h
2902 08-10-2011 04:43:02 9 C 6.08 g/m*3 9 C 0 km/h
2903 08-10-2011 04:55:03 8.6 C 6.1 g/m*3 8.6 C 0 km/h
2904 08-10-2011 05:07:03 8.1 C 6.24 g/m*3 8.1 C 0 km/h
2905 08-10-2011 05:19:03 8.2 C 6.2 g/m*3 8.2 C 0 km/h
2906 08-10-2011 05:31:03 8.5 C 6.06 g/m*3 8.5 C 0 km/h
2907 08-10-2011 05:43:03 8.3 C 5.98 g/m*3 8.3 C 0 km/h
2908 08-10-2011 05:55:03 8.2 C 6.03 g/m*3 8.2 C 0 km/h
2909 08-10-2011 06:07:03 7.9 C 6.08 g/m*3 7.9 C 0 km/h
2910 08-10-2011 06:19:03 7.8 C 6.12 g/m*3 7.8 C 0 km/h
2911 08-10-2011 06:31:03 7.3 C 6.16 g/m*3 7.3 C 0 km/h
2912 08-10-2011 06:43:03 7.8 C 6.28 g/m*3 7.8 C 0 km/h
2913 08-10-2011 06:55:03 7.6 C 6.28 g/m*3 7.6 C 0 km/h
2914 08-10-2011 07:07:03 7.5 C 6.24 g/m*3 7.5 C 0 km/h
2915 08-10-2011 07:19:03 7.5 C 6.24 g/m*3 7.5 C 0 km/h
2916 08-10-2011 07:31:03 7.2 C 5.89 g/m*3 7.2 C 0 km/h
2917 08-10-2011 07:43:03 7.1 C 6.08 g/m*3 7.1 C 0 km/h
2918 08-10-2011 07:55:03 7.4 C 6.12 g/m*3 7.4 C 0 km/h
2919 08-10-2011 08:07:02 7.2 C 5.97 g/m*3 7.2 C 0 km/h
2920 08-10-2011 08:19:01 7.4 C 6.12 g/m*3 7.4 C 0 km/h
2921 08-10-2011 08:31:01 7.7 C 6.16 g/m*3 7.7 C 0 km/h
2922 08-10-2011 08:43:01 7.7 C 6.08 g/m*3 7.7 C 0 km/h
2923 08-10-2011 08:55:01 7.8 C 6.04 g/m*3 7.8 C 0 km/h
2924 08-10-2011 09:07:01 8.6 C 6.02 g/m*3 8.6 C 0 km/h
2925 08-10-2011 09:19:02 8.9 C 5.96 g/m*3 8.9 C 0 km/h
Sensor: Nr:Datum:Temp:Abs-Feuchte:Windchill:Wind:
Aussen-T/F 2926 08-10-2011 09:31:01 8.9 C 5.96 g/m*3 8.9 C 0 km/h
2927 08-10-2011 09:43:01 8.9 C 6.04 g/m*3 8.9 C 0 km/h
2928 08-10-2011 09:55:02 9.6 C 6.14 g/m*3 9.6 C 0 km/h
2929 08-10-2011 10:07:01 9.8 C 6.03 g/m*3 9.8 C 0 km/h
2930 08-10-2011 10:19:02 10.2 C 5.8 g/m*3 10.2 C 0 km/h
2931 08-10-2011 10:31:01 10.6 C 5.86 g/m*3 10.6 C 0 km/h
2932 08-10-2011 10:43:01 10.8 C 5.93 g/m*3 10.8 C 0 km/h
2933 08-10-2011 10:55:02 11.1 C 5.94 g/m*3 11.1 C 0 km/h
2934 08-10-2011 11:07:02 11.5 C 5.78 g/m*3 11.5 C 0 km/h
2935 08-10-2011 11:19:02 12 C 5.75 g/m*3 12 C 0 km/h
2936 08-10-2011 11:31:02 11.2 C 5.47 g/m*3 11.2 C 0 km/h
2937 08-10-2011 11:43:02 10.3 C 5.55 g/m*3 10.3 C 0 km/h
2938 08-10-2011 11:55:01 10.5 C 5.53 g/m*3 10.5 C 0 km/h
2939 08-10-2011 12:07:02 9.8 C 5.66 g/m*3 9.8 C 0 km/h
2940 08-10-2011 12:19:01 9.2 C 6.16 g/m*3 9.2 C 0 km/h
2941 08-10-2011 12:31:02 8.8 C 6.44 g/m*3 8.8 C 0 km/h
2942 08-10-2011 12:43:02 8.7 C 6.4 g/m*3 8.7 C 0 km/h
2943 08-10-2011 12:55:01 9.3 C 7.1 g/m*3 9.3 C 0 km/h
2944 08-10-2011 13:07:02 9.9 C 7.47 g/m*3 9.9 C 0 km/h
2945 08-10-2011 13:19:01 10.4 C 7.13 g/m*3 10.4 C 0 km/h
2946 08-10-2011 13:31:02 10.2 C 7.04 g/m*3 10.2 C 0 km/h
2947 08-10-2011 13:43:02 10.5 C 6.3 g/m*3 10.5 C 0 km/h
2948 08-10-2011 13:55:01 10.6 C 6.25 g/m*3 10.6 C 0 km/h
2949 08-10-2011 14:07:02 11.1 C 6.04 g/m*3 11.1 C 0 km/h
2950 08-10-2011 14:19:02 11.5 C 5.89 g/m*3 11.5 C 0 km/h
Sensor: Nr:Datum:Temp:Abs-Feuchte:Windchill:Wind:
Aussen-T/F 2951 08-10-2011 14:31:01 11.4 C 5.95 g/m*3 11.4 C 0 km/h
2952 08-10-2011 14:43:01 11.1 C 5.84 g/m*3 11.1 C 0 km/h
2953 08-10-2011 14:55:02 11.1 C 5.74 g/m*3 11.1 C 0 km/h
2954 08-10-2011 15:07:01 11.6 C 6.13 g/m*3 11.6 C 0 km/h
2955 08-10-2011 15:19:02 12.2 C 5.83 g/m*3 12.2 C 0 km/h
2956 08-10-2011 15:31:02 12.4 C 5.35 g/m*3 12.4 C 0 km/h
2957 08-10-2011 15:43:02 12.6 C 4.98 g/m*3 12.6 C 0 km/h
2958 08-10-2011 15:55:02 12.8 C 5.26 g/m*3 12.8 C 0 km/h
2959 08-10-2011 16:07:03 12.8 C 5.15 g/m*3 12.8 C 0 km/h
2960 08-10-2011 16:19:02 13 C 5.1 g/m*3 13 C 0 km/h
2961 08-10-2011 16:31:02 13.1 C 5.14 g/m*3 13.1 C 0 km/h
2962 08-10-2011 16:43:02 14.5 C 5.1 g/m*3 14.5 C 0 km/h
2963 08-10-2011 16:55:01 13 C 4.88 g/m*3 13 C 0 km/h
2964 08-10-2011 17:07:02 11.3 C 5.41 g/m*3 11.3 C 0 km/h
2965 08-10-2011 17:19:01 9.7 C 6.18 g/m*3 9.7 C 0 km/h
2966 08-10-2011 17:31:01 9 C 6.44 g/m*3 9 C 0 km/h
2967 08-10-2011 17:43:01 9 C 6.52 g/m*3 9 C 0 km/h
2968 08-10-2011 17:55:01 8.7 C 6.66 g/m*3 8.7 C 0 km/h
2969 08-10-2011 18:07:01 8.2 C 6.45 g/m*3 8.2 C 0 km/h
2970 08-10-2011 18:19:02 8.1 C 6.74 g/m*3 8.1 C 0 km/h
2971 08-10-2011 18:31:01 8.4 C 6.87 g/m*3 8.4 C 0 km/h
2972 08-10-2011 18:43:01 7.7 C 6.73 g/m*3 7.7 C 0 km/h
2973 08-10-2011 18:55:02 7.3 C 6.64 g/m*3 7.3 C 0 km/h
2974 08-10-2011 19:07:01 7.2 C 6.75 g/m*3 7.2 C 0 km/h
2975 08-10-2011 19:19:02 7.2 C 6.75 g/m*3 7.2 C 0 km/h
Sensor: Nr:Datum:Temp:Abs-Feuchte:Windchill:Wind:
Aussen-T/F 2976 08-10-2011 19:31:01 7.4 C 6.92 g/m*3 7.4 C 0 km/h
2977 08-10-2011 19:43:01 7.5 C 7.04 g/m*3 7.5 C 0 km/h
2978 08-10-2011 19:55:02 7.6 C 7.09 g/m*3 7.6 C 0 km/h
2979 08-10-2011 20:07:02 7.8 C 7.18 g/m*3 7.8 C 0 km/h
2980 08-10-2011 20:19:02 7.9 C 7.23 g/m*3 7.9 C 0 km/h
2981 08-10-2011 20:31:02 7.6 C 7.09 g/m*3 7.6 C 0 km/h
2982 08-10-2011 20:43:02 7.7 C 7.14 g/m*3 7.7 C 0 km/h
2983 08-10-2011 20:55:01 7.9 C 7.23 g/m*3 7.9 C 0 km/h
2984 08-10-2011 21:07:01 7.9 C 7.31 g/m*3 7.9 C 0 km/h
2985 08-10-2011 21:19:01 8 C 7.28 g/m*3 8 C 0 km/h
2986 08-10-2011 21:31:02 7.9 C 7.31 g/m*3 7.9 C 0 km/h
2987 08-10-2011 21:43:02 7.9 C 7.31 g/m*3 7.9 C 0 km/h
2988 08-10-2011 21:55:02 7.8 C 7.26 g/m*3 7.8 C 0 km/h
2989 08-10-2011 22:07:02 7.6 C 7.09 g/m*3 7.6 C 0 km/h
2990 08-10-2011 22:19:02 7.2 C 6.83 g/m*3 7.2 C 0 km/h
2991 08-10-2011 22:32:03 7.1 C 6.86 g/m*3 7.1 C 0 km/h
2992 08-10-2011 22:44:03 6.6 C 6.64 g/m*3 6.6 C 0 km/h
2993 08-10-2011 22:56:03 6.4 C 6.63 g/m*3 6.4 C 0 km/h
2994 08-10-2011 23:08:03 6.2 C 6.55 g/m*3 6.2 C 0 km/h
2995 08-10-2011 23:20:03 6.4 C 6.63 g/m*3 6.4 C 0 km/h
2996 08-10-2011 23:32:03 6.3 C 6.66 g/m*3 6.3 C 0 km/h
2997 08-10-2011 23:44:03 6.5 C 6.75 g/m*3 6.5 C 0 km/h
2998 08-10-2011 23:56:03 6.7 C 6.91 g/m*3 6.7 C 0 km/h
2999 09-10-2011 00:08:03 6.8 C 6.96 g/m*3 6.8 C 0 km/h
3000 09-10-2011 00:20:04 7 C 6.97 g/m*3 7 C 0 km/h
Sensor: Nr:Datum:Temp:Abs-Feuchte:Windchill:Wind:
Aussen-T/F 3001 09-10-2011 00:32:04 7 C 6.97 g/m*3 7 C 0 km/h
3002 09-10-2011 00:44:04 7.1 C 7.02 g/m*3 7.1 C 0 km/h
3003 09-10-2011 00:56:04 7 C 6.97 g/m*3 7 C 0 km/h
3004 09-10-2011 01:08:04 6.6 C 6.87 g/m*3 6.6 C 0 km/h
3005 09-10-2011 01:20:04 6.6 C 6.87 g/m*3 6.6 C 0 km/h
3006 09-10-2011 01:32:04 6.7 C 6.91 g/m*3 6.7 C 0 km/h
3007 09-10-2011 01:44:04 6.7 C 6.91 g/m*3 6.7 C 0 km/h
3008 09-10-2011 01:56:04 6.6 C 6.87 g/m*3 6.6 C 0 km/h
3009 09-10-2011 02:08:04 6.8 C 6.96 g/m*3 6.8 C 0 km/h
3010 09-10-2011 02:20:04 6.9 C 7.08 g/m*3 6.9 C 0 km/h
3011 09-10-2011 02:32:04 6.9 C 7.08 g/m*3 6.9 C 0 km/h
3012 09-10-2011 02:44:04 7 C 7.05 g/m*3 7 C 0 km/h
3013 09-10-2011 02:56:04 7.1 C 7.1 g/m*3 7.1 C 0 km/h
3014 09-10-2011 03:08:05 7.1 C 7.1 g/m*3 7.1 C 0 km/h
3015 09-10-2011 03:20:05 7.1 C 7.1 g/m*3 7.1 C 0 km/h
3016 09-10-2011 03:32:05 7.1 C 7.1 g/m*3 7.1 C 0 km/h
3017 09-10-2011 03:44:05 6.8 C 7.04 g/m*3 6.8 C 0 km/h
3018 09-10-2011 03:56:05 6.4 C 6.85 g/m*3 6.4 C 0 km/h
3019 09-10-2011 04:08:05 6.2 C 6.69 g/m*3 6.2 C 0 km/h
3020 09-10-2011 04:20:05 6.6 C 6.95 g/m*3 6.6 C 0 km/h
3021 09-10-2011 04:32:05 6.5 C 6.9 g/m*3 6.5 C 0 km/h
3022 09-10-2011 04:44:05 6.5 C 6.9 g/m*3 6.5 C 0 km/h
3023 09-10-2011 04:56:05 6.6 C 6.95 g/m*3 6.6 C 0 km/h
3024 09-10-2011 05:08:05 6.9 C 7.08 g/m*3 6.9 C 0 km/h
3025 09-10-2011 05:20:05 6.9 C 7.08 g/m*3 6.9 C 0 km/h
Sensor: Nr:Datum:Temp:Abs-Feuchte:Windchill:Wind:
Aussen-T/F 3026 09-10-2011 05:32:06 6.8 C 7.04 g/m*3 6.8 C 0 km/h
3027 09-10-2011 05:44:06 6.9 C 7.08 g/m*3 6.9 C 0 km/h
3028 09-10-2011 05:56:06 6.9 C 7.16 g/m*3 6.9 C 0 km/h
3029 09-10-2011 06:08:06 6.9 C 7.16 g/m*3 6.9 C 0 km/h
3030 09-10-2011 06:20:06 7 C 7.13 g/m*3 7 C 0 km/h
3031 09-10-2011 06:32:06 6.9 C 7.16 g/m*3 6.9 C 0 km/h
3032 09-10-2011 06:44:06 6.3 C 6.81 g/m*3 6.3 C 0 km/h
3033 09-10-2011 06:56:06 6.1 C 6.72 g/m*3 6.1 C 0 km/h
3034 09-10-2011 07:08:06 5.9 C 6.71 g/m*3 5.9 C 0 km/h
3035 09-10-2011 07:20:06 6.2 C 6.77 g/m*3 6.2 C 0 km/h
3036 09-10-2011 07:32:06 5.8 C 6.66 g/m*3 5.8 C 0 km/h
3037 09-10-2011 07:44:06 5.7 C 6.62 g/m*3 5.7 C 0 km/h
3038 09-10-2011 07:56:06 5.6 C 6.57 g/m*3 5.6 C 0 km/h
3039 09-10-2011 08:08:06 5.6 C 6.57 g/m*3 5.6 C 0 km/h
3040 09-10-2011 08:20:03 5.4 C 6.49 g/m*3 5.4 C 0 km/h
3041 09-10-2011 08:32:03 6.3 C 6.81 g/m*3 6.3 C 0 km/h
3042 09-10-2011 08:44:03 6.3 C 6.81 g/m*3 6.3 C 0 km/h
3043 09-10-2011 08:56:02 6.1 C 6.72 g/m*3 6.1 C 0 km/h
3044 09-10-2011 09:08:02 6.2 C 6.77 g/m*3 6.2 C 0 km/h
3045 09-10-2011 09:20:02 6.4 C 6.85 g/m*3 6.4 C 0 km/h
3046 09-10-2011 09:32:02 6.5 C 6.9 g/m*3 6.5 C 0 km/h
3047 09-10-2011 09:44:02 6.7 C 6.99 g/m*3 6.7 C 0 km/h
3048 09-10-2011 09:56:01 7 C 7.05 g/m*3 7 C 0 km/h
3049 09-10-2011 10:08:02 6.6 C 6.87 g/m*3 6.6 C 0 km/h
3050 09-10-2011 10:20:01 6.8 C 6.96 g/m*3 6.8 C 0 km/h
Sensor: Nr:Datum:Temp:Abs-Feuchte:Windchill:Wind:
Aussen-T/F 3051 09-10-2011 10:32:02 6.9 C 6.93 g/m*3 6.9 C 0 km/h
3052 09-10-2011 10:44:03 7 C 6.9 g/m*3 7 C 0 km/h
3053 09-10-2011 10:56:02 7.1 C 6.94 g/m*3 7.1 C 0 km/h
3054 09-10-2011 11:08:02 7.3 C 7.03 g/m*3 7.3 C 0 km/h
3055 09-10-2011 11:20:02 7.9 C 7.31 g/m*3 7.9 C 0 km/h
3056 09-10-2011 11:32:02 8.7 C 7.52 g/m*3 8.7 C 0 km/h
3057 09-10-2011 11:44:02 9.8 C 7.61 g/m*3 9.8 C 0 km/h
3058 09-10-2011 11:56:01 10.4 C 6.55 g/m*3 10.4 C 0 km/h
3059 09-10-2011 12:08:02 10.4 C 6.17 g/m*3 10.4 C 0 km/h
3060 09-10-2011 12:20:01 10.1 C 5.86 g/m*3 10.1 C 0 km/h
3061 09-10-2011 12:32:01 10.5 C 6.01 g/m*3 10.5 C 0 km/h
3062 09-10-2011 12:44:01 10.9 C 6.07 g/m*3 10.9 C 0 km/h
3063 09-10-2011 12:56:01 11 C 5.81 g/m*3 11 C 0 km/h
3064 09-10-2011 13:08:02 11.3 C 5.92 g/m*3 11.3 C 0 km/h
3065 09-10-2011 13:20:01 11.8 C 5.68 g/m*3 11.8 C 0 km/h
3066 09-10-2011 13:32:02 12.4 C 5.57 g/m*3 12.4 C 0 km/h
3067 09-10-2011 13:44:02 13.3 C 5.66 g/m*3 13.3 C 0 km/h
3068 09-10-2011 13:56:01 12.8 C 5.6 g/m*3 12.8 C 0 km/h
3069 09-10-2011 14:08:02 13 C 5.67 g/m*3 13 C 0 km/h
3070 09-10-2011 14:20:02 12.9 C 5.86 g/m*3 12.9 C 0 km/h
3071 09-10-2011 14:32:01 13.7 C 5.68 g/m*3 13.7 C 0 km/h
3072 09-10-2011 14:44:01 13.5 C 5.38 g/m*3 13.5 C 0 km/h
3073 09-10-2011 14:56:02 13.2 C 5.4 g/m*3 13.2 C 0 km/h
3074 09-10-2011 15:08:01 13.8 C 5.6 g/m*3 13.8 C 0 km/h
3075 09-10-2011 15:20:02 14 C 5.67 g/m*3 14 C 0 km/h
Sensor: Nr:Datum:Temp:Abs-Feuchte:Windchill:Wind:
Aussen-T/F 3076 09-10-2011 15:32:02 14.2 C 5.49 g/m*3 14.2 C 0 km/h
3077 09-10-2011 15:44:02 14.2 C 5.37 g/m*3 14.2 C 0 km/h
3078 09-10-2011 15:56:02 14.1 C 4.98 g/m*3 14.1 C 0 km/h
3079 09-10-2011 16:08:02 14.3 C 5.16 g/m*3 14.3 C 0 km/h
3080 09-10-2011 16:20:02 14.6 C 5.26 g/m*3 14.6 C 0 km/h
3081 09-10-2011 16:32:02 14.6 C 5.26 g/m*3 14.6 C 0 km/h
3082 09-10-2011 16:44:02 14.9 C 5.74 g/m*3 14.9 C 0 km/h
3083 09-10-2011 16:56:01 14 C 5.67 g/m*3 14 C 0 km/h
3084 09-10-2011 17:08:02 14.2 C 5.86 g/m*3 14.2 C 0 km/h
3085 09-10-2011 17:20:01 13.9 C 5.75 g/m*3 13.9 C 0 km/h
3086 09-10-2011 17:32:01 13.1 C 6.05 g/m*3 13.1 C 0 km/h
3087 09-10-2011 17:44:01 12.7 C 6.23 g/m*3 12.7 C 0 km/h
3088 09-10-2011 17:56:01 12 C 6.5 g/m*3 12 C 0 km/h
3089 09-10-2011 18:08:02 11.4 C 6.77 g/m*3 11.4 C 0 km/h
3090 09-10-2011 18:20:01 10.6 C 6.73 g/m*3 10.6 C 0 km/h
3091 09-10-2011 18:32:01 10 C 6.86 g/m*3 10 C 0 km/h
3092 09-10-2011 18:44:01 9.7 C 7.28 g/m*3 9.7 C 0 km/h
3093 09-10-2011 18:56:01 9.5 C 7.28 g/m*3 9.5 C 0 km/h
3094 09-10-2011 19:08:02 9.5 C 7.46 g/m*3 9.5 C 0 km/h
3095 09-10-2011 19:20:02 9.4 C 7.6 g/m*3 9.4 C 0 km/h
3096 09-10-2011 19:32:01 9.4 C 7.69 g/m*3 9.4 C 0 km/h
3097 09-10-2011 19:44:01 9.3 C 7.64 g/m*3 9.3 C 0 km/h
3098 09-10-2011 19:56:02 9.5 C 7.83 g/m*3 9.5 C 0 km/h
3099 09-10-2011 20:08:01 9.4 C 7.78 g/m*3 9.4 C 0 km/h
3100 09-10-2011 20:20:01 9.4 C 7.78 g/m*3 9.4 C 0 km/h
Sensor: Nr:Datum:Temp:Abs-Feuchte:Windchill:Wind:
Aussen-T/F 3101 09-10-2011 20:32:02 9.5 C 7.83 g/m*3 9.5 C 0 km/h
3102 09-10-2011 20:44:02 9.5 C 7.83 g/m*3 9.5 C 0 km/h
3103 09-10-2011 20:56:02 9.5 C 7.83 g/m*3 9.5 C 0 km/h
3104 09-10-2011 21:08:01 9.5 C 7.92 g/m*3 9.5 C 0 km/h
3105 09-10-2011 21:20:02 9.5 C 7.92 g/m*3 9.5 C 0 km/h
3106 09-10-2011 21:32:02 9.6 C 7.97 g/m*3 9.6 C 0 km/h
3107 09-10-2011 21:44:02 9.7 C 8.02 g/m*3 9.7 C 0 km/h
3108 09-10-2011 21:56:01 9.8 C 8.07 g/m*3 9.8 C 0 km/h
3109 09-10-2011 22:08:02 9.8 C 8.07 g/m*3 9.8 C 0 km/h
3110 09-10-2011 22:20:01 9.9 C 8.22 g/m*3 9.9 C 0 km/h
3111 09-10-2011 22:33:03 10 C 8.17 g/m*3 10 C 0 km/h
3112 09-10-2011 22:45:03 10.1 C 8.23 g/m*3 10.1 C 0 km/h
3113 09-10-2011 22:57:03 10.4 C 8.29 g/m*3 10.4 C 0 km/h
3114 09-10-2011 23:09:03 10.5 C 8.24 g/m*3 10.5 C 0 km/h
3115 09-10-2011 23:21:03 10.6 C 8.3 g/m*3 10.6 C 0 km/h
3116 09-10-2011 23:33:03 10.7 C 8.45 g/m*3 10.7 C 0 km/h
3117 09-10-2011 23:45:03 10.7 C 8.45 g/m*3 10.7 C 0 km/h
3118 09-10-2011 23:57:03 10.7 C 8.45 g/m*3 10.7 C 0 km/h
3119 10-10-2011 00:09:03 10.9 C 8.55 g/m*3 10.9 C 0 km/h
3120 10-10-2011 00:21:03 10.8 C 8.5 g/m*3 10.8 C 0 km/h
3121 10-10-2011 00:33:03 11.1 C 8.66 g/m*3 11.1 C 0 km/h
3122 10-10-2011 00:45:04 11.2 C 8.62 g/m*3 11.2 C 0 km/h
3123 10-10-2011 00:57:04 11.4 C 8.62 g/m*3 11.4 C 0 km/h
3124 10-10-2011 01:09:04 11.7 C 8.79 g/m*3 11.7 C 0 km/h
3125 10-10-2011 01:21:04 11.7 C 8.79 g/m*3 11.7 C 0 km/h
Sensor: Nr:Datum:Temp:Abs-Feuchte:Windchill:Wind:
Aussen-T/F 3126 10-10-2011 01:33:04 11.7 C 8.79 g/m*3 11.7 C 0 km/h
3127 10-10-2011 01:45:04 11.7 C 8.79 g/m*3 11.7 C 0 km/h
3128 10-10-2011 01:57:04 11.9 C 9 g/m*3 11.9 C 0 km/h
3129 10-10-2011 02:09:04 11.9 C 8.9 g/m*3 11.9 C 0 km/h
3130 10-10-2011 02:21:04 12.1 C 9.01 g/m*3 12.1 C 0 km/h
3131 10-10-2011 02:33:04 12.2 C 8.96 g/m*3 12.2 C 0 km/h
3132 10-10-2011 02:45:04 12.1 C 8.9 g/m*3 12.1 C 0 km/h
3133 10-10-2011 02:57:04 12.2 C 9.06 g/m*3 12.2 C 0 km/h
3134 10-10-2011 03:09:04 12.3 C 9.12 g/m*3 12.3 C 0 km/h
3135 10-10-2011 03:21:04 12.3 C 9.12 g/m*3 12.3 C 0 km/h
3136 10-10-2011 03:33:04 12.5 C 9.24 g/m*3 12.5 C 0 km/h
3137 10-10-2011 03:45:04 12.7 C 9.46 g/m*3 12.7 C 0 km/h
3138 10-10-2011 03:57:04 12.8 C 9.52 g/m*3 12.8 C 0 km/h
3139 10-10-2011 04:09:04 12.8 C 9.41 g/m*3 12.8 C 0 km/h
3140 10-10-2011 04:21:04 12.8 C 9.41 g/m*3 12.8 C 0 km/h
3141 10-10-2011 04:33:04 12.7 C 9.35 g/m*3 12.7 C 0 km/h
3142 10-10-2011 04:45:04 12.7 C 9.46 g/m*3 12.7 C 0 km/h
3143 10-10-2011 04:57:04 12.9 C 9.58 g/m*3 12.9 C 0 km/h
3144 10-10-2011 05:09:05 12.9 C 9.58 g/m*3 12.9 C 0 km/h
3145 10-10-2011 05:21:05 13.1 C 9.59 g/m*3 13.1 C 0 km/h
3146 10-10-2011 05:33:05 13.1 C 9.59 g/m*3 13.1 C 0 km/h
3147 10-10-2011 05:45:05 13.1 C 9.7 g/m*3 13.1 C 0 km/h
3148 10-10-2011 05:57:05 13.2 C 9.76 g/m*3 13.2 C 0 km/h
3149 10-10-2011 06:09:05 13.2 C 9.87 g/m*3 13.2 C 0 km/h
3150 10-10-2011 06:21:02 13.3 C 9.94 g/m*3 13.3 C 0 km/h
Sensor: Nr:Datum:Temp:Abs-Feuchte:Windchill:Wind:
Aussen-T/F 3151 10-10-2011 06:33:02 13.3 C 9.94 g/m*3 13.3 C 0 km/h
3152 10-10-2011 06:45:02 13.5 C 10.06 g/m*3 13.5 C 0 km/h
3153 10-10-2011 06:57:02 13.7 C 10.18 g/m*3 13.7 C 0 km/h
3154 10-10-2011 07:09:02 13.9 C 10.31 g/m*3 13.9 C 0 km/h
3155 10-10-2011 07:21:02 13.8 C 10.25 g/m*3 13.8 C 0 km/h
3156 10-10-2011 07:33:02 14.1 C 10.32 g/m*3 14.1 C 0 km/h
3157 10-10-2011 07:45:01 14.1 C 10.32 g/m*3 14.1 C 0 km/h
3158 10-10-2011 07:57:01 14.2 C 10.38 g/m*3 14.2 C 0 km/h
3159 10-10-2011 08:09:01 14.1 C 10.44 g/m*3 14.1 C 0 km/h
3160 10-10-2011 08:21:01 14.3 C 10.57 g/m*3 14.3 C 0 km/h
3161 10-10-2011 08:33:02 14.5 C 10.7 g/m*3 14.5 C 0 km/h
3162 10-10-2011 08:45:02 14.6 C 10.76 g/m*3 14.6 C 0 km/h
3163 10-10-2011 08:57:02 14.8 C 10.89 g/m*3 14.8 C 0 km/h
3164 10-10-2011 09:09:02 14.9 C 10.96 g/m*3 14.9 C 0 km/h
3165 10-10-2011 09:21:01 15.3 C 11.23 g/m*3 15.3 C 0 km/h
3166 10-10-2011 09:33:02 15.8 C 11.44 g/m*3 15.8 C 0 km/h
3167 10-10-2011 09:45:02 16.5 C 11.51 g/m*3 16.5 C 0 km/h
3168 10-10-2011 09:57:02 16.9 C 11.08 g/m*3 16.9 C 0 km/h
3169 10-10-2011 10:09:02 17.4 C 10.97 g/m*3 17.4 C 0 km/h
3170 10-10-2011 10:21:02 17.8 C 10.78 g/m*3 17.8 C 0 km/h
3171 10-10-2011 10:33:02 18.1 C 10.35 g/m*3 18.1 C 0 km/h
3172 10-10-2011 10:45:02 18 C 10.44 g/m*3 18 C 0 km/h
3173 10-10-2011 10:57:02 18.2 C 10.57 g/m*3 18.2 C 0 km/h
3174 10-10-2011 11:09:02 18.3 C 10.16 g/m*3 18.3 C 0 km/h
3175 10-10-2011 11:21:02 18.5 C 10.28 g/m*3 18.5 C 0 km/h
Sensor: Nr:Datum:Temp:Abs-Feuchte:Windchill:Wind:
Aussen-T/F 3176 10-10-2011 11:33:02 18.9 C 10.21 g/m*3 18.9 C 0 km/h
3177 10-10-2011 11:45:02 18.9 C 10.04 g/m*3 18.9 C 0 km/h
3178 10-10-2011 11:57:02 19.1 C 9.84 g/m*3 19.1 C 0 km/h
3179 10-10-2011 12:09:02 19.4 C 9.84 g/m*3 19.4 C 0 km/h
3180 10-10-2011 12:21:02 19.4 C 9.68 g/m*3 19.4 C 0 km/h
3181 10-10-2011 12:33:02 19.6 C 9.62 g/m*3 19.6 C 0 km/h
3182 10-10-2011 12:45:02 19.4 C 9.34 g/m*3 19.4 C 0 km/h
3183 10-10-2011 12:57:02 19.6 C 9.45 g/m*3 19.6 C 0 km/h
3184 10-10-2011 13:09:02 19.5 C 9.4 g/m*3 19.5 C 0 km/h
3185 10-10-2011 13:21:02 19.8 C 9.39 g/m*3 19.8 C 0 km/h
3186 10-10-2011 13:33:02 20.1 C 9.04 g/m*3 20.1 C 0 km/h
3187 10-10-2011 13:45:02 20.6 C 9.31 g/m*3 20.6 C 0 km/h
3188 10-10-2011 13:57:02 20.7 C 9 g/m*3 20.7 C 0 km/h
3189 10-10-2011 14:09:01 20.6 C 8.77 g/m*3 20.6 C 0 km/h
3190 10-10-2011 14:21:01 20.8 C 9.05 g/m*3 20.8 C 0 km/h
3191 10-10-2011 14:33:02 20.9 C 8.74 g/m*3 20.9 C 0 km/h
3192 10-10-2011 14:45:02 20.8 C 8.69 g/m*3 20.8 C 0 km/h
3193 10-10-2011 14:57:02 20.8 C 8.69 g/m*3 20.8 C 0 km/h
3194 10-10-2011 15:09:02 20.8 C 8.69 g/m*3 20.8 C 0 km/h
3195 10-10-2011 15:21:01 20.7 C 8.82 g/m*3 20.7 C 0 km/h
3196 10-10-2011 15:33:02 20.9 C 8.56 g/m*3 20.9 C 0 km/h
3197 10-10-2011 15:45:02 21.1 C 8.29 g/m*3 21.1 C 0 km/h
3198 10-10-2011 15:57:02 21.2 C 8.34 g/m*3 21.2 C 0 km/h
3199 10-10-2011 16:09:02 20.9 C 8.38 g/m*3 20.9 C 0 km/h
3200 10-10-2011 16:21:02 20.7 C 8.46 g/m*3 20.7 C 0 km/h
Sensor: Nr:Datum:Temp:Abs-Feuchte:Windchill:Wind:
Aussen-T/F 3201 10-10-2011 16:33:02 21.6 C 8.53 g/m*3 21.6 C 0 km/h
3202 10-10-2011 16:45:02 21.9 C 8.1 g/m*3 21.9 C 0 km/h
3203 10-10-2011 16:57:02 22.4 C 7.94 g/m*3 22.4 C 0 km/h
3204 10-10-2011 17:09:02 21.4 C 8.44 g/m*3 21.4 C 0 km/h
3205 10-10-2011 17:21:02 20.9 C 8.38 g/m*3 20.9 C 0 km/h
3206 10-10-2011 17:33:01 22 C 8.54 g/m*3 22 C 0 km/h
3207 10-10-2011 17:45:02 21.3 C 8.76 g/m*3 21.3 C 0 km/h
3208 10-10-2011 17:57:02 21 C 8.24 g/m*3 21 C 0 km/h
3209 10-10-2011 18:09:01 20 C 8.3 g/m*3 20 C 0 km/h
3210 10-10-2011 18:21:02 19.4 C 8.51 g/m*3 19.4 C 0 km/h
3211 10-10-2011 18:33:02 18.8 C 8.7 g/m*3 18.8 C 0 km/h
3212 10-10-2011 18:45:02 18.1 C 8.65 g/m*3 18.1 C 0 km/h
3213 10-10-2011 18:57:02 18 C 8.75 g/m*3 18 C 0 km/h
3214 10-10-2011 19:09:02 18 C 8.75 g/m*3 18 C 0 km/h
3215 10-10-2011 19:21:02 17.9 C 8.86 g/m*3 17.9 C 0 km/h
3216 10-10-2011 19:33:02 17.6 C 8.85 g/m*3 17.6 C 0 km/h
3217 10-10-2011 19:45:02 17.7 C 9.05 g/m*3 17.7 C 0 km/h
3218 10-10-2011 19:57:02 17.7 C 9.05 g/m*3 17.7 C 0 km/h
3219 10-10-2011 20:09:02 17.7 C 9.05 g/m*3 17.7 C 0 km/h
3220 10-10-2011 20:21:02 17.6 C 9.15 g/m*3 17.6 C 0 km/h
3221 10-10-2011 20:33:02 17.5 C 9.24 g/m*3 17.5 C 0 km/h
3222 10-10-2011 20:45:01 17.4 C 9.34 g/m*3 17.4 C 0 km/h
3223 10-10-2011 20:57:01 17.3 C 9.43 g/m*3 17.3 C 0 km/h
3224 10-10-2011 21:09:01 17.4 C 9.48 g/m*3 17.4 C 0 km/h
3225 10-10-2011 21:21:02 17.3 C 9.58 g/m*3 17.3 C 0 km/h
Sensor: Nr:Datum:Temp:Abs-Feuchte:Windchill:Wind:
Aussen-T/F 3226 10-10-2011 21:33:01 17.2 C 9.37 g/m*3 17.2 C 0 km/h
3227 10-10-2011 21:45:02 17.3 C 9.43 g/m*3 17.3 C 0 km/h
3228 10-10-2011 21:57:02 17.2 C 9.23 g/m*3 17.2 C 0 km/h
3229 10-10-2011 22:09:02 17.1 C 9.03 g/m*3 17.1 C 0 km/h
3230 10-10-2011 22:21:02 17 C 8.97 g/m*3 17 C 0 km/h
3231 10-10-2011 22:33:02 17.1 C 8.88 g/m*3 17.1 C 0 km/h
3232 10-10-2011 22:45:02 17.1 C 8.88 g/m*3 17.1 C 0 km/h
3233 10-10-2011 22:57:02 16.9 C 9.06 g/m*3 16.9 C 0 km/h
3234 10-10-2011 23:09:01 17 C 8.83 g/m*3